<?xml version="1.0" encoding="UTF-8" standalone="no" ?>
<gpx xmlns="http://www.topografix.com/GPX/1/1" xmlns:xsi="http://www.w3.org/2001/XMLSchema-instance" xsi:schemaLocation="http://www.topografix.com/GPX/1/1 http://www.topografix.com/GPX/1/1/gpx.xsd" version="1.1" creator="VisuGPX - https://www.visugpx.com">
  <metadata>
    <name>Baudour ffbmp 19/02/17</name>
    <desc><![CDATA[Très belle marche fédérale .Participants 5 membres pour les A N  DE ATH]]></desc>
  </metadata>
  <trk>
    <name><![CDATA[2017-02-19 14:36:22]]></name>
    <trkseg>
      <trkpt lat="50.48121" lon="3.83602">
        <ele>55.41</ele>
        <time>2017-02-19T08:53:03Z</time>
      </trkpt>
      <trkpt lat="50.4812" lon="3.83602">
        <ele>55.41</ele>
        <time>2017-02-19T08:53:04Z</time>
      </trkpt>
      <trkpt lat="50.4812" lon="3.83602">
        <ele>51.09</ele>
        <time>2017-02-19T08:53:07Z</time>
      </trkpt>
      <trkpt lat="50.48123" lon="3.83598">
        <ele>50.61</ele>
        <time>2017-02-19T08:53:29Z</time>
      </trkpt>
      <trkpt lat="50.48122" lon="3.83596">
        <ele>51.57</ele>
        <time>2017-02-19T08:53:31Z</time>
      </trkpt>
      <trkpt lat="50.4812" lon="3.83591">
        <ele>52.05</ele>
        <time>2017-02-19T08:53:48Z</time>
      </trkpt>
      <trkpt lat="50.48121" lon="3.83581">
        <ele>50.61</ele>
        <time>2017-02-19T08:54:00Z</time>
      </trkpt>
      <trkpt lat="50.48119" lon="3.83576">
        <ele>50.61</ele>
        <time>2017-02-19T08:54:17Z</time>
      </trkpt>
      <trkpt lat="50.4812" lon="3.83585">
        <ele>50.61</ele>
        <time>2017-02-19T08:54:34Z</time>
      </trkpt>
      <trkpt lat="50.48121" lon="3.83582">
        <ele>50.13</ele>
        <time>2017-02-19T08:54:52Z</time>
      </trkpt>
      <trkpt lat="50.48121" lon="3.83589">
        <ele>50.13</ele>
        <time>2017-02-19T08:55:15Z</time>
      </trkpt>
      <trkpt lat="50.48121" lon="3.83595">
        <ele>50.13</ele>
        <time>2017-02-19T08:55:33Z</time>
      </trkpt>
      <trkpt lat="50.48121" lon="3.83594">
        <ele>50.13</ele>
        <time>2017-02-19T08:55:49Z</time>
      </trkpt>
      <trkpt lat="50.48118" lon="3.83591">
        <ele>50.13</ele>
        <time>2017-02-19T08:56:10Z</time>
      </trkpt>
      <trkpt lat="50.4812" lon="3.83592">
        <ele>50.13</ele>
        <time>2017-02-19T08:56:25Z</time>
      </trkpt>
      <trkpt lat="50.48122" lon="3.83591">
        <ele>50.61</ele>
        <time>2017-02-19T08:56:45Z</time>
      </trkpt>
      <trkpt lat="50.48121" lon="3.83589">
        <ele>50.61</ele>
        <time>2017-02-19T08:57:00Z</time>
      </trkpt>
      <trkpt lat="50.48123" lon="3.83591">
        <ele>50.61</ele>
        <time>2017-02-19T08:57:14Z</time>
      </trkpt>
      <trkpt lat="50.48121" lon="3.83589">
        <ele>51.09</ele>
        <time>2017-02-19T08:57:31Z</time>
      </trkpt>
      <trkpt lat="50.48122" lon="3.83586">
        <ele>51.09</ele>
        <time>2017-02-19T08:57:49Z</time>
      </trkpt>
      <trkpt lat="50.4812" lon="3.83591">
        <ele>51.09</ele>
        <time>2017-02-19T08:58:12Z</time>
      </trkpt>
      <trkpt lat="50.48122" lon="3.83588">
        <ele>51.09</ele>
        <time>2017-02-19T08:58:28Z</time>
      </trkpt>
      <trkpt lat="50.48122" lon="3.83577">
        <ele>51.09</ele>
        <time>2017-02-19T08:58:43Z</time>
      </trkpt>
      <trkpt lat="50.48127" lon="3.83565">
        <ele>49.65</ele>
        <time>2017-02-19T08:58:55Z</time>
      </trkpt>
      <trkpt lat="50.48128" lon="3.83564">
        <ele>49.65</ele>
        <time>2017-02-19T08:58:58Z</time>
      </trkpt>
      <trkpt lat="50.4814" lon="3.8356">
        <ele>49.65</ele>
        <time>2017-02-19T08:59:10Z</time>
      </trkpt>
      <trkpt lat="50.48155" lon="3.83578">
        <ele>49.16</ele>
        <time>2017-02-19T08:59:21Z</time>
      </trkpt>
      <trkpt lat="50.48158" lon="3.83585">
        <ele>49.16</ele>
        <time>2017-02-19T08:59:24Z</time>
      </trkpt>
      <trkpt lat="50.48158" lon="3.83588">
        <ele>48.68</ele>
        <time>2017-02-19T08:59:26Z</time>
      </trkpt>
      <trkpt lat="50.48154" lon="3.83596">
        <ele>50.13</ele>
        <time>2017-02-19T08:59:31Z</time>
      </trkpt>
      <trkpt lat="50.48154" lon="3.83598">
        <ele>50.13</ele>
        <time>2017-02-19T08:59:32Z</time>
      </trkpt>
      <trkpt lat="50.48154" lon="3.83606">
        <ele>50.13</ele>
        <time>2017-02-19T08:59:37Z</time>
      </trkpt>
      <trkpt lat="50.48151" lon="3.83614">
        <ele>50.13</ele>
        <time>2017-02-19T08:59:50Z</time>
      </trkpt>
      <trkpt lat="50.48148" lon="3.8363">
        <ele>50.13</ele>
        <time>2017-02-19T08:59:59Z</time>
      </trkpt>
      <trkpt lat="50.48145" lon="3.83647">
        <ele>50.13</ele>
        <time>2017-02-19T09:00:08Z</time>
      </trkpt>
      <trkpt lat="50.48144" lon="3.83652">
        <ele>50.13</ele>
        <time>2017-02-19T09:00:10Z</time>
      </trkpt>
      <trkpt lat="50.48144" lon="3.83658">
        <ele>50.13</ele>
        <time>2017-02-19T09:00:13Z</time>
      </trkpt>
      <trkpt lat="50.48145" lon="3.83663">
        <ele>50.13</ele>
        <time>2017-02-19T09:00:16Z</time>
      </trkpt>
      <trkpt lat="50.48148" lon="3.83668">
        <ele>50.13</ele>
        <time>2017-02-19T09:00:20Z</time>
      </trkpt>
      <trkpt lat="50.48158" lon="3.83682">
        <ele>50.13</ele>
        <time>2017-02-19T09:00:34Z</time>
      </trkpt>
      <trkpt lat="50.4817" lon="3.83696">
        <ele>50.13</ele>
        <time>2017-02-19T09:00:48Z</time>
      </trkpt>
      <trkpt lat="50.48178" lon="3.83711">
        <ele>50.13</ele>
        <time>2017-02-19T09:00:59Z</time>
      </trkpt>
      <trkpt lat="50.48177" lon="3.83721">
        <ele>50.13</ele>
        <time>2017-02-19T09:01:03Z</time>
      </trkpt>
      <trkpt lat="50.48176" lon="3.83742">
        <ele>50.61</ele>
        <time>2017-02-19T09:01:19Z</time>
      </trkpt>
      <trkpt lat="50.48178" lon="3.83748">
        <ele>50.61</ele>
        <time>2017-02-19T09:01:24Z</time>
      </trkpt>
      <trkpt lat="50.48184" lon="3.83764">
        <ele>51.09</ele>
        <time>2017-02-19T09:01:37Z</time>
      </trkpt>
      <trkpt lat="50.48198" lon="3.83774">
        <ele>51.09</ele>
        <time>2017-02-19T09:01:50Z</time>
      </trkpt>
      <trkpt lat="50.48201" lon="3.83776">
        <ele>51.09</ele>
        <time>2017-02-19T09:01:53Z</time>
      </trkpt>
      <trkpt lat="50.48215" lon="3.83777">
        <ele>51.09</ele>
        <time>2017-02-19T09:02:06Z</time>
      </trkpt>
      <trkpt lat="50.4823" lon="3.83782">
        <ele>51.57</ele>
        <time>2017-02-19T09:02:20Z</time>
      </trkpt>
      <trkpt lat="50.48231" lon="3.83783">
        <ele>51.57</ele>
        <time>2017-02-19T09:02:21Z</time>
      </trkpt>
      <trkpt lat="50.48251" lon="3.83784">
        <ele>52.05</ele>
        <time>2017-02-19T09:02:34Z</time>
      </trkpt>
      <trkpt lat="50.48269" lon="3.83791">
        <ele>52.53</ele>
        <time>2017-02-19T09:02:50Z</time>
      </trkpt>
      <trkpt lat="50.48282" lon="3.83793">
        <ele>53.01</ele>
        <time>2017-02-19T09:03:01Z</time>
      </trkpt>
      <trkpt lat="50.48302" lon="3.83785">
        <ele>53.49</ele>
        <time>2017-02-19T09:03:16Z</time>
      </trkpt>
      <trkpt lat="50.4832" lon="3.83769">
        <ele>53.97</ele>
        <time>2017-02-19T09:03:30Z</time>
      </trkpt>
      <trkpt lat="50.48334" lon="3.83755">
        <ele>54.45</ele>
        <time>2017-02-19T09:03:41Z</time>
      </trkpt>
      <trkpt lat="50.48351" lon="3.83763">
        <ele>54.93</ele>
        <time>2017-02-19T09:03:57Z</time>
      </trkpt>
      <trkpt lat="50.48354" lon="3.83766">
        <ele>56.37</ele>
        <time>2017-02-19T09:04:01Z</time>
      </trkpt>
      <trkpt lat="50.48366" lon="3.83778">
        <ele>56.86</ele>
        <time>2017-02-19T09:04:13Z</time>
      </trkpt>
      <trkpt lat="50.48377" lon="3.83783">
        <ele>57.82</ele>
        <time>2017-02-19T09:04:25Z</time>
      </trkpt>
      <trkpt lat="50.48378" lon="3.83784">
        <ele>57.82</ele>
        <time>2017-02-19T09:04:26Z</time>
      </trkpt>
      <trkpt lat="50.48387" lon="3.83793">
        <ele>58.3</ele>
        <time>2017-02-19T09:04:35Z</time>
      </trkpt>
      <trkpt lat="50.48403" lon="3.8381">
        <ele>58.78</ele>
        <time>2017-02-19T09:04:51Z</time>
      </trkpt>
      <trkpt lat="50.48417" lon="3.83825">
        <ele>59.74</ele>
        <time>2017-02-19T09:05:05Z</time>
      </trkpt>
      <trkpt lat="50.48427" lon="3.83834">
        <ele>60.7</ele>
        <time>2017-02-19T09:05:15Z</time>
      </trkpt>
      <trkpt lat="50.48439" lon="3.83847">
        <ele>60.7</ele>
        <time>2017-02-19T09:05:26Z</time>
      </trkpt>
      <trkpt lat="50.4844" lon="3.83849">
        <ele>60.7</ele>
        <time>2017-02-19T09:05:27Z</time>
      </trkpt>
      <trkpt lat="50.48445" lon="3.83856">
        <ele>60.7</ele>
        <time>2017-02-19T09:05:33Z</time>
      </trkpt>
      <trkpt lat="50.48452" lon="3.83867">
        <ele>61.18</ele>
        <time>2017-02-19T09:05:40Z</time>
      </trkpt>
      <trkpt lat="50.48469" lon="3.83882">
        <ele>62.62</ele>
        <time>2017-02-19T09:05:55Z</time>
      </trkpt>
      <trkpt lat="50.48487" lon="3.83883">
        <ele>63.1</ele>
        <time>2017-02-19T09:06:10Z</time>
      </trkpt>
      <trkpt lat="50.48505" lon="3.83878">
        <ele>64.07</ele>
        <time>2017-02-19T09:06:24Z</time>
      </trkpt>
      <trkpt lat="50.48523" lon="3.83872">
        <ele>64.55</ele>
        <time>2017-02-19T09:06:40Z</time>
      </trkpt>
      <trkpt lat="50.48546" lon="3.83864">
        <ele>64.55</ele>
        <time>2017-02-19T09:06:57Z</time>
      </trkpt>
      <trkpt lat="50.48567" lon="3.83859">
        <ele>65.51</ele>
        <time>2017-02-19T09:07:14Z</time>
      </trkpt>
      <trkpt lat="50.48588" lon="3.83853">
        <ele>65.99</ele>
        <time>2017-02-19T09:07:30Z</time>
      </trkpt>
      <trkpt lat="50.48611" lon="3.83847">
        <ele>66.47</ele>
        <time>2017-02-19T09:07:47Z</time>
      </trkpt>
      <trkpt lat="50.48632" lon="3.83855">
        <ele>66.47</ele>
        <time>2017-02-19T09:08:02Z</time>
      </trkpt>
      <trkpt lat="50.48647" lon="3.83871">
        <ele>66.95</ele>
        <time>2017-02-19T09:08:17Z</time>
      </trkpt>
      <trkpt lat="50.4866" lon="3.83883">
        <ele>67.43</ele>
        <time>2017-02-19T09:08:28Z</time>
      </trkpt>
      <trkpt lat="50.48668" lon="3.8389">
        <ele>67.43</ele>
        <time>2017-02-19T09:08:35Z</time>
      </trkpt>
      <trkpt lat="50.48677" lon="3.83899">
        <ele>67.91</ele>
        <time>2017-02-19T09:08:44Z</time>
      </trkpt>
      <trkpt lat="50.48701" lon="3.83923">
        <ele>67.91</ele>
        <time>2017-02-19T09:09:04Z</time>
      </trkpt>
      <trkpt lat="50.48706" lon="3.83928">
        <ele>68.87</ele>
        <time>2017-02-19T09:09:09Z</time>
      </trkpt>
      <trkpt lat="50.48711" lon="3.83932">
        <ele>68.87</ele>
        <time>2017-02-19T09:09:13Z</time>
      </trkpt>
      <trkpt lat="50.48718" lon="3.83938">
        <ele>68.87</ele>
        <time>2017-02-19T09:09:20Z</time>
      </trkpt>
      <trkpt lat="50.48722" lon="3.83942">
        <ele>69.35</ele>
        <time>2017-02-19T09:09:24Z</time>
      </trkpt>
      <trkpt lat="50.48744" lon="3.83962">
        <ele>70.31</ele>
        <time>2017-02-19T09:09:42Z</time>
      </trkpt>
      <trkpt lat="50.48756" lon="3.83973">
        <ele>71.27</ele>
        <time>2017-02-19T09:09:53Z</time>
      </trkpt>
      <trkpt lat="50.48767" lon="3.83986">
        <ele>70.79</ele>
        <time>2017-02-19T09:10:05Z</time>
      </trkpt>
      <trkpt lat="50.48777" lon="3.83996">
        <ele>71.27</ele>
        <time>2017-02-19T09:10:14Z</time>
      </trkpt>
      <trkpt lat="50.48792" lon="3.84009">
        <ele>71.76</ele>
        <time>2017-02-19T09:10:28Z</time>
      </trkpt>
      <trkpt lat="50.48794" lon="3.84011">
        <ele>71.76</ele>
        <time>2017-02-19T09:10:30Z</time>
      </trkpt>
      <trkpt lat="50.48812" lon="3.84031">
        <ele>72.24</ele>
        <time>2017-02-19T09:10:46Z</time>
      </trkpt>
      <trkpt lat="50.48833" lon="3.8405">
        <ele>72.72</ele>
        <time>2017-02-19T09:11:04Z</time>
      </trkpt>
      <trkpt lat="50.48848" lon="3.84066">
        <ele>72.72</ele>
        <time>2017-02-19T09:11:18Z</time>
      </trkpt>
      <trkpt lat="50.48847" lon="3.84069">
        <ele>72.72</ele>
        <time>2017-02-19T09:11:20Z</time>
      </trkpt>
      <trkpt lat="50.48832" lon="3.84102">
        <ele>73.2</ele>
        <time>2017-02-19T09:11:37Z</time>
      </trkpt>
      <trkpt lat="50.48817" lon="3.84132">
        <ele>73.2</ele>
        <time>2017-02-19T09:11:56Z</time>
      </trkpt>
      <trkpt lat="50.48812" lon="3.84136">
        <ele>71.76</ele>
        <time>2017-02-19T09:12:00Z</time>
      </trkpt>
      <trkpt lat="50.48794" lon="3.84153">
        <ele>70.79</ele>
        <time>2017-02-19T09:12:15Z</time>
      </trkpt>
      <trkpt lat="50.48776" lon="3.84171">
        <ele>70.79</ele>
        <time>2017-02-19T09:12:31Z</time>
      </trkpt>
      <trkpt lat="50.48765" lon="3.84183">
        <ele>70.31</ele>
        <time>2017-02-19T09:12:43Z</time>
      </trkpt>
      <trkpt lat="50.48759" lon="3.8419">
        <ele>69.35</ele>
        <time>2017-02-19T09:12:48Z</time>
      </trkpt>
      <trkpt lat="50.48745" lon="3.84207">
        <ele>68.87</ele>
        <time>2017-02-19T09:13:01Z</time>
      </trkpt>
      <trkpt lat="50.48728" lon="3.84219">
        <ele>67.43</ele>
        <time>2017-02-19T09:13:16Z</time>
      </trkpt>
      <trkpt lat="50.48712" lon="3.84236">
        <ele>66.95</ele>
        <time>2017-02-19T09:13:30Z</time>
      </trkpt>
      <trkpt lat="50.48697" lon="3.84255">
        <ele>66.47</ele>
        <time>2017-02-19T09:13:45Z</time>
      </trkpt>
      <trkpt lat="50.48686" lon="3.84272">
        <ele>65.99</ele>
        <time>2017-02-19T09:13:58Z</time>
      </trkpt>
      <trkpt lat="50.48686" lon="3.84286">
        <ele>65.99</ele>
        <time>2017-02-19T09:14:08Z</time>
      </trkpt>
      <trkpt lat="50.4869" lon="3.84286">
        <ele>65.51</ele>
        <time>2017-02-19T09:14:12Z</time>
      </trkpt>
      <trkpt lat="50.48692" lon="3.84288">
        <ele>65.51</ele>
        <time>2017-02-19T09:14:14Z</time>
      </trkpt>
      <trkpt lat="50.48695" lon="3.84291">
        <ele>65.51</ele>
        <time>2017-02-19T09:14:16Z</time>
      </trkpt>
      <trkpt lat="50.48705" lon="3.84309">
        <ele>66.95</ele>
        <time>2017-02-19T09:14:27Z</time>
      </trkpt>
      <trkpt lat="50.48715" lon="3.84316">
        <ele>67.43</ele>
        <time>2017-02-19T09:14:39Z</time>
      </trkpt>
      <trkpt lat="50.48719" lon="3.8432">
        <ele>67.43</ele>
        <time>2017-02-19T09:14:42Z</time>
      </trkpt>
      <trkpt lat="50.4874" lon="3.8434">
        <ele>68.39</ele>
        <time>2017-02-19T09:14:56Z</time>
      </trkpt>
      <trkpt lat="50.48749" lon="3.84352">
        <ele>69.35</ele>
        <time>2017-02-19T09:15:06Z</time>
      </trkpt>
      <trkpt lat="50.4875" lon="3.84354">
        <ele>67.91</ele>
        <time>2017-02-19T09:15:08Z</time>
      </trkpt>
      <trkpt lat="50.48756" lon="3.84371">
        <ele>69.35</ele>
        <time>2017-02-19T09:15:19Z</time>
      </trkpt>
      <trkpt lat="50.48758" lon="3.84376">
        <ele>69.35</ele>
        <time>2017-02-19T09:15:21Z</time>
      </trkpt>
      <trkpt lat="50.4876" lon="3.84395">
        <ele>69.83</ele>
        <time>2017-02-19T09:15:34Z</time>
      </trkpt>
      <trkpt lat="50.48767" lon="3.84426">
        <ele>70.79</ele>
        <time>2017-02-19T09:15:49Z</time>
      </trkpt>
      <trkpt lat="50.4877" lon="3.8444">
        <ele>71.27</ele>
        <time>2017-02-19T09:15:57Z</time>
      </trkpt>
      <trkpt lat="50.48772" lon="3.84468">
        <ele>71.76</ele>
        <time>2017-02-19T09:16:09Z</time>
      </trkpt>
      <trkpt lat="50.48772" lon="3.84482">
        <ele>71.76</ele>
        <time>2017-02-19T09:16:16Z</time>
      </trkpt>
      <trkpt lat="50.48775" lon="3.84493">
        <ele>71.76</ele>
        <time>2017-02-19T09:16:23Z</time>
      </trkpt>
      <trkpt lat="50.48779" lon="3.84504">
        <ele>72.24</ele>
        <time>2017-02-19T09:16:29Z</time>
      </trkpt>
      <trkpt lat="50.48781" lon="3.84522">
        <ele>72.24</ele>
        <time>2017-02-19T09:16:39Z</time>
      </trkpt>
      <trkpt lat="50.48781" lon="3.84526">
        <ele>72.24</ele>
        <time>2017-02-19T09:16:41Z</time>
      </trkpt>
      <trkpt lat="50.48783" lon="3.84532">
        <ele>72.24</ele>
        <time>2017-02-19T09:16:44Z</time>
      </trkpt>
      <trkpt lat="50.48784" lon="3.84538">
        <ele>72.24</ele>
        <time>2017-02-19T09:16:46Z</time>
      </trkpt>
      <trkpt lat="50.48789" lon="3.84558">
        <ele>72.24</ele>
        <time>2017-02-19T09:16:59Z</time>
      </trkpt>
      <trkpt lat="50.48793" lon="3.84576">
        <ele>72.24</ele>
        <time>2017-02-19T09:17:08Z</time>
      </trkpt>
      <trkpt lat="50.48794" lon="3.84583">
        <ele>72.24</ele>
        <time>2017-02-19T09:17:11Z</time>
      </trkpt>
      <trkpt lat="50.48798" lon="3.84613">
        <ele>72.24</ele>
        <time>2017-02-19T09:17:25Z</time>
      </trkpt>
      <trkpt lat="50.48802" lon="3.84635">
        <ele>72.24</ele>
        <time>2017-02-19T09:17:36Z</time>
      </trkpt>
      <trkpt lat="50.48804" lon="3.84642">
        <ele>70.79</ele>
        <time>2017-02-19T09:17:40Z</time>
      </trkpt>
      <trkpt lat="50.48805" lon="3.84653">
        <ele>70.79</ele>
        <time>2017-02-19T09:17:45Z</time>
      </trkpt>
      <trkpt lat="50.48808" lon="3.84665">
        <ele>70.31</ele>
        <time>2017-02-19T09:17:52Z</time>
      </trkpt>
      <trkpt lat="50.48808" lon="3.8468">
        <ele>70.31</ele>
        <time>2017-02-19T09:17:58Z</time>
      </trkpt>
      <trkpt lat="50.48813" lon="3.84705">
        <ele>69.83</ele>
        <time>2017-02-19T09:18:11Z</time>
      </trkpt>
      <trkpt lat="50.48816" lon="3.84728">
        <ele>69.83</ele>
        <time>2017-02-19T09:18:22Z</time>
      </trkpt>
      <trkpt lat="50.4882" lon="3.84749">
        <ele>69.35</ele>
        <time>2017-02-19T09:18:33Z</time>
      </trkpt>
      <trkpt lat="50.48822" lon="3.84762">
        <ele>69.35</ele>
        <time>2017-02-19T09:18:40Z</time>
      </trkpt>
      <trkpt lat="50.48823" lon="3.84775">
        <ele>68.87</ele>
        <time>2017-02-19T09:18:47Z</time>
      </trkpt>
      <trkpt lat="50.48826" lon="3.84802">
        <ele>68.87</ele>
        <time>2017-02-19T09:19:00Z</time>
      </trkpt>
      <trkpt lat="50.4883" lon="3.84829">
        <ele>68.87</ele>
        <time>2017-02-19T09:19:13Z</time>
      </trkpt>
      <trkpt lat="50.48832" lon="3.84841">
        <ele>68.39</ele>
        <time>2017-02-19T09:19:19Z</time>
      </trkpt>
      <trkpt lat="50.48834" lon="3.8485">
        <ele>68.39</ele>
        <time>2017-02-19T09:19:24Z</time>
      </trkpt>
      <trkpt lat="50.48837" lon="3.84874">
        <ele>68.39</ele>
        <time>2017-02-19T09:19:37Z</time>
      </trkpt>
      <trkpt lat="50.48838" lon="3.84879">
        <ele>68.39</ele>
        <time>2017-02-19T09:19:40Z</time>
      </trkpt>
      <trkpt lat="50.48844" lon="3.84902">
        <ele>67.91</ele>
        <time>2017-02-19T09:19:52Z</time>
      </trkpt>
      <trkpt lat="50.48846" lon="3.84911">
        <ele>67.91</ele>
        <time>2017-02-19T09:19:56Z</time>
      </trkpt>
      <trkpt lat="50.48847" lon="3.84915">
        <ele>67.91</ele>
        <time>2017-02-19T09:19:59Z</time>
      </trkpt>
      <trkpt lat="50.48847" lon="3.84931">
        <ele>67.91</ele>
        <time>2017-02-19T09:20:06Z</time>
      </trkpt>
      <trkpt lat="50.48854" lon="3.84966">
        <ele>67.43</ele>
        <time>2017-02-19T09:20:22Z</time>
      </trkpt>
      <trkpt lat="50.48854" lon="3.84969">
        <ele>66.95</ele>
        <time>2017-02-19T09:20:24Z</time>
      </trkpt>
      <trkpt lat="50.48857" lon="3.84977">
        <ele>66.95</ele>
        <time>2017-02-19T09:20:29Z</time>
      </trkpt>
      <trkpt lat="50.4886" lon="3.85">
        <ele>66.95</ele>
        <time>2017-02-19T09:20:41Z</time>
      </trkpt>
      <trkpt lat="50.48865" lon="3.85024">
        <ele>66.95</ele>
        <time>2017-02-19T09:20:52Z</time>
      </trkpt>
      <trkpt lat="50.48867" lon="3.85046">
        <ele>66.47</ele>
        <time>2017-02-19T09:21:05Z</time>
      </trkpt>
      <trkpt lat="50.48868" lon="3.85053">
        <ele>66.47</ele>
        <time>2017-02-19T09:21:09Z</time>
      </trkpt>
      <trkpt lat="50.4887" lon="3.85064">
        <ele>66.47</ele>
        <time>2017-02-19T09:21:15Z</time>
      </trkpt>
      <trkpt lat="50.48871" lon="3.85069">
        <ele>66.47</ele>
        <time>2017-02-19T09:21:18Z</time>
      </trkpt>
      <trkpt lat="50.48872" lon="3.85081">
        <ele>66.47</ele>
        <time>2017-02-19T09:21:24Z</time>
      </trkpt>
      <trkpt lat="50.48877" lon="3.85115">
        <ele>65.99</ele>
        <time>2017-02-19T09:21:40Z</time>
      </trkpt>
      <trkpt lat="50.48879" lon="3.85129">
        <ele>65.03</ele>
        <time>2017-02-19T09:21:47Z</time>
      </trkpt>
      <trkpt lat="50.48881" lon="3.85132">
        <ele>65.03</ele>
        <time>2017-02-19T09:21:49Z</time>
      </trkpt>
      <trkpt lat="50.48883" lon="3.85144">
        <ele>65.03</ele>
        <time>2017-02-19T09:21:56Z</time>
      </trkpt>
      <trkpt lat="50.48884" lon="3.85168">
        <ele>64.55</ele>
        <time>2017-02-19T09:22:07Z</time>
      </trkpt>
      <trkpt lat="50.48884" lon="3.8518">
        <ele>64.07</ele>
        <time>2017-02-19T09:22:11Z</time>
      </trkpt>
      <trkpt lat="50.48889" lon="3.85207">
        <ele>63.1</ele>
        <time>2017-02-19T09:22:25Z</time>
      </trkpt>
      <trkpt lat="50.48893" lon="3.85235">
        <ele>62.62</ele>
        <time>2017-02-19T09:22:38Z</time>
      </trkpt>
      <trkpt lat="50.48892" lon="3.85266">
        <ele>63.1</ele>
        <time>2017-02-19T09:22:50Z</time>
      </trkpt>
      <trkpt lat="50.48896" lon="3.85277">
        <ele>63.1</ele>
        <time>2017-02-19T09:22:56Z</time>
      </trkpt>
      <trkpt lat="50.48898" lon="3.85281">
        <ele>63.1</ele>
        <time>2017-02-19T09:22:59Z</time>
      </trkpt>
      <trkpt lat="50.48901" lon="3.85295">
        <ele>64.07</ele>
        <time>2017-02-19T09:23:06Z</time>
      </trkpt>
      <trkpt lat="50.48904" lon="3.85315">
        <ele>64.55</ele>
        <time>2017-02-19T09:23:15Z</time>
      </trkpt>
      <trkpt lat="50.48905" lon="3.8533">
        <ele>65.03</ele>
        <time>2017-02-19T09:23:23Z</time>
      </trkpt>
      <trkpt lat="50.48907" lon="3.85334">
        <ele>65.03</ele>
        <time>2017-02-19T09:23:25Z</time>
      </trkpt>
      <trkpt lat="50.48912" lon="3.85354">
        <ele>65.99</ele>
        <time>2017-02-19T09:23:37Z</time>
      </trkpt>
      <trkpt lat="50.48913" lon="3.85365">
        <ele>65.99</ele>
        <time>2017-02-19T09:23:42Z</time>
      </trkpt>
      <trkpt lat="50.48915" lon="3.85374">
        <ele>65.99</ele>
        <time>2017-02-19T09:23:46Z</time>
      </trkpt>
      <trkpt lat="50.48918" lon="3.85399">
        <ele>66.47</ele>
        <time>2017-02-19T09:23:57Z</time>
      </trkpt>
      <trkpt lat="50.4892" lon="3.85413">
        <ele>66.95</ele>
        <time>2017-02-19T09:24:03Z</time>
      </trkpt>
      <trkpt lat="50.48923" lon="3.85427">
        <ele>66.95</ele>
        <time>2017-02-19T09:24:09Z</time>
      </trkpt>
      <trkpt lat="50.48931" lon="3.85454">
        <ele>67.43</ele>
        <time>2017-02-19T09:24:24Z</time>
      </trkpt>
      <trkpt lat="50.48932" lon="3.85458">
        <ele>67.43</ele>
        <time>2017-02-19T09:24:27Z</time>
      </trkpt>
      <trkpt lat="50.48945" lon="3.85472">
        <ele>68.39</ele>
        <time>2017-02-19T09:24:40Z</time>
      </trkpt>
      <trkpt lat="50.48967" lon="3.85483">
        <ele>68.87</ele>
        <time>2017-02-19T09:24:54Z</time>
      </trkpt>
      <trkpt lat="50.48983" lon="3.85492">
        <ele>69.35</ele>
        <time>2017-02-19T09:25:07Z</time>
      </trkpt>
      <trkpt lat="50.49" lon="3.85499">
        <ele>70.31</ele>
        <time>2017-02-19T09:25:22Z</time>
      </trkpt>
      <trkpt lat="50.49018" lon="3.85498">
        <ele>71.27</ele>
        <time>2017-02-19T09:25:35Z</time>
      </trkpt>
      <trkpt lat="50.49036" lon="3.85499">
        <ele>71.76</ele>
        <time>2017-02-19T09:25:48Z</time>
      </trkpt>
      <trkpt lat="50.49048" lon="3.85504">
        <ele>72.24</ele>
        <time>2017-02-19T09:25:57Z</time>
      </trkpt>
      <trkpt lat="50.49054" lon="3.85505">
        <ele>72.24</ele>
        <time>2017-02-19T09:26:02Z</time>
      </trkpt>
      <trkpt lat="50.49074" lon="3.85503">
        <ele>73.2</ele>
        <time>2017-02-19T09:26:16Z</time>
      </trkpt>
      <trkpt lat="50.49086" lon="3.85508">
        <ele>73.68</ele>
        <time>2017-02-19T09:26:26Z</time>
      </trkpt>
      <trkpt lat="50.49093" lon="3.8551">
        <ele>73.68</ele>
        <time>2017-02-19T09:26:30Z</time>
      </trkpt>
      <trkpt lat="50.49096" lon="3.85511">
        <ele>74.16</ele>
        <time>2017-02-19T09:26:32Z</time>
      </trkpt>
      <trkpt lat="50.49098" lon="3.85511">
        <ele>74.16</ele>
        <time>2017-02-19T09:26:34Z</time>
      </trkpt>
      <trkpt lat="50.49109" lon="3.85515">
        <ele>74.64</ele>
        <time>2017-02-19T09:26:44Z</time>
      </trkpt>
      <trkpt lat="50.49129" lon="3.85522">
        <ele>75.6</ele>
        <time>2017-02-19T09:26:58Z</time>
      </trkpt>
      <trkpt lat="50.49131" lon="3.85522">
        <ele>75.6</ele>
        <time>2017-02-19T09:27:00Z</time>
      </trkpt>
      <trkpt lat="50.49154" lon="3.85527">
        <ele>76.56</ele>
        <time>2017-02-19T09:27:16Z</time>
      </trkpt>
      <trkpt lat="50.4916" lon="3.85526">
        <ele>76.56</ele>
        <time>2017-02-19T09:27:21Z</time>
      </trkpt>
      <trkpt lat="50.49164" lon="3.85526">
        <ele>76.56</ele>
        <time>2017-02-19T09:27:24Z</time>
      </trkpt>
      <trkpt lat="50.49189" lon="3.85532">
        <ele>77.52</ele>
        <time>2017-02-19T09:27:42Z</time>
      </trkpt>
      <trkpt lat="50.49205" lon="3.85531">
        <ele>77.52</ele>
        <time>2017-02-19T09:27:54Z</time>
      </trkpt>
      <trkpt lat="50.49224" lon="3.85532">
        <ele>78</ele>
        <time>2017-02-19T09:28:09Z</time>
      </trkpt>
      <trkpt lat="50.49242" lon="3.85538">
        <ele>78.48</ele>
        <time>2017-02-19T09:28:23Z</time>
      </trkpt>
      <trkpt lat="50.49263" lon="3.85539">
        <ele>78.97</ele>
        <time>2017-02-19T09:28:39Z</time>
      </trkpt>
      <trkpt lat="50.49281" lon="3.85545">
        <ele>79.45</ele>
        <time>2017-02-19T09:28:52Z</time>
      </trkpt>
      <trkpt lat="50.49303" lon="3.8555">
        <ele>79.93</ele>
        <time>2017-02-19T09:29:07Z</time>
      </trkpt>
      <trkpt lat="50.49325" lon="3.85554">
        <ele>79.93</ele>
        <time>2017-02-19T09:29:24Z</time>
      </trkpt>
      <trkpt lat="50.4935" lon="3.85558">
        <ele>80.41</ele>
        <time>2017-02-19T09:29:42Z</time>
      </trkpt>
      <trkpt lat="50.49353" lon="3.85558">
        <ele>80.41</ele>
        <time>2017-02-19T09:29:45Z</time>
      </trkpt>
      <trkpt lat="50.49373" lon="3.85561">
        <ele>80.89</ele>
        <time>2017-02-19T09:30:01Z</time>
      </trkpt>
      <trkpt lat="50.49392" lon="3.85561">
        <ele>81.37</ele>
        <time>2017-02-19T09:30:16Z</time>
      </trkpt>
      <trkpt lat="50.49394" lon="3.85561">
        <ele>81.37</ele>
        <time>2017-02-19T09:30:18Z</time>
      </trkpt>
      <trkpt lat="50.49417" lon="3.85568">
        <ele>81.37</ele>
        <time>2017-02-19T09:30:35Z</time>
      </trkpt>
      <trkpt lat="50.4943" lon="3.85576">
        <ele>81.37</ele>
        <time>2017-02-19T09:30:48Z</time>
      </trkpt>
      <trkpt lat="50.49445" lon="3.85578">
        <ele>80.89</ele>
        <time>2017-02-19T09:31:01Z</time>
      </trkpt>
      <trkpt lat="50.49464" lon="3.85581">
        <ele>81.37</ele>
        <time>2017-02-19T09:31:15Z</time>
      </trkpt>
      <trkpt lat="50.49483" lon="3.85587">
        <ele>81.37</ele>
        <time>2017-02-19T09:31:29Z</time>
      </trkpt>
      <trkpt lat="50.495" lon="3.85588">
        <ele>81.85</ele>
        <time>2017-02-19T09:31:42Z</time>
      </trkpt>
      <trkpt lat="50.49516" lon="3.85593">
        <ele>81.85</ele>
        <time>2017-02-19T09:31:54Z</time>
      </trkpt>
      <trkpt lat="50.49534" lon="3.85597">
        <ele>81.37</ele>
        <time>2017-02-19T09:32:07Z</time>
      </trkpt>
      <trkpt lat="50.49546" lon="3.85598">
        <ele>81.37</ele>
        <time>2017-02-19T09:32:17Z</time>
      </trkpt>
      <trkpt lat="50.49553" lon="3.85598">
        <ele>81.37</ele>
        <time>2017-02-19T09:32:22Z</time>
      </trkpt>
      <trkpt lat="50.4956" lon="3.85598">
        <ele>81.37</ele>
        <time>2017-02-19T09:32:28Z</time>
      </trkpt>
      <trkpt lat="50.49564" lon="3.85598">
        <ele>81.37</ele>
        <time>2017-02-19T09:32:31Z</time>
      </trkpt>
      <trkpt lat="50.49585" lon="3.8561">
        <ele>82.33</ele>
        <time>2017-02-19T09:32:46Z</time>
      </trkpt>
      <trkpt lat="50.49605" lon="3.85614">
        <ele>81.85</ele>
        <time>2017-02-19T09:33:01Z</time>
      </trkpt>
      <trkpt lat="50.49626" lon="3.8562">
        <ele>81.85</ele>
        <time>2017-02-19T09:33:17Z</time>
      </trkpt>
      <trkpt lat="50.49648" lon="3.85625">
        <ele>81.85</ele>
        <time>2017-02-19T09:33:33Z</time>
      </trkpt>
      <trkpt lat="50.49653" lon="3.85626">
        <ele>81.85</ele>
        <time>2017-02-19T09:33:37Z</time>
      </trkpt>
      <trkpt lat="50.49669" lon="3.85625">
        <ele>81.85</ele>
        <time>2017-02-19T09:33:47Z</time>
      </trkpt>
      <trkpt lat="50.49671" lon="3.85626">
        <ele>81.85</ele>
        <time>2017-02-19T09:33:49Z</time>
      </trkpt>
      <trkpt lat="50.49674" lon="3.85626">
        <ele>81.85</ele>
        <time>2017-02-19T09:33:51Z</time>
      </trkpt>
      <trkpt lat="50.49693" lon="3.8563">
        <ele>81.85</ele>
        <time>2017-02-19T09:34:06Z</time>
      </trkpt>
      <trkpt lat="50.49697" lon="3.85629">
        <ele>81.85</ele>
        <time>2017-02-19T09:34:09Z</time>
      </trkpt>
      <trkpt lat="50.49706" lon="3.85624">
        <ele>81.85</ele>
        <time>2017-02-19T09:34:16Z</time>
      </trkpt>
      <trkpt lat="50.49716" lon="3.85599">
        <ele>82.33</ele>
        <time>2017-02-19T09:34:28Z</time>
      </trkpt>
      <trkpt lat="50.49718" lon="3.85587">
        <ele>82.33</ele>
        <time>2017-02-19T09:34:34Z</time>
      </trkpt>
      <trkpt lat="50.49721" lon="3.8556">
        <ele>81.85</ele>
        <time>2017-02-19T09:34:48Z</time>
      </trkpt>
      <trkpt lat="50.49729" lon="3.85537">
        <ele>81.85</ele>
        <time>2017-02-19T09:34:58Z</time>
      </trkpt>
      <trkpt lat="50.49732" lon="3.8551">
        <ele>81.85</ele>
        <time>2017-02-19T09:35:12Z</time>
      </trkpt>
      <trkpt lat="50.4974" lon="3.85479">
        <ele>81.85</ele>
        <time>2017-02-19T09:35:27Z</time>
      </trkpt>
      <trkpt lat="50.49745" lon="3.85446">
        <ele>82.33</ele>
        <time>2017-02-19T09:35:43Z</time>
      </trkpt>
      <trkpt lat="50.49745" lon="3.8544">
        <ele>82.33</ele>
        <time>2017-02-19T09:35:46Z</time>
      </trkpt>
      <trkpt lat="50.49751" lon="3.85413">
        <ele>82.81</ele>
        <time>2017-02-19T09:36:00Z</time>
      </trkpt>
      <trkpt lat="50.49752" lon="3.85408">
        <ele>82.81</ele>
        <time>2017-02-19T09:36:02Z</time>
      </trkpt>
      <trkpt lat="50.49761" lon="3.85377">
        <ele>83.29</ele>
        <time>2017-02-19T09:36:16Z</time>
      </trkpt>
      <trkpt lat="50.49764" lon="3.85363">
        <ele>83.29</ele>
        <time>2017-02-19T09:36:23Z</time>
      </trkpt>
      <trkpt lat="50.49768" lon="3.85334">
        <ele>83.77</ele>
        <time>2017-02-19T09:36:38Z</time>
      </trkpt>
      <trkpt lat="50.49768" lon="3.85314">
        <ele>84.73</ele>
        <time>2017-02-19T09:36:50Z</time>
      </trkpt>
      <trkpt lat="50.49763" lon="3.85301">
        <ele>84.73</ele>
        <time>2017-02-19T09:36:56Z</time>
      </trkpt>
      <trkpt lat="50.49761" lon="3.8529">
        <ele>85.21</ele>
        <time>2017-02-19T09:37:02Z</time>
      </trkpt>
      <trkpt lat="50.49758" lon="3.85278">
        <ele>85.21</ele>
        <time>2017-02-19T09:37:08Z</time>
      </trkpt>
      <trkpt lat="50.49754" lon="3.85266">
        <ele>85.21</ele>
        <time>2017-02-19T09:37:15Z</time>
      </trkpt>
      <trkpt lat="50.49748" lon="3.85253">
        <ele>85.21</ele>
        <time>2017-02-19T09:37:24Z</time>
      </trkpt>
      <trkpt lat="50.49745" lon="3.85223">
        <ele>85.69</ele>
        <time>2017-02-19T09:37:37Z</time>
      </trkpt>
      <trkpt lat="50.49743" lon="3.85214">
        <ele>85.69</ele>
        <time>2017-02-19T09:37:41Z</time>
      </trkpt>
      <trkpt lat="50.4974" lon="3.85202">
        <ele>85.69</ele>
        <time>2017-02-19T09:37:47Z</time>
      </trkpt>
      <trkpt lat="50.49738" lon="3.85194">
        <ele>86.18</ele>
        <time>2017-02-19T09:37:50Z</time>
      </trkpt>
      <trkpt lat="50.49738" lon="3.85182">
        <ele>86.18</ele>
        <time>2017-02-19T09:37:56Z</time>
      </trkpt>
      <trkpt lat="50.4973" lon="3.85155">
        <ele>86.66</ele>
        <time>2017-02-19T09:38:11Z</time>
      </trkpt>
      <trkpt lat="50.49721" lon="3.85125">
        <ele>86.66</ele>
        <time>2017-02-19T09:38:25Z</time>
      </trkpt>
      <trkpt lat="50.49719" lon="3.85113">
        <ele>86.66</ele>
        <time>2017-02-19T09:38:30Z</time>
      </trkpt>
      <trkpt lat="50.49717" lon="3.85106">
        <ele>86.66</ele>
        <time>2017-02-19T09:38:34Z</time>
      </trkpt>
      <trkpt lat="50.49711" lon="3.85079">
        <ele>86.66</ele>
        <time>2017-02-19T09:38:47Z</time>
      </trkpt>
      <trkpt lat="50.49707" lon="3.8505">
        <ele>86.66</ele>
        <time>2017-02-19T09:39:00Z</time>
      </trkpt>
      <trkpt lat="50.49706" lon="3.85042">
        <ele>86.66</ele>
        <time>2017-02-19T09:39:04Z</time>
      </trkpt>
      <trkpt lat="50.49698" lon="3.85022">
        <ele>86.66</ele>
        <time>2017-02-19T09:39:14Z</time>
      </trkpt>
      <trkpt lat="50.49689" lon="3.84989">
        <ele>87.14</ele>
        <time>2017-02-19T09:39:28Z</time>
      </trkpt>
      <trkpt lat="50.49683" lon="3.84964">
        <ele>87.14</ele>
        <time>2017-02-19T09:39:41Z</time>
      </trkpt>
      <trkpt lat="50.49675" lon="3.84926">
        <ele>87.14</ele>
        <time>2017-02-19T09:39:57Z</time>
      </trkpt>
      <trkpt lat="50.49669" lon="3.84897">
        <ele>86.18</ele>
        <time>2017-02-19T09:40:10Z</time>
      </trkpt>
      <trkpt lat="50.49666" lon="3.84887">
        <ele>86.18</ele>
        <time>2017-02-19T09:40:15Z</time>
      </trkpt>
      <trkpt lat="50.49654" lon="3.84847">
        <ele>86.18</ele>
        <time>2017-02-19T09:40:33Z</time>
      </trkpt>
      <trkpt lat="50.4965" lon="3.84827">
        <ele>86.18</ele>
        <time>2017-02-19T09:40:42Z</time>
      </trkpt>
      <trkpt lat="50.4965" lon="3.84823">
        <ele>86.18</ele>
        <time>2017-02-19T09:40:44Z</time>
      </trkpt>
      <trkpt lat="50.49645" lon="3.84808">
        <ele>86.18</ele>
        <time>2017-02-19T09:40:52Z</time>
      </trkpt>
      <trkpt lat="50.49638" lon="3.84791">
        <ele>86.66</ele>
        <time>2017-02-19T09:41:01Z</time>
      </trkpt>
      <trkpt lat="50.49634" lon="3.84783">
        <ele>86.18</ele>
        <time>2017-02-19T09:41:05Z</time>
      </trkpt>
      <trkpt lat="50.49625" lon="3.84752">
        <ele>86.66</ele>
        <time>2017-02-19T09:41:20Z</time>
      </trkpt>
      <trkpt lat="50.49619" lon="3.84724">
        <ele>87.14</ele>
        <time>2017-02-19T09:41:32Z</time>
      </trkpt>
      <trkpt lat="50.49618" lon="3.84719">
        <ele>87.14</ele>
        <time>2017-02-19T09:41:34Z</time>
      </trkpt>
      <trkpt lat="50.49612" lon="3.84688">
        <ele>87.62</ele>
        <time>2017-02-19T09:41:49Z</time>
      </trkpt>
      <trkpt lat="50.49611" lon="3.84682">
        <ele>87.14</ele>
        <time>2017-02-19T09:41:52Z</time>
      </trkpt>
      <trkpt lat="50.4961" lon="3.84678">
        <ele>87.62</ele>
        <time>2017-02-19T09:41:54Z</time>
      </trkpt>
      <trkpt lat="50.49604" lon="3.84647">
        <ele>88.1</ele>
        <time>2017-02-19T09:42:09Z</time>
      </trkpt>
      <trkpt lat="50.49598" lon="3.84618">
        <ele>88.1</ele>
        <time>2017-02-19T09:42:22Z</time>
      </trkpt>
      <trkpt lat="50.49594" lon="3.84604">
        <ele>88.58</ele>
        <time>2017-02-19T09:42:28Z</time>
      </trkpt>
      <trkpt lat="50.49591" lon="3.84591">
        <ele>88.58</ele>
        <time>2017-02-19T09:42:37Z</time>
      </trkpt>
      <trkpt lat="50.49581" lon="3.84563">
        <ele>89.06</ele>
        <time>2017-02-19T09:42:52Z</time>
      </trkpt>
      <trkpt lat="50.49574" lon="3.84539">
        <ele>89.54</ele>
        <time>2017-02-19T09:43:04Z</time>
      </trkpt>
      <trkpt lat="50.49571" lon="3.84531">
        <ele>89.54</ele>
        <time>2017-02-19T09:43:08Z</time>
      </trkpt>
      <trkpt lat="50.49566" lon="3.8451">
        <ele>90.02</ele>
        <time>2017-02-19T09:43:17Z</time>
      </trkpt>
      <trkpt lat="50.49562" lon="3.84479">
        <ele>90.02</ele>
        <time>2017-02-19T09:43:30Z</time>
      </trkpt>
      <trkpt lat="50.49562" lon="3.84475">
        <ele>90.02</ele>
        <time>2017-02-19T09:43:32Z</time>
      </trkpt>
      <trkpt lat="50.4956" lon="3.84456">
        <ele>90.5</ele>
        <time>2017-02-19T09:43:42Z</time>
      </trkpt>
      <trkpt lat="50.49551" lon="3.8443">
        <ele>90.5</ele>
        <time>2017-02-19T09:43:55Z</time>
      </trkpt>
      <trkpt lat="50.49546" lon="3.84418">
        <ele>90.02</ele>
        <time>2017-02-19T09:44:02Z</time>
      </trkpt>
      <trkpt lat="50.49544" lon="3.844">
        <ele>90.5</ele>
        <time>2017-02-19T09:44:11Z</time>
      </trkpt>
      <trkpt lat="50.4954" lon="3.84387">
        <ele>90.5</ele>
        <time>2017-02-19T09:44:17Z</time>
      </trkpt>
      <trkpt lat="50.49532" lon="3.84358">
        <ele>90.5</ele>
        <time>2017-02-19T09:44:32Z</time>
      </trkpt>
      <trkpt lat="50.49527" lon="3.8434">
        <ele>90.5</ele>
        <time>2017-02-19T09:44:42Z</time>
      </trkpt>
      <trkpt lat="50.49523" lon="3.84317">
        <ele>90.02</ele>
        <time>2017-02-19T09:44:53Z</time>
      </trkpt>
      <trkpt lat="50.49521" lon="3.84303">
        <ele>90.5</ele>
        <time>2017-02-19T09:44:59Z</time>
      </trkpt>
      <trkpt lat="50.49512" lon="3.84271">
        <ele>90.02</ele>
        <time>2017-02-19T09:45:15Z</time>
      </trkpt>
      <trkpt lat="50.49505" lon="3.84241">
        <ele>90.02</ele>
        <time>2017-02-19T09:45:28Z</time>
      </trkpt>
      <trkpt lat="50.49505" lon="3.84237">
        <ele>90.5</ele>
        <time>2017-02-19T09:45:30Z</time>
      </trkpt>
      <trkpt lat="50.49499" lon="3.84225">
        <ele>90.02</ele>
        <time>2017-02-19T09:45:36Z</time>
      </trkpt>
      <trkpt lat="50.49491" lon="3.84204">
        <ele>90.02</ele>
        <time>2017-02-19T09:45:47Z</time>
      </trkpt>
      <trkpt lat="50.49487" lon="3.8419">
        <ele>90.02</ele>
        <time>2017-02-19T09:45:55Z</time>
      </trkpt>
      <trkpt lat="50.49485" lon="3.84187">
        <ele>90.02</ele>
        <time>2017-02-19T09:45:57Z</time>
      </trkpt>
      <trkpt lat="50.49482" lon="3.84158">
        <ele>90.02</ele>
        <time>2017-02-19T09:46:11Z</time>
      </trkpt>
      <trkpt lat="50.49478" lon="3.84132">
        <ele>90.02</ele>
        <time>2017-02-19T09:46:23Z</time>
      </trkpt>
      <trkpt lat="50.49478" lon="3.8412">
        <ele>90.02</ele>
        <time>2017-02-19T09:46:30Z</time>
      </trkpt>
      <trkpt lat="50.4948" lon="3.84114">
        <ele>90.02</ele>
        <time>2017-02-19T09:46:33Z</time>
      </trkpt>
      <trkpt lat="50.4948" lon="3.84105">
        <ele>90.02</ele>
        <time>2017-02-19T09:46:37Z</time>
      </trkpt>
      <trkpt lat="50.4948" lon="3.84087">
        <ele>90.02</ele>
        <time>2017-02-19T09:46:45Z</time>
      </trkpt>
      <trkpt lat="50.49477" lon="3.8408">
        <ele>90.02</ele>
        <time>2017-02-19T09:46:49Z</time>
      </trkpt>
      <trkpt lat="50.49478" lon="3.84053">
        <ele>90.02</ele>
        <time>2017-02-19T09:47:00Z</time>
      </trkpt>
      <trkpt lat="50.4948" lon="3.84037">
        <ele>90.02</ele>
        <time>2017-02-19T09:47:07Z</time>
      </trkpt>
      <trkpt lat="50.49478" lon="3.84027">
        <ele>90.02</ele>
        <time>2017-02-19T09:47:11Z</time>
      </trkpt>
      <trkpt lat="50.49481" lon="3.84006">
        <ele>89.54</ele>
        <time>2017-02-19T09:47:20Z</time>
      </trkpt>
      <trkpt lat="50.49482" lon="3.83994">
        <ele>89.06</ele>
        <time>2017-02-19T09:47:25Z</time>
      </trkpt>
      <trkpt lat="50.49478" lon="3.83986">
        <ele>89.06</ele>
        <time>2017-02-19T09:47:30Z</time>
      </trkpt>
      <trkpt lat="50.4948" lon="3.83963">
        <ele>88.58</ele>
        <time>2017-02-19T09:47:42Z</time>
      </trkpt>
      <trkpt lat="50.49484" lon="3.83946">
        <ele>88.58</ele>
        <time>2017-02-19T09:47:50Z</time>
      </trkpt>
      <trkpt lat="50.49485" lon="3.8394">
        <ele>88.1</ele>
        <time>2017-02-19T09:47:53Z</time>
      </trkpt>
      <trkpt lat="50.49487" lon="3.83924">
        <ele>88.1</ele>
        <time>2017-02-19T09:48:01Z</time>
      </trkpt>
      <trkpt lat="50.49486" lon="3.83917">
        <ele>88.1</ele>
        <time>2017-02-19T09:48:05Z</time>
      </trkpt>
      <trkpt lat="50.49486" lon="3.83891">
        <ele>87.62</ele>
        <time>2017-02-19T09:48:17Z</time>
      </trkpt>
      <trkpt lat="50.49483" lon="3.83866">
        <ele>86.66</ele>
        <time>2017-02-19T09:48:30Z</time>
      </trkpt>
      <trkpt lat="50.49483" lon="3.8386">
        <ele>86.66</ele>
        <time>2017-02-19T09:48:33Z</time>
      </trkpt>
      <trkpt lat="50.49483" lon="3.8385">
        <ele>86.66</ele>
        <time>2017-02-19T09:48:38Z</time>
      </trkpt>
      <trkpt lat="50.49482" lon="3.83821">
        <ele>86.66</ele>
        <time>2017-02-19T09:48:51Z</time>
      </trkpt>
      <trkpt lat="50.49483" lon="3.83801">
        <ele>86.18</ele>
        <time>2017-02-19T09:49:01Z</time>
      </trkpt>
      <trkpt lat="50.4948" lon="3.83792">
        <ele>86.18</ele>
        <time>2017-02-19T09:49:05Z</time>
      </trkpt>
      <trkpt lat="50.49484" lon="3.83777">
        <ele>86.18</ele>
        <time>2017-02-19T09:49:11Z</time>
      </trkpt>
      <trkpt lat="50.49485" lon="3.83765">
        <ele>86.18</ele>
        <time>2017-02-19T09:49:16Z</time>
      </trkpt>
      <trkpt lat="50.49486" lon="3.83736">
        <ele>87.14</ele>
        <time>2017-02-19T09:49:30Z</time>
      </trkpt>
      <trkpt lat="50.49486" lon="3.8371">
        <ele>87.14</ele>
        <time>2017-02-19T09:49:41Z</time>
      </trkpt>
      <trkpt lat="50.49485" lon="3.83707">
        <ele>87.14</ele>
        <time>2017-02-19T09:49:42Z</time>
      </trkpt>
      <trkpt lat="50.49481" lon="3.83689">
        <ele>87.14</ele>
        <time>2017-02-19T09:49:52Z</time>
      </trkpt>
      <trkpt lat="50.49464" lon="3.83682">
        <ele>87.14</ele>
        <time>2017-02-19T09:50:07Z</time>
      </trkpt>
      <trkpt lat="50.4945" lon="3.83682">
        <ele>87.14</ele>
        <time>2017-02-19T09:50:19Z</time>
      </trkpt>
      <trkpt lat="50.49446" lon="3.83681">
        <ele>87.14</ele>
        <time>2017-02-19T09:50:23Z</time>
      </trkpt>
      <trkpt lat="50.49442" lon="3.83681">
        <ele>87.14</ele>
        <time>2017-02-19T09:50:26Z</time>
      </trkpt>
      <trkpt lat="50.49435" lon="3.83677">
        <ele>87.14</ele>
        <time>2017-02-19T09:50:32Z</time>
      </trkpt>
      <trkpt lat="50.49416" lon="3.83666">
        <ele>87.14</ele>
        <time>2017-02-19T09:50:43Z</time>
      </trkpt>
      <trkpt lat="50.49411" lon="3.83663">
        <ele>87.14</ele>
        <time>2017-02-19T09:50:47Z</time>
      </trkpt>
      <trkpt lat="50.49409" lon="3.83662">
        <ele>86.18</ele>
        <time>2017-02-19T09:50:48Z</time>
      </trkpt>
      <trkpt lat="50.49407" lon="3.83661">
        <ele>86.18</ele>
        <time>2017-02-19T09:50:49Z</time>
      </trkpt>
      <trkpt lat="50.49384" lon="3.83656">
        <ele>86.18</ele>
        <time>2017-02-19T09:51:03Z</time>
      </trkpt>
      <trkpt lat="50.49384" lon="3.83658">
        <ele>85.69</ele>
        <time>2017-02-19T09:51:04Z</time>
      </trkpt>
      <trkpt lat="50.4938" lon="3.83659">
        <ele>85.69</ele>
        <time>2017-02-19T09:51:06Z</time>
      </trkpt>
      <trkpt lat="50.4937" lon="3.83659">
        <ele>85.69</ele>
        <time>2017-02-19T09:51:17Z</time>
      </trkpt>
      <trkpt lat="50.49371" lon="3.83662">
        <ele>84.73</ele>
        <time>2017-02-19T09:51:31Z</time>
      </trkpt>
      <trkpt lat="50.49362" lon="3.8366">
        <ele>84.73</ele>
        <time>2017-02-19T09:51:41Z</time>
      </trkpt>
      <trkpt lat="50.4936" lon="3.8366">
        <ele>84.73</ele>
        <time>2017-02-19T09:51:42Z</time>
      </trkpt>
      <trkpt lat="50.49358" lon="3.83659">
        <ele>84.73</ele>
        <time>2017-02-19T09:51:43Z</time>
      </trkpt>
      <trkpt lat="50.49356" lon="3.83658">
        <ele>84.73</ele>
        <time>2017-02-19T09:51:44Z</time>
      </trkpt>
      <trkpt lat="50.4935" lon="3.83657">
        <ele>84.73</ele>
        <time>2017-02-19T09:51:48Z</time>
      </trkpt>
      <trkpt lat="50.49349" lon="3.83657">
        <ele>84.73</ele>
        <time>2017-02-19T09:51:49Z</time>
      </trkpt>
      <trkpt lat="50.49338" lon="3.83655">
        <ele>83.77</ele>
        <time>2017-02-19T09:51:58Z</time>
      </trkpt>
      <trkpt lat="50.49336" lon="3.83654">
        <ele>83.77</ele>
        <time>2017-02-19T09:51:59Z</time>
      </trkpt>
      <trkpt lat="50.49334" lon="3.83654">
        <ele>83.77</ele>
        <time>2017-02-19T09:52:00Z</time>
      </trkpt>
      <trkpt lat="50.49333" lon="3.83653">
        <ele>83.29</ele>
        <time>2017-02-19T09:52:01Z</time>
      </trkpt>
      <trkpt lat="50.49323" lon="3.8365">
        <ele>83.29</ele>
        <time>2017-02-19T09:52:09Z</time>
      </trkpt>
      <trkpt lat="50.49321" lon="3.8365">
        <ele>83.29</ele>
        <time>2017-02-19T09:52:10Z</time>
      </trkpt>
      <trkpt lat="50.49302" lon="3.83639">
        <ele>82.81</ele>
        <time>2017-02-19T09:52:24Z</time>
      </trkpt>
      <trkpt lat="50.49287" lon="3.83632">
        <ele>81.85</ele>
        <time>2017-02-19T09:52:38Z</time>
      </trkpt>
      <trkpt lat="50.49273" lon="3.83628">
        <ele>81.37</ele>
        <time>2017-02-19T09:52:51Z</time>
      </trkpt>
      <trkpt lat="50.49258" lon="3.83626">
        <ele>80.41</ele>
        <time>2017-02-19T09:53:03Z</time>
      </trkpt>
      <trkpt lat="50.49238" lon="3.83622">
        <ele>80.41</ele>
        <time>2017-02-19T09:53:15Z</time>
      </trkpt>
      <trkpt lat="50.49237" lon="3.83622">
        <ele>80.41</ele>
        <time>2017-02-19T09:53:16Z</time>
      </trkpt>
      <trkpt lat="50.49235" lon="3.83622">
        <ele>80.41</ele>
        <time>2017-02-19T09:53:17Z</time>
      </trkpt>
      <trkpt lat="50.49234" lon="3.83621">
        <ele>80.41</ele>
        <time>2017-02-19T09:53:18Z</time>
      </trkpt>
      <trkpt lat="50.49218" lon="3.83616">
        <ele>79.93</ele>
        <time>2017-02-19T09:53:30Z</time>
      </trkpt>
      <trkpt lat="50.49212" lon="3.83613">
        <ele>79.93</ele>
        <time>2017-02-19T09:53:35Z</time>
      </trkpt>
      <trkpt lat="50.4921" lon="3.83612">
        <ele>79.93</ele>
        <time>2017-02-19T09:53:36Z</time>
      </trkpt>
      <trkpt lat="50.49195" lon="3.83591">
        <ele>79.45</ele>
        <time>2017-02-19T09:53:50Z</time>
      </trkpt>
      <trkpt lat="50.49178" lon="3.83567">
        <ele>80.41</ele>
        <time>2017-02-19T09:54:04Z</time>
      </trkpt>
      <trkpt lat="50.49175" lon="3.83565">
        <ele>80.41</ele>
        <time>2017-02-19T09:54:06Z</time>
      </trkpt>
      <trkpt lat="50.49173" lon="3.83563">
        <ele>80.41</ele>
        <time>2017-02-19T09:54:07Z</time>
      </trkpt>
      <trkpt lat="50.49152" lon="3.83545">
        <ele>80.41</ele>
        <time>2017-02-19T09:54:21Z</time>
      </trkpt>
      <trkpt lat="50.49132" lon="3.83524">
        <ele>79.93</ele>
        <time>2017-02-19T09:54:38Z</time>
      </trkpt>
      <trkpt lat="50.49116" lon="3.83511">
        <ele>79.93</ele>
        <time>2017-02-19T09:54:52Z</time>
      </trkpt>
      <trkpt lat="50.49107" lon="3.83502">
        <ele>79.93</ele>
        <time>2017-02-19T09:55:00Z</time>
      </trkpt>
      <trkpt lat="50.49105" lon="3.83502">
        <ele>79.93</ele>
        <time>2017-02-19T09:55:01Z</time>
      </trkpt>
      <trkpt lat="50.49088" lon="3.83483">
        <ele>79.45</ele>
        <time>2017-02-19T09:55:17Z</time>
      </trkpt>
      <trkpt lat="50.49067" lon="3.83462">
        <ele>79.45</ele>
        <time>2017-02-19T09:55:35Z</time>
      </trkpt>
      <trkpt lat="50.49063" lon="3.83453">
        <ele>79.45</ele>
        <time>2017-02-19T09:55:40Z</time>
      </trkpt>
      <trkpt lat="50.49043" lon="3.83421">
        <ele>79.45</ele>
        <time>2017-02-19T09:55:59Z</time>
      </trkpt>
      <trkpt lat="50.49025" lon="3.83396">
        <ele>78.97</ele>
        <time>2017-02-19T09:56:16Z</time>
      </trkpt>
      <trkpt lat="50.49004" lon="3.8338">
        <ele>78.97</ele>
        <time>2017-02-19T09:56:31Z</time>
      </trkpt>
      <trkpt lat="50.48987" lon="3.8336">
        <ele>78.97</ele>
        <time>2017-02-19T09:56:46Z</time>
      </trkpt>
      <trkpt lat="50.48983" lon="3.83356">
        <ele>77.52</ele>
        <time>2017-02-19T09:56:50Z</time>
      </trkpt>
      <trkpt lat="50.4898" lon="3.83353">
        <ele>77.52</ele>
        <time>2017-02-19T09:56:53Z</time>
      </trkpt>
      <trkpt lat="50.48979" lon="3.83351">
        <ele>77.52</ele>
        <time>2017-02-19T09:56:54Z</time>
      </trkpt>
      <trkpt lat="50.48979" lon="3.83345">
        <ele>77.52</ele>
        <time>2017-02-19T09:56:58Z</time>
      </trkpt>
      <trkpt lat="50.4898" lon="3.83343">
        <ele>77.52</ele>
        <time>2017-02-19T09:56:59Z</time>
      </trkpt>
      <trkpt lat="50.48981" lon="3.83342">
        <ele>77.52</ele>
        <time>2017-02-19T09:57:00Z</time>
      </trkpt>
      <trkpt lat="50.48982" lon="3.8334">
        <ele>77.52</ele>
        <time>2017-02-19T09:57:01Z</time>
      </trkpt>
      <trkpt lat="50.48983" lon="3.83338">
        <ele>77.52</ele>
        <time>2017-02-19T09:57:02Z</time>
      </trkpt>
      <trkpt lat="50.48984" lon="3.83337">
        <ele>77.52</ele>
        <time>2017-02-19T09:57:03Z</time>
      </trkpt>
      <trkpt lat="50.48984" lon="3.83336">
        <ele>77.52</ele>
        <time>2017-02-19T09:57:04Z</time>
      </trkpt>
      <trkpt lat="50.48985" lon="3.83334">
        <ele>77.52</ele>
        <time>2017-02-19T09:57:05Z</time>
      </trkpt>
      <trkpt lat="50.48994" lon="3.83309">
        <ele>78.97</ele>
        <time>2017-02-19T09:57:18Z</time>
      </trkpt>
      <trkpt lat="50.49001" lon="3.83283">
        <ele>79.45</ele>
        <time>2017-02-19T09:57:32Z</time>
      </trkpt>
      <trkpt lat="50.49007" lon="3.83266">
        <ele>79.45</ele>
        <time>2017-02-19T09:57:42Z</time>
      </trkpt>
      <trkpt lat="50.49009" lon="3.8326">
        <ele>79.93</ele>
        <time>2017-02-19T09:57:45Z</time>
      </trkpt>
      <trkpt lat="50.49015" lon="3.83245">
        <ele>80.41</ele>
        <time>2017-02-19T09:57:54Z</time>
      </trkpt>
      <trkpt lat="50.49014" lon="3.83243">
        <ele>80.41</ele>
        <time>2017-02-19T09:57:55Z</time>
      </trkpt>
      <trkpt lat="50.49013" lon="3.83242">
        <ele>80.41</ele>
        <time>2017-02-19T09:57:56Z</time>
      </trkpt>
      <trkpt lat="50.49011" lon="3.8324">
        <ele>80.41</ele>
        <time>2017-02-19T09:57:57Z</time>
      </trkpt>
      <trkpt lat="50.4901" lon="3.83239">
        <ele>80.41</ele>
        <time>2017-02-19T09:57:58Z</time>
      </trkpt>
      <trkpt lat="50.49002" lon="3.83236">
        <ele>80.41</ele>
        <time>2017-02-19T09:58:04Z</time>
      </trkpt>
      <trkpt lat="50.49001" lon="3.83236">
        <ele>80.41</ele>
        <time>2017-02-19T09:58:05Z</time>
      </trkpt>
      <trkpt lat="50.48999" lon="3.83235">
        <ele>80.41</ele>
        <time>2017-02-19T09:58:06Z</time>
      </trkpt>
      <trkpt lat="50.48991" lon="3.83234">
        <ele>78.97</ele>
        <time>2017-02-19T09:58:12Z</time>
      </trkpt>
      <trkpt lat="50.4897" lon="3.83229">
        <ele>78.48</ele>
        <time>2017-02-19T09:58:27Z</time>
      </trkpt>
      <trkpt lat="50.48966" lon="3.83228">
        <ele>78.48</ele>
        <time>2017-02-19T09:58:30Z</time>
      </trkpt>
      <trkpt lat="50.4896" lon="3.83228">
        <ele>78.48</ele>
        <time>2017-02-19T09:58:35Z</time>
      </trkpt>
      <trkpt lat="50.48959" lon="3.83227">
        <ele>78.48</ele>
        <time>2017-02-19T09:58:36Z</time>
      </trkpt>
      <trkpt lat="50.4895" lon="3.83222">
        <ele>78</ele>
        <time>2017-02-19T09:58:43Z</time>
      </trkpt>
      <trkpt lat="50.48949" lon="3.8322">
        <ele>78</ele>
        <time>2017-02-19T09:58:44Z</time>
      </trkpt>
      <trkpt lat="50.48948" lon="3.83219">
        <ele>78</ele>
        <time>2017-02-19T09:58:45Z</time>
      </trkpt>
      <trkpt lat="50.48947" lon="3.83218">
        <ele>78</ele>
        <time>2017-02-19T09:58:46Z</time>
      </trkpt>
      <trkpt lat="50.48946" lon="3.83218">
        <ele>78</ele>
        <time>2017-02-19T09:58:47Z</time>
      </trkpt>
      <trkpt lat="50.48943" lon="3.83216">
        <ele>78</ele>
        <time>2017-02-19T09:58:49Z</time>
      </trkpt>
      <trkpt lat="50.48941" lon="3.83216">
        <ele>78</ele>
        <time>2017-02-19T09:58:50Z</time>
      </trkpt>
      <trkpt lat="50.48922" lon="3.83211">
        <ele>77.52</ele>
        <time>2017-02-19T09:59:04Z</time>
      </trkpt>
      <trkpt lat="50.48918" lon="3.83206">
        <ele>77.52</ele>
        <time>2017-02-19T09:59:10Z</time>
      </trkpt>
      <trkpt lat="50.48919" lon="3.83204">
        <ele>77.04</ele>
        <time>2017-02-19T09:59:11Z</time>
      </trkpt>
      <trkpt lat="50.48919" lon="3.83202">
        <ele>77.04</ele>
        <time>2017-02-19T09:59:12Z</time>
      </trkpt>
      <trkpt lat="50.48921" lon="3.83196">
        <ele>77.04</ele>
        <time>2017-02-19T09:59:15Z</time>
      </trkpt>
      <trkpt lat="50.48929" lon="3.83168">
        <ele>77.04</ele>
        <time>2017-02-19T09:59:30Z</time>
      </trkpt>
      <trkpt lat="50.48938" lon="3.83137">
        <ele>77.04</ele>
        <time>2017-02-19T09:59:47Z</time>
      </trkpt>
      <trkpt lat="50.48945" lon="3.83111">
        <ele>77.04</ele>
        <time>2017-02-19T10:00:01Z</time>
      </trkpt>
      <trkpt lat="50.48944" lon="3.83087">
        <ele>77.04</ele>
        <time>2017-02-19T10:00:16Z</time>
      </trkpt>
      <trkpt lat="50.48942" lon="3.83086">
        <ele>77.04</ele>
        <time>2017-02-19T10:00:18Z</time>
      </trkpt>
      <trkpt lat="50.4894" lon="3.83085">
        <ele>78</ele>
        <time>2017-02-19T10:00:20Z</time>
      </trkpt>
      <trkpt lat="50.4893" lon="3.83082">
        <ele>78</ele>
        <time>2017-02-19T10:00:29Z</time>
      </trkpt>
      <trkpt lat="50.48928" lon="3.83093">
        <ele>78</ele>
        <time>2017-02-19T10:00:40Z</time>
      </trkpt>
      <trkpt lat="50.48929" lon="3.83098">
        <ele>78</ele>
        <time>2017-02-19T10:00:53Z</time>
      </trkpt>
      <trkpt lat="50.48932" lon="3.83099">
        <ele>78</ele>
        <time>2017-02-19T10:01:10Z</time>
      </trkpt>
      <trkpt lat="50.48932" lon="3.83097">
        <ele>77.52</ele>
        <time>2017-02-19T10:01:31Z</time>
      </trkpt>
      <trkpt lat="50.48933" lon="3.83097">
        <ele>77.52</ele>
        <time>2017-02-19T10:01:45Z</time>
      </trkpt>
      <trkpt lat="50.48929" lon="3.83092">
        <ele>77.52</ele>
        <time>2017-02-19T10:01:59Z</time>
      </trkpt>
      <trkpt lat="50.48927" lon="3.83093">
        <ele>77.52</ele>
        <time>2017-02-19T10:02:13Z</time>
      </trkpt>
      <trkpt lat="50.48929" lon="3.83096">
        <ele>77.52</ele>
        <time>2017-02-19T10:02:35Z</time>
      </trkpt>
      <trkpt lat="50.4893" lon="3.83094">
        <ele>77.52</ele>
        <time>2017-02-19T10:02:53Z</time>
      </trkpt>
      <trkpt lat="50.4893" lon="3.83091">
        <ele>77.04</ele>
        <time>2017-02-19T10:03:15Z</time>
      </trkpt>
      <trkpt lat="50.4893" lon="3.83091">
        <ele>76.56</ele>
        <time>2017-02-19T10:03:30Z</time>
      </trkpt>
      <trkpt lat="50.48928" lon="3.83093">
        <ele>76.56</ele>
        <time>2017-02-19T10:03:54Z</time>
      </trkpt>
      <trkpt lat="50.48929" lon="3.83094">
        <ele>76.56</ele>
        <time>2017-02-19T10:04:14Z</time>
      </trkpt>
      <trkpt lat="50.4893" lon="3.83092">
        <ele>76.56</ele>
        <time>2017-02-19T10:04:30Z</time>
      </trkpt>
      <trkpt lat="50.48929" lon="3.83094">
        <ele>76.56</ele>
        <time>2017-02-19T10:04:50Z</time>
      </trkpt>
      <trkpt lat="50.48928" lon="3.83094">
        <ele>76.56</ele>
        <time>2017-02-19T10:05:12Z</time>
      </trkpt>
      <trkpt lat="50.48927" lon="3.83089">
        <ele>76.56</ele>
        <time>2017-02-19T10:05:23Z</time>
      </trkpt>
      <trkpt lat="50.48927" lon="3.83091">
        <ele>76.56</ele>
        <time>2017-02-19T10:05:37Z</time>
      </trkpt>
      <trkpt lat="50.48929" lon="3.83088">
        <ele>76.56</ele>
        <time>2017-02-19T10:05:58Z</time>
      </trkpt>
      <trkpt lat="50.4893" lon="3.8309">
        <ele>76.08</ele>
        <time>2017-02-19T10:06:16Z</time>
      </trkpt>
      <trkpt lat="50.4893" lon="3.8309">
        <ele>75.6</ele>
        <time>2017-02-19T10:06:32Z</time>
      </trkpt>
      <trkpt lat="50.48929" lon="3.8309">
        <ele>75.6</ele>
        <time>2017-02-19T10:06:51Z</time>
      </trkpt>
      <trkpt lat="50.48928" lon="3.83089">
        <ele>75.6</ele>
        <time>2017-02-19T10:07:09Z</time>
      </trkpt>
      <trkpt lat="50.48928" lon="3.83087">
        <ele>75.6</ele>
        <time>2017-02-19T10:07:35Z</time>
      </trkpt>
      <trkpt lat="50.48928" lon="3.83087">
        <ele>75.6</ele>
        <time>2017-02-19T10:07:56Z</time>
      </trkpt>
      <trkpt lat="50.48928" lon="3.83089">
        <ele>75.6</ele>
        <time>2017-02-19T10:08:24Z</time>
      </trkpt>
      <trkpt lat="50.4893" lon="3.83083">
        <ele>75.6</ele>
        <time>2017-02-19T10:08:37Z</time>
      </trkpt>
      <trkpt lat="50.48942" lon="3.8309">
        <ele>75.6</ele>
        <time>2017-02-19T10:08:49Z</time>
      </trkpt>
      <trkpt lat="50.48946" lon="3.83089">
        <ele>75.6</ele>
        <time>2017-02-19T10:08:52Z</time>
      </trkpt>
      <trkpt lat="50.48951" lon="3.83084">
        <ele>75.6</ele>
        <time>2017-02-19T10:08:56Z</time>
      </trkpt>
      <trkpt lat="50.48964" lon="3.8305">
        <ele>76.08</ele>
        <time>2017-02-19T10:09:14Z</time>
      </trkpt>
      <trkpt lat="50.48968" lon="3.83035">
        <ele>77.04</ele>
        <time>2017-02-19T10:09:23Z</time>
      </trkpt>
      <trkpt lat="50.48971" lon="3.83023">
        <ele>77.04</ele>
        <time>2017-02-19T10:09:34Z</time>
      </trkpt>
      <trkpt lat="50.48975" lon="3.8301">
        <ele>77.04</ele>
        <time>2017-02-19T10:09:48Z</time>
      </trkpt>
      <trkpt lat="50.48975" lon="3.83008">
        <ele>77.04</ele>
        <time>2017-02-19T10:09:50Z</time>
      </trkpt>
      <trkpt lat="50.4896" lon="3.82991">
        <ele>77.04</ele>
        <time>2017-02-19T10:10:04Z</time>
      </trkpt>
      <trkpt lat="50.48955" lon="3.82987">
        <ele>76.56</ele>
        <time>2017-02-19T10:10:09Z</time>
      </trkpt>
      <trkpt lat="50.48952" lon="3.82984">
        <ele>77.04</ele>
        <time>2017-02-19T10:10:12Z</time>
      </trkpt>
      <trkpt lat="50.48947" lon="3.8298">
        <ele>76.56</ele>
        <time>2017-02-19T10:10:16Z</time>
      </trkpt>
      <trkpt lat="50.48925" lon="3.8296">
        <ele>76.56</ele>
        <time>2017-02-19T10:10:34Z</time>
      </trkpt>
      <trkpt lat="50.48916" lon="3.82951">
        <ele>76.56</ele>
        <time>2017-02-19T10:10:42Z</time>
      </trkpt>
      <trkpt lat="50.4891" lon="3.82945">
        <ele>76.56</ele>
        <time>2017-02-19T10:10:48Z</time>
      </trkpt>
      <trkpt lat="50.48891" lon="3.82925">
        <ele>76.08</ele>
        <time>2017-02-19T10:11:05Z</time>
      </trkpt>
      <trkpt lat="50.48871" lon="3.82906">
        <ele>75.6</ele>
        <time>2017-02-19T10:11:22Z</time>
      </trkpt>
      <trkpt lat="50.48849" lon="3.82888">
        <ele>74.64</ele>
        <time>2017-02-19T10:11:40Z</time>
      </trkpt>
      <trkpt lat="50.48832" lon="3.8287">
        <ele>73.68</ele>
        <time>2017-02-19T10:11:56Z</time>
      </trkpt>
      <trkpt lat="50.48813" lon="3.82852">
        <ele>72.72</ele>
        <time>2017-02-19T10:12:13Z</time>
      </trkpt>
      <trkpt lat="50.48802" lon="3.82841">
        <ele>72.72</ele>
        <time>2017-02-19T10:12:24Z</time>
      </trkpt>
      <trkpt lat="50.48804" lon="3.82839">
        <ele>72.24</ele>
        <time>2017-02-19T10:12:26Z</time>
      </trkpt>
      <trkpt lat="50.48812" lon="3.82811">
        <ele>72.24</ele>
        <time>2017-02-19T10:12:44Z</time>
      </trkpt>
      <trkpt lat="50.48822" lon="3.82785">
        <ele>73.2</ele>
        <time>2017-02-19T10:13:00Z</time>
      </trkpt>
      <trkpt lat="50.48827" lon="3.82769">
        <ele>73.2</ele>
        <time>2017-02-19T10:13:08Z</time>
      </trkpt>
      <trkpt lat="50.48829" lon="3.82763">
        <ele>73.2</ele>
        <time>2017-02-19T10:13:11Z</time>
      </trkpt>
      <trkpt lat="50.48838" lon="3.82738">
        <ele>73.68</ele>
        <time>2017-02-19T10:13:25Z</time>
      </trkpt>
      <trkpt lat="50.48839" lon="3.82736">
        <ele>73.68</ele>
        <time>2017-02-19T10:13:26Z</time>
      </trkpt>
      <trkpt lat="50.48841" lon="3.82733">
        <ele>73.68</ele>
        <time>2017-02-19T10:13:28Z</time>
      </trkpt>
      <trkpt lat="50.48845" lon="3.8272">
        <ele>73.68</ele>
        <time>2017-02-19T10:13:35Z</time>
      </trkpt>
      <trkpt lat="50.48843" lon="3.82712">
        <ele>73.2</ele>
        <time>2017-02-19T10:13:39Z</time>
      </trkpt>
      <trkpt lat="50.48825" lon="3.82694">
        <ele>72.24</ele>
        <time>2017-02-19T10:13:53Z</time>
      </trkpt>
      <trkpt lat="50.4881" lon="3.8268">
        <ele>71.76</ele>
        <time>2017-02-19T10:14:07Z</time>
      </trkpt>
      <trkpt lat="50.48796" lon="3.82664">
        <ele>71.76</ele>
        <time>2017-02-19T10:14:22Z</time>
      </trkpt>
      <trkpt lat="50.48776" lon="3.82647">
        <ele>71.27</ele>
        <time>2017-02-19T10:14:38Z</time>
      </trkpt>
      <trkpt lat="50.48756" lon="3.82628">
        <ele>69.83</ele>
        <time>2017-02-19T10:14:54Z</time>
      </trkpt>
      <trkpt lat="50.48735" lon="3.82606">
        <ele>69.35</ele>
        <time>2017-02-19T10:15:12Z</time>
      </trkpt>
      <trkpt lat="50.48719" lon="3.82591">
        <ele>68.87</ele>
        <time>2017-02-19T10:15:26Z</time>
      </trkpt>
      <trkpt lat="50.48696" lon="3.82572">
        <ele>67.43</ele>
        <time>2017-02-19T10:15:44Z</time>
      </trkpt>
      <trkpt lat="50.48678" lon="3.82558">
        <ele>66.95</ele>
        <time>2017-02-19T10:15:59Z</time>
      </trkpt>
      <trkpt lat="50.48659" lon="3.8254">
        <ele>65.99</ele>
        <time>2017-02-19T10:16:16Z</time>
      </trkpt>
      <trkpt lat="50.48642" lon="3.8253">
        <ele>65.03</ele>
        <time>2017-02-19T10:16:31Z</time>
      </trkpt>
      <trkpt lat="50.48641" lon="3.8253">
        <ele>65.03</ele>
        <time>2017-02-19T10:16:32Z</time>
      </trkpt>
      <trkpt lat="50.48628" lon="3.82552">
        <ele>65.03</ele>
        <time>2017-02-19T10:16:46Z</time>
      </trkpt>
      <trkpt lat="50.48616" lon="3.82572">
        <ele>65.03</ele>
        <time>2017-02-19T10:16:58Z</time>
      </trkpt>
      <trkpt lat="50.48606" lon="3.82581">
        <ele>65.03</ele>
        <time>2017-02-19T10:17:11Z</time>
      </trkpt>
      <trkpt lat="50.48604" lon="3.82578">
        <ele>65.03</ele>
        <time>2017-02-19T10:17:13Z</time>
      </trkpt>
      <trkpt lat="50.48602" lon="3.82562">
        <ele>64.07</ele>
        <time>2017-02-19T10:17:25Z</time>
      </trkpt>
      <trkpt lat="50.48602" lon="3.82558">
        <ele>63.58</ele>
        <time>2017-02-19T10:17:27Z</time>
      </trkpt>
      <trkpt lat="50.486" lon="3.82552">
        <ele>63.1</ele>
        <time>2017-02-19T10:17:32Z</time>
      </trkpt>
      <trkpt lat="50.48596" lon="3.82528">
        <ele>62.14</ele>
        <time>2017-02-19T10:17:45Z</time>
      </trkpt>
      <trkpt lat="50.48591" lon="3.82497">
        <ele>60.7</ele>
        <time>2017-02-19T10:18:00Z</time>
      </trkpt>
      <trkpt lat="50.48585" lon="3.82465">
        <ele>59.74</ele>
        <time>2017-02-19T10:18:16Z</time>
      </trkpt>
      <trkpt lat="50.48585" lon="3.82456">
        <ele>58.78</ele>
        <time>2017-02-19T10:18:21Z</time>
      </trkpt>
      <trkpt lat="50.48581" lon="3.82428">
        <ele>57.34</ele>
        <time>2017-02-19T10:18:37Z</time>
      </trkpt>
      <trkpt lat="50.48582" lon="3.82413">
        <ele>56.86</ele>
        <time>2017-02-19T10:18:45Z</time>
      </trkpt>
      <trkpt lat="50.48585" lon="3.82395">
        <ele>55.89</ele>
        <time>2017-02-19T10:18:53Z</time>
      </trkpt>
      <trkpt lat="50.48588" lon="3.8237">
        <ele>55.41</ele>
        <time>2017-02-19T10:19:06Z</time>
      </trkpt>
      <trkpt lat="50.48587" lon="3.82367">
        <ele>55.41</ele>
        <time>2017-02-19T10:19:08Z</time>
      </trkpt>
      <trkpt lat="50.48586" lon="3.82357">
        <ele>55.41</ele>
        <time>2017-02-19T10:19:12Z</time>
      </trkpt>
      <trkpt lat="50.48586" lon="3.82339">
        <ele>55.41</ele>
        <time>2017-02-19T10:19:20Z</time>
      </trkpt>
      <trkpt lat="50.48584" lon="3.82316">
        <ele>54.45</ele>
        <time>2017-02-19T10:19:33Z</time>
      </trkpt>
      <trkpt lat="50.48586" lon="3.82306">
        <ele>54.45</ele>
        <time>2017-02-19T10:19:38Z</time>
      </trkpt>
      <trkpt lat="50.48585" lon="3.82299">
        <ele>54.45</ele>
        <time>2017-02-19T10:19:43Z</time>
      </trkpt>
      <trkpt lat="50.48578" lon="3.82286">
        <ele>54.45</ele>
        <time>2017-02-19T10:19:52Z</time>
      </trkpt>
      <trkpt lat="50.48577" lon="3.82283">
        <ele>55.89</ele>
        <time>2017-02-19T10:19:54Z</time>
      </trkpt>
      <trkpt lat="50.48577" lon="3.82279">
        <ele>56.37</ele>
        <time>2017-02-19T10:19:56Z</time>
      </trkpt>
      <trkpt lat="50.48573" lon="3.82261">
        <ele>58.3</ele>
        <time>2017-02-19T10:20:08Z</time>
      </trkpt>
      <trkpt lat="50.48572" lon="3.82246">
        <ele>58.78</ele>
        <time>2017-02-19T10:20:20Z</time>
      </trkpt>
      <trkpt lat="50.48574" lon="3.82222">
        <ele>59.26</ele>
        <time>2017-02-19T10:20:31Z</time>
      </trkpt>
      <trkpt lat="50.48576" lon="3.82212">
        <ele>59.26</ele>
        <time>2017-02-19T10:20:37Z</time>
      </trkpt>
      <trkpt lat="50.48577" lon="3.82194">
        <ele>59.74</ele>
        <time>2017-02-19T10:20:45Z</time>
      </trkpt>
      <trkpt lat="50.48576" lon="3.8217">
        <ele>60.22</ele>
        <time>2017-02-19T10:20:58Z</time>
      </trkpt>
      <trkpt lat="50.48578" lon="3.82159">
        <ele>60.22</ele>
        <time>2017-02-19T10:21:04Z</time>
      </trkpt>
      <trkpt lat="50.48581" lon="3.82132">
        <ele>60.7</ele>
        <time>2017-02-19T10:21:18Z</time>
      </trkpt>
      <trkpt lat="50.48581" lon="3.82131">
        <ele>60.7</ele>
        <time>2017-02-19T10:21:19Z</time>
      </trkpt>
      <trkpt lat="50.48581" lon="3.82119">
        <ele>61.18</ele>
        <time>2017-02-19T10:21:28Z</time>
      </trkpt>
      <trkpt lat="50.48581" lon="3.82097">
        <ele>61.18</ele>
        <time>2017-02-19T10:21:38Z</time>
      </trkpt>
      <trkpt lat="50.48581" lon="3.82066">
        <ele>61.66</ele>
        <time>2017-02-19T10:21:51Z</time>
      </trkpt>
      <trkpt lat="50.48585" lon="3.82043">
        <ele>61.66</ele>
        <time>2017-02-19T10:22:03Z</time>
      </trkpt>
      <trkpt lat="50.48588" lon="3.82026">
        <ele>61.66</ele>
        <time>2017-02-19T10:22:15Z</time>
      </trkpt>
      <trkpt lat="50.48592" lon="3.8201">
        <ele>61.66</ele>
        <time>2017-02-19T10:22:26Z</time>
      </trkpt>
      <trkpt lat="50.48593" lon="3.81996">
        <ele>62.14</ele>
        <time>2017-02-19T10:22:33Z</time>
      </trkpt>
      <trkpt lat="50.48594" lon="3.81976">
        <ele>62.14</ele>
        <time>2017-02-19T10:22:44Z</time>
      </trkpt>
      <trkpt lat="50.48595" lon="3.81967">
        <ele>62.14</ele>
        <time>2017-02-19T10:22:48Z</time>
      </trkpt>
      <trkpt lat="50.48593" lon="3.81952">
        <ele>62.62</ele>
        <time>2017-02-19T10:22:56Z</time>
      </trkpt>
      <trkpt lat="50.48598" lon="3.81938">
        <ele>62.62</ele>
        <time>2017-02-19T10:23:01Z</time>
      </trkpt>
      <trkpt lat="50.486" lon="3.81929">
        <ele>62.62</ele>
        <time>2017-02-19T10:23:04Z</time>
      </trkpt>
      <trkpt lat="50.48601" lon="3.81925">
        <ele>62.62</ele>
        <time>2017-02-19T10:23:05Z</time>
      </trkpt>
      <trkpt lat="50.48602" lon="3.81921">
        <ele>62.62</ele>
        <time>2017-02-19T10:23:06Z</time>
      </trkpt>
      <trkpt lat="50.48603" lon="3.81909">
        <ele>63.1</ele>
        <time>2017-02-19T10:23:12Z</time>
      </trkpt>
      <trkpt lat="50.48604" lon="3.81906">
        <ele>63.1</ele>
        <time>2017-02-19T10:23:13Z</time>
      </trkpt>
      <trkpt lat="50.48604" lon="3.81904">
        <ele>63.58</ele>
        <time>2017-02-19T10:23:14Z</time>
      </trkpt>
      <trkpt lat="50.486" lon="3.8188">
        <ele>63.58</ele>
        <time>2017-02-19T10:23:26Z</time>
      </trkpt>
      <trkpt lat="50.48599" lon="3.81875">
        <ele>64.07</ele>
        <time>2017-02-19T10:23:28Z</time>
      </trkpt>
      <trkpt lat="50.48598" lon="3.8185">
        <ele>64.07</ele>
        <time>2017-02-19T10:23:38Z</time>
      </trkpt>
      <trkpt lat="50.48598" lon="3.81847">
        <ele>64.07</ele>
        <time>2017-02-19T10:23:39Z</time>
      </trkpt>
      <trkpt lat="50.48598" lon="3.81845">
        <ele>64.07</ele>
        <time>2017-02-19T10:23:40Z</time>
      </trkpt>
      <trkpt lat="50.48594" lon="3.81831">
        <ele>64.07</ele>
        <time>2017-02-19T10:23:49Z</time>
      </trkpt>
      <trkpt lat="50.48594" lon="3.81829">
        <ele>64.07</ele>
        <time>2017-02-19T10:23:50Z</time>
      </trkpt>
      <trkpt lat="50.48593" lon="3.81806">
        <ele>64.07</ele>
        <time>2017-02-19T10:24:03Z</time>
      </trkpt>
      <trkpt lat="50.48592" lon="3.81796">
        <ele>64.07</ele>
        <time>2017-02-19T10:24:07Z</time>
      </trkpt>
      <trkpt lat="50.48592" lon="3.81794">
        <ele>64.07</ele>
        <time>2017-02-19T10:24:08Z</time>
      </trkpt>
      <trkpt lat="50.48592" lon="3.81784">
        <ele>64.07</ele>
        <time>2017-02-19T10:24:13Z</time>
      </trkpt>
      <trkpt lat="50.48592" lon="3.81781">
        <ele>64.07</ele>
        <time>2017-02-19T10:24:14Z</time>
      </trkpt>
      <trkpt lat="50.48591" lon="3.81779">
        <ele>64.07</ele>
        <time>2017-02-19T10:24:15Z</time>
      </trkpt>
      <trkpt lat="50.48589" lon="3.81764">
        <ele>64.07</ele>
        <time>2017-02-19T10:24:24Z</time>
      </trkpt>
      <trkpt lat="50.4859" lon="3.81756">
        <ele>64.07</ele>
        <time>2017-02-19T10:24:28Z</time>
      </trkpt>
      <trkpt lat="50.4859" lon="3.81753">
        <ele>64.07</ele>
        <time>2017-02-19T10:24:29Z</time>
      </trkpt>
      <trkpt lat="50.48589" lon="3.81737">
        <ele>64.07</ele>
        <time>2017-02-19T10:24:38Z</time>
      </trkpt>
      <trkpt lat="50.48593" lon="3.81725">
        <ele>64.07</ele>
        <time>2017-02-19T10:24:43Z</time>
      </trkpt>
      <trkpt lat="50.48593" lon="3.81723">
        <ele>64.07</ele>
        <time>2017-02-19T10:24:44Z</time>
      </trkpt>
      <trkpt lat="50.48593" lon="3.8172">
        <ele>64.07</ele>
        <time>2017-02-19T10:24:45Z</time>
      </trkpt>
      <trkpt lat="50.48593" lon="3.81719">
        <ele>64.07</ele>
        <time>2017-02-19T10:24:46Z</time>
      </trkpt>
      <trkpt lat="50.48594" lon="3.81716">
        <ele>64.07</ele>
        <time>2017-02-19T10:24:47Z</time>
      </trkpt>
      <trkpt lat="50.48598" lon="3.81688">
        <ele>64.55</ele>
        <time>2017-02-19T10:25:00Z</time>
      </trkpt>
      <trkpt lat="50.48603" lon="3.81667">
        <ele>64.55</ele>
        <time>2017-02-19T10:25:10Z</time>
      </trkpt>
      <trkpt lat="50.48606" lon="3.81656">
        <ele>64.55</ele>
        <time>2017-02-19T10:25:16Z</time>
      </trkpt>
      <trkpt lat="50.48608" lon="3.81639">
        <ele>65.03</ele>
        <time>2017-02-19T10:25:24Z</time>
      </trkpt>
      <trkpt lat="50.48609" lon="3.81637">
        <ele>65.51</ele>
        <time>2017-02-19T10:25:25Z</time>
      </trkpt>
      <trkpt lat="50.4861" lon="3.81635">
        <ele>65.51</ele>
        <time>2017-02-19T10:25:26Z</time>
      </trkpt>
      <trkpt lat="50.4861" lon="3.81623">
        <ele>65.51</ele>
        <time>2017-02-19T10:25:32Z</time>
      </trkpt>
      <trkpt lat="50.4861" lon="3.81621">
        <ele>65.51</ele>
        <time>2017-02-19T10:25:33Z</time>
      </trkpt>
      <trkpt lat="50.4861" lon="3.81619">
        <ele>65.51</ele>
        <time>2017-02-19T10:25:34Z</time>
      </trkpt>
      <trkpt lat="50.48611" lon="3.81611">
        <ele>65.51</ele>
        <time>2017-02-19T10:25:38Z</time>
      </trkpt>
      <trkpt lat="50.48611" lon="3.81609">
        <ele>65.51</ele>
        <time>2017-02-19T10:25:39Z</time>
      </trkpt>
      <trkpt lat="50.48612" lon="3.81606">
        <ele>65.51</ele>
        <time>2017-02-19T10:25:40Z</time>
      </trkpt>
      <trkpt lat="50.48613" lon="3.81604">
        <ele>65.51</ele>
        <time>2017-02-19T10:25:41Z</time>
      </trkpt>
      <trkpt lat="50.48614" lon="3.81602">
        <ele>65.51</ele>
        <time>2017-02-19T10:25:42Z</time>
      </trkpt>
      <trkpt lat="50.48615" lon="3.816">
        <ele>65.51</ele>
        <time>2017-02-19T10:25:43Z</time>
      </trkpt>
      <trkpt lat="50.48616" lon="3.81597">
        <ele>65.51</ele>
        <time>2017-02-19T10:25:44Z</time>
      </trkpt>
      <trkpt lat="50.48617" lon="3.81595">
        <ele>65.51</ele>
        <time>2017-02-19T10:25:45Z</time>
      </trkpt>
      <trkpt lat="50.48624" lon="3.81574">
        <ele>65.51</ele>
        <time>2017-02-19T10:25:56Z</time>
      </trkpt>
      <trkpt lat="50.48637" lon="3.81543">
        <ele>65.51</ele>
        <time>2017-02-19T10:26:11Z</time>
      </trkpt>
      <trkpt lat="50.48645" lon="3.8152">
        <ele>65.99</ele>
        <time>2017-02-19T10:26:24Z</time>
      </trkpt>
      <trkpt lat="50.48657" lon="3.81499">
        <ele>66.47</ele>
        <time>2017-02-19T10:26:37Z</time>
      </trkpt>
      <trkpt lat="50.48662" lon="3.81476">
        <ele>66.47</ele>
        <time>2017-02-19T10:26:51Z</time>
      </trkpt>
      <trkpt lat="50.48663" lon="3.81475">
        <ele>66.47</ele>
        <time>2017-02-19T10:26:52Z</time>
      </trkpt>
      <trkpt lat="50.48668" lon="3.81463">
        <ele>66.47</ele>
        <time>2017-02-19T10:27:00Z</time>
      </trkpt>
      <trkpt lat="50.48669" lon="3.81461">
        <ele>66.95</ele>
        <time>2017-02-19T10:27:01Z</time>
      </trkpt>
      <trkpt lat="50.48674" lon="3.8145">
        <ele>66.47</ele>
        <time>2017-02-19T10:27:08Z</time>
      </trkpt>
      <trkpt lat="50.48674" lon="3.81448">
        <ele>66.47</ele>
        <time>2017-02-19T10:27:09Z</time>
      </trkpt>
      <trkpt lat="50.48675" lon="3.81446">
        <ele>66.47</ele>
        <time>2017-02-19T10:27:10Z</time>
      </trkpt>
      <trkpt lat="50.48678" lon="3.8144">
        <ele>66.95</ele>
        <time>2017-02-19T10:27:14Z</time>
      </trkpt>
      <trkpt lat="50.48679" lon="3.81436">
        <ele>66.95</ele>
        <time>2017-02-19T10:27:16Z</time>
      </trkpt>
      <trkpt lat="50.48683" lon="3.81419">
        <ele>67.43</ele>
        <time>2017-02-19T10:27:26Z</time>
      </trkpt>
      <trkpt lat="50.48684" lon="3.81415">
        <ele>67.43</ele>
        <time>2017-02-19T10:27:28Z</time>
      </trkpt>
      <trkpt lat="50.48685" lon="3.81413">
        <ele>67.91</ele>
        <time>2017-02-19T10:27:29Z</time>
      </trkpt>
      <trkpt lat="50.48685" lon="3.8141">
        <ele>67.91</ele>
        <time>2017-02-19T10:27:30Z</time>
      </trkpt>
      <trkpt lat="50.48685" lon="3.81408">
        <ele>67.91</ele>
        <time>2017-02-19T10:27:31Z</time>
      </trkpt>
      <trkpt lat="50.48686" lon="3.81406">
        <ele>67.91</ele>
        <time>2017-02-19T10:27:32Z</time>
      </trkpt>
      <trkpt lat="50.48687" lon="3.81404">
        <ele>67.91</ele>
        <time>2017-02-19T10:27:33Z</time>
      </trkpt>
      <trkpt lat="50.48688" lon="3.81402">
        <ele>67.91</ele>
        <time>2017-02-19T10:27:34Z</time>
      </trkpt>
      <trkpt lat="50.48689" lon="3.81396">
        <ele>67.91</ele>
        <time>2017-02-19T10:27:37Z</time>
      </trkpt>
      <trkpt lat="50.48689" lon="3.81394">
        <ele>67.91</ele>
        <time>2017-02-19T10:27:38Z</time>
      </trkpt>
      <trkpt lat="50.4869" lon="3.81389">
        <ele>68.39</ele>
        <time>2017-02-19T10:27:41Z</time>
      </trkpt>
      <trkpt lat="50.48691" lon="3.81387">
        <ele>68.39</ele>
        <time>2017-02-19T10:27:42Z</time>
      </trkpt>
      <trkpt lat="50.48691" lon="3.81385">
        <ele>68.39</ele>
        <time>2017-02-19T10:27:43Z</time>
      </trkpt>
      <trkpt lat="50.48693" lon="3.8138">
        <ele>68.39</ele>
        <time>2017-02-19T10:27:45Z</time>
      </trkpt>
      <trkpt lat="50.48694" lon="3.81378">
        <ele>68.87</ele>
        <time>2017-02-19T10:27:46Z</time>
      </trkpt>
      <trkpt lat="50.48694" lon="3.81376">
        <ele>68.87</ele>
        <time>2017-02-19T10:27:47Z</time>
      </trkpt>
      <trkpt lat="50.48698" lon="3.81358">
        <ele>69.35</ele>
        <time>2017-02-19T10:27:57Z</time>
      </trkpt>
      <trkpt lat="50.48698" lon="3.81355">
        <ele>69.35</ele>
        <time>2017-02-19T10:27:58Z</time>
      </trkpt>
      <trkpt lat="50.48699" lon="3.81352">
        <ele>69.35</ele>
        <time>2017-02-19T10:27:59Z</time>
      </trkpt>
      <trkpt lat="50.48699" lon="3.8135">
        <ele>69.35</ele>
        <time>2017-02-19T10:28:00Z</time>
      </trkpt>
      <trkpt lat="50.48702" lon="3.81334">
        <ele>69.83</ele>
        <time>2017-02-19T10:28:09Z</time>
      </trkpt>
      <trkpt lat="50.48703" lon="3.8133">
        <ele>69.83</ele>
        <time>2017-02-19T10:28:11Z</time>
      </trkpt>
      <trkpt lat="50.48704" lon="3.81328">
        <ele>69.83</ele>
        <time>2017-02-19T10:28:12Z</time>
      </trkpt>
      <trkpt lat="50.48706" lon="3.81304">
        <ele>70.79</ele>
        <time>2017-02-19T10:28:24Z</time>
      </trkpt>
      <trkpt lat="50.48706" lon="3.81298">
        <ele>70.79</ele>
        <time>2017-02-19T10:28:27Z</time>
      </trkpt>
      <trkpt lat="50.48706" lon="3.81296">
        <ele>70.79</ele>
        <time>2017-02-19T10:28:28Z</time>
      </trkpt>
      <trkpt lat="50.48706" lon="3.81294">
        <ele>70.79</ele>
        <time>2017-02-19T10:28:29Z</time>
      </trkpt>
      <trkpt lat="50.48707" lon="3.81292">
        <ele>70.79</ele>
        <time>2017-02-19T10:28:30Z</time>
      </trkpt>
      <trkpt lat="50.48707" lon="3.8129">
        <ele>70.79</ele>
        <time>2017-02-19T10:28:31Z</time>
      </trkpt>
      <trkpt lat="50.48708" lon="3.81288">
        <ele>70.79</ele>
        <time>2017-02-19T10:28:32Z</time>
      </trkpt>
      <trkpt lat="50.48708" lon="3.81286">
        <ele>70.79</ele>
        <time>2017-02-19T10:28:33Z</time>
      </trkpt>
      <trkpt lat="50.48707" lon="3.81282">
        <ele>70.31</ele>
        <time>2017-02-19T10:28:36Z</time>
      </trkpt>
      <trkpt lat="50.48708" lon="3.8128">
        <ele>71.27</ele>
        <time>2017-02-19T10:28:37Z</time>
      </trkpt>
      <trkpt lat="50.48708" lon="3.81278">
        <ele>71.27</ele>
        <time>2017-02-19T10:28:38Z</time>
      </trkpt>
      <trkpt lat="50.48709" lon="3.81276">
        <ele>71.27</ele>
        <time>2017-02-19T10:28:39Z</time>
      </trkpt>
      <trkpt lat="50.48708" lon="3.81274">
        <ele>71.27</ele>
        <time>2017-02-19T10:28:40Z</time>
      </trkpt>
      <trkpt lat="50.48709" lon="3.81272">
        <ele>71.27</ele>
        <time>2017-02-19T10:28:41Z</time>
      </trkpt>
      <trkpt lat="50.48712" lon="3.81265">
        <ele>70.79</ele>
        <time>2017-02-19T10:28:45Z</time>
      </trkpt>
      <trkpt lat="50.48713" lon="3.81263">
        <ele>70.79</ele>
        <time>2017-02-19T10:28:46Z</time>
      </trkpt>
      <trkpt lat="50.48714" lon="3.81261">
        <ele>70.79</ele>
        <time>2017-02-19T10:28:47Z</time>
      </trkpt>
      <trkpt lat="50.48714" lon="3.81259">
        <ele>70.79</ele>
        <time>2017-02-19T10:28:48Z</time>
      </trkpt>
      <trkpt lat="50.48714" lon="3.81257">
        <ele>70.79</ele>
        <time>2017-02-19T10:28:49Z</time>
      </trkpt>
      <trkpt lat="50.48714" lon="3.81246">
        <ele>70.79</ele>
        <time>2017-02-19T10:28:57Z</time>
      </trkpt>
      <trkpt lat="50.48715" lon="3.81224">
        <ele>70.79</ele>
        <time>2017-02-19T10:29:09Z</time>
      </trkpt>
      <trkpt lat="50.48717" lon="3.8122">
        <ele>69.83</ele>
        <time>2017-02-19T10:29:11Z</time>
      </trkpt>
      <trkpt lat="50.48719" lon="3.8121">
        <ele>69.35</ele>
        <time>2017-02-19T10:29:17Z</time>
      </trkpt>
      <trkpt lat="50.48719" lon="3.81208">
        <ele>69.35</ele>
        <time>2017-02-19T10:29:18Z</time>
      </trkpt>
      <trkpt lat="50.48719" lon="3.81206">
        <ele>69.35</ele>
        <time>2017-02-19T10:29:19Z</time>
      </trkpt>
      <trkpt lat="50.4872" lon="3.81194">
        <ele>68.87</ele>
        <time>2017-02-19T10:29:25Z</time>
      </trkpt>
      <trkpt lat="50.4872" lon="3.81183">
        <ele>68.39</ele>
        <time>2017-02-19T10:29:30Z</time>
      </trkpt>
      <trkpt lat="50.4872" lon="3.8118">
        <ele>68.39</ele>
        <time>2017-02-19T10:29:31Z</time>
      </trkpt>
      <trkpt lat="50.48722" lon="3.81167">
        <ele>67.91</ele>
        <time>2017-02-19T10:29:38Z</time>
      </trkpt>
      <trkpt lat="50.48723" lon="3.81164">
        <ele>67.43</ele>
        <time>2017-02-19T10:29:39Z</time>
      </trkpt>
      <trkpt lat="50.48722" lon="3.81162">
        <ele>67.43</ele>
        <time>2017-02-19T10:29:40Z</time>
      </trkpt>
      <trkpt lat="50.48722" lon="3.81157">
        <ele>67.43</ele>
        <time>2017-02-19T10:29:42Z</time>
      </trkpt>
      <trkpt lat="50.48723" lon="3.81146">
        <ele>66.95</ele>
        <time>2017-02-19T10:29:47Z</time>
      </trkpt>
      <trkpt lat="50.48724" lon="3.81144">
        <ele>66.95</ele>
        <time>2017-02-19T10:29:48Z</time>
      </trkpt>
      <trkpt lat="50.48736" lon="3.81121">
        <ele>66.47</ele>
        <time>2017-02-19T10:30:01Z</time>
      </trkpt>
      <trkpt lat="50.48744" lon="3.811">
        <ele>65.99</ele>
        <time>2017-02-19T10:30:12Z</time>
      </trkpt>
      <trkpt lat="50.48746" lon="3.81095">
        <ele>65.99</ele>
        <time>2017-02-19T10:30:15Z</time>
      </trkpt>
      <trkpt lat="50.48752" lon="3.81069">
        <ele>65.99</ele>
        <time>2017-02-19T10:30:28Z</time>
      </trkpt>
      <trkpt lat="50.48753" lon="3.81065">
        <ele>66.95</ele>
        <time>2017-02-19T10:30:31Z</time>
      </trkpt>
      <trkpt lat="50.48756" lon="3.81042">
        <ele>67.91</ele>
        <time>2017-02-19T10:30:44Z</time>
      </trkpt>
      <trkpt lat="50.48756" lon="3.81037">
        <ele>67.91</ele>
        <time>2017-02-19T10:30:47Z</time>
      </trkpt>
      <trkpt lat="50.48757" lon="3.81035">
        <ele>67.91</ele>
        <time>2017-02-19T10:30:48Z</time>
      </trkpt>
      <trkpt lat="50.48758" lon="3.81032">
        <ele>67.91</ele>
        <time>2017-02-19T10:30:49Z</time>
      </trkpt>
      <trkpt lat="50.48759" lon="3.8103">
        <ele>67.91</ele>
        <time>2017-02-19T10:30:50Z</time>
      </trkpt>
      <trkpt lat="50.48759" lon="3.81028">
        <ele>67.91</ele>
        <time>2017-02-19T10:30:51Z</time>
      </trkpt>
      <trkpt lat="50.48761" lon="3.81026">
        <ele>67.91</ele>
        <time>2017-02-19T10:30:52Z</time>
      </trkpt>
      <trkpt lat="50.48762" lon="3.81023">
        <ele>67.91</ele>
        <time>2017-02-19T10:30:53Z</time>
      </trkpt>
      <trkpt lat="50.48763" lon="3.8102">
        <ele>67.91</ele>
        <time>2017-02-19T10:30:54Z</time>
      </trkpt>
      <trkpt lat="50.48765" lon="3.81017">
        <ele>67.91</ele>
        <time>2017-02-19T10:30:55Z</time>
      </trkpt>
      <trkpt lat="50.48772" lon="3.80994">
        <ele>68.87</ele>
        <time>2017-02-19T10:31:08Z</time>
      </trkpt>
      <trkpt lat="50.48771" lon="3.80989">
        <ele>68.87</ele>
        <time>2017-02-19T10:31:11Z</time>
      </trkpt>
      <trkpt lat="50.48772" lon="3.80982">
        <ele>68.87</ele>
        <time>2017-02-19T10:31:15Z</time>
      </trkpt>
      <trkpt lat="50.48772" lon="3.80977">
        <ele>69.35</ele>
        <time>2017-02-19T10:31:18Z</time>
      </trkpt>
      <trkpt lat="50.48773" lon="3.80975">
        <ele>69.35</ele>
        <time>2017-02-19T10:31:19Z</time>
      </trkpt>
      <trkpt lat="50.48777" lon="3.80959">
        <ele>69.83</ele>
        <time>2017-02-19T10:31:27Z</time>
      </trkpt>
      <trkpt lat="50.48778" lon="3.80957">
        <ele>69.83</ele>
        <time>2017-02-19T10:31:28Z</time>
      </trkpt>
      <trkpt lat="50.48779" lon="3.80952">
        <ele>69.83</ele>
        <time>2017-02-19T10:31:30Z</time>
      </trkpt>
      <trkpt lat="50.48781" lon="3.80943">
        <ele>69.83</ele>
        <time>2017-02-19T10:31:38Z</time>
      </trkpt>
      <trkpt lat="50.4878" lon="3.80942">
        <ele>69.83</ele>
        <time>2017-02-19T10:31:39Z</time>
      </trkpt>
      <trkpt lat="50.48777" lon="3.80939">
        <ele>69.83</ele>
        <time>2017-02-19T10:31:42Z</time>
      </trkpt>
      <trkpt lat="50.48776" lon="3.80932">
        <ele>69.83</ele>
        <time>2017-02-19T10:31:46Z</time>
      </trkpt>
      <trkpt lat="50.48775" lon="3.8093">
        <ele>69.83</ele>
        <time>2017-02-19T10:31:47Z</time>
      </trkpt>
      <trkpt lat="50.48775" lon="3.80928">
        <ele>69.83</ele>
        <time>2017-02-19T10:31:48Z</time>
      </trkpt>
      <trkpt lat="50.48781" lon="3.80909">
        <ele>70.31</ele>
        <time>2017-02-19T10:31:59Z</time>
      </trkpt>
      <trkpt lat="50.48783" lon="3.80898">
        <ele>70.79</ele>
        <time>2017-02-19T10:32:07Z</time>
      </trkpt>
      <trkpt lat="50.48787" lon="3.80875">
        <ele>70.79</ele>
        <time>2017-02-19T10:32:21Z</time>
      </trkpt>
      <trkpt lat="50.48789" lon="3.80868">
        <ele>71.27</ele>
        <time>2017-02-19T10:32:28Z</time>
      </trkpt>
      <trkpt lat="50.48789" lon="3.80865">
        <ele>71.27</ele>
        <time>2017-02-19T10:32:30Z</time>
      </trkpt>
      <trkpt lat="50.48789" lon="3.80863">
        <ele>71.27</ele>
        <time>2017-02-19T10:32:31Z</time>
      </trkpt>
      <trkpt lat="50.48795" lon="3.8084">
        <ele>71.76</ele>
        <time>2017-02-19T10:32:44Z</time>
      </trkpt>
      <trkpt lat="50.48801" lon="3.80822">
        <ele>72.24</ele>
        <time>2017-02-19T10:32:55Z</time>
      </trkpt>
      <trkpt lat="50.48805" lon="3.80806">
        <ele>72.72</ele>
        <time>2017-02-19T10:33:09Z</time>
      </trkpt>
      <trkpt lat="50.48808" lon="3.80797">
        <ele>73.2</ele>
        <time>2017-02-19T10:33:15Z</time>
      </trkpt>
      <trkpt lat="50.4881" lon="3.8079">
        <ele>73.2</ele>
        <time>2017-02-19T10:33:20Z</time>
      </trkpt>
      <trkpt lat="50.48811" lon="3.80788">
        <ele>73.2</ele>
        <time>2017-02-19T10:33:21Z</time>
      </trkpt>
      <trkpt lat="50.48814" lon="3.80776">
        <ele>73.2</ele>
        <time>2017-02-19T10:33:28Z</time>
      </trkpt>
      <trkpt lat="50.48815" lon="3.80773">
        <ele>73.68</ele>
        <time>2017-02-19T10:33:29Z</time>
      </trkpt>
      <trkpt lat="50.48825" lon="3.8075">
        <ele>73.2</ele>
        <time>2017-02-19T10:33:42Z</time>
      </trkpt>
      <trkpt lat="50.48826" lon="3.80739">
        <ele>73.68</ele>
        <time>2017-02-19T10:33:49Z</time>
      </trkpt>
      <trkpt lat="50.48826" lon="3.80737">
        <ele>73.68</ele>
        <time>2017-02-19T10:33:50Z</time>
      </trkpt>
      <trkpt lat="50.48829" lon="3.80727">
        <ele>73.68</ele>
        <time>2017-02-19T10:33:55Z</time>
      </trkpt>
      <trkpt lat="50.48831" lon="3.80717">
        <ele>73.68</ele>
        <time>2017-02-19T10:34:00Z</time>
      </trkpt>
      <trkpt lat="50.48832" lon="3.80715">
        <ele>73.68</ele>
        <time>2017-02-19T10:34:01Z</time>
      </trkpt>
      <trkpt lat="50.48833" lon="3.80712">
        <ele>74.16</ele>
        <time>2017-02-19T10:34:02Z</time>
      </trkpt>
      <trkpt lat="50.48834" lon="3.8071">
        <ele>74.16</ele>
        <time>2017-02-19T10:34:03Z</time>
      </trkpt>
      <trkpt lat="50.48836" lon="3.80704">
        <ele>74.16</ele>
        <time>2017-02-19T10:34:06Z</time>
      </trkpt>
      <trkpt lat="50.48837" lon="3.80701">
        <ele>74.16</ele>
        <time>2017-02-19T10:34:08Z</time>
      </trkpt>
      <trkpt lat="50.48837" lon="3.80699">
        <ele>74.16</ele>
        <time>2017-02-19T10:34:09Z</time>
      </trkpt>
      <trkpt lat="50.48838" lon="3.80697">
        <ele>74.16</ele>
        <time>2017-02-19T10:34:10Z</time>
      </trkpt>
      <trkpt lat="50.48839" lon="3.80686">
        <ele>74.16</ele>
        <time>2017-02-19T10:34:16Z</time>
      </trkpt>
      <trkpt lat="50.4884" lon="3.80684">
        <ele>74.16</ele>
        <time>2017-02-19T10:34:17Z</time>
      </trkpt>
      <trkpt lat="50.48848" lon="3.80669">
        <ele>74.64</ele>
        <time>2017-02-19T10:34:27Z</time>
      </trkpt>
      <trkpt lat="50.48849" lon="3.80667">
        <ele>74.64</ele>
        <time>2017-02-19T10:34:28Z</time>
      </trkpt>
      <trkpt lat="50.48858" lon="3.80643">
        <ele>74.64</ele>
        <time>2017-02-19T10:34:40Z</time>
      </trkpt>
      <trkpt lat="50.48859" lon="3.80639">
        <ele>74.64</ele>
        <time>2017-02-19T10:34:42Z</time>
      </trkpt>
      <trkpt lat="50.4886" lon="3.80634">
        <ele>74.64</ele>
        <time>2017-02-19T10:34:46Z</time>
      </trkpt>
      <trkpt lat="50.48874" lon="3.8061">
        <ele>74.64</ele>
        <time>2017-02-19T10:34:57Z</time>
      </trkpt>
      <trkpt lat="50.48876" lon="3.80607">
        <ele>74.64</ele>
        <time>2017-02-19T10:34:58Z</time>
      </trkpt>
      <trkpt lat="50.48878" lon="3.80605">
        <ele>74.64</ele>
        <time>2017-02-19T10:34:59Z</time>
      </trkpt>
      <trkpt lat="50.48879" lon="3.80603">
        <ele>74.64</ele>
        <time>2017-02-19T10:35:00Z</time>
      </trkpt>
      <trkpt lat="50.4888" lon="3.806">
        <ele>74.64</ele>
        <time>2017-02-19T10:35:01Z</time>
      </trkpt>
      <trkpt lat="50.48886" lon="3.80582">
        <ele>74.64</ele>
        <time>2017-02-19T10:35:12Z</time>
      </trkpt>
      <trkpt lat="50.48886" lon="3.8058">
        <ele>74.64</ele>
        <time>2017-02-19T10:35:13Z</time>
      </trkpt>
      <trkpt lat="50.48887" lon="3.80578">
        <ele>74.64</ele>
        <time>2017-02-19T10:35:14Z</time>
      </trkpt>
      <trkpt lat="50.48891" lon="3.80563">
        <ele>74.64</ele>
        <time>2017-02-19T10:35:23Z</time>
      </trkpt>
      <trkpt lat="50.48891" lon="3.80562">
        <ele>75.12</ele>
        <time>2017-02-19T10:35:24Z</time>
      </trkpt>
      <trkpt lat="50.48895" lon="3.80546">
        <ele>75.12</ele>
        <time>2017-02-19T10:35:32Z</time>
      </trkpt>
      <trkpt lat="50.48899" lon="3.80534">
        <ele>75.12</ele>
        <time>2017-02-19T10:35:38Z</time>
      </trkpt>
      <trkpt lat="50.48909" lon="3.80509">
        <ele>75.6</ele>
        <time>2017-02-19T10:35:52Z</time>
      </trkpt>
      <trkpt lat="50.48909" lon="3.80506">
        <ele>75.6</ele>
        <time>2017-02-19T10:35:53Z</time>
      </trkpt>
      <trkpt lat="50.48912" lon="3.80498">
        <ele>75.6</ele>
        <time>2017-02-19T10:35:57Z</time>
      </trkpt>
      <trkpt lat="50.48922" lon="3.80477">
        <ele>75.6</ele>
        <time>2017-02-19T10:36:09Z</time>
      </trkpt>
      <trkpt lat="50.48922" lon="3.80474">
        <ele>75.6</ele>
        <time>2017-02-19T10:36:11Z</time>
      </trkpt>
      <trkpt lat="50.48933" lon="3.80453">
        <ele>75.6</ele>
        <time>2017-02-19T10:36:24Z</time>
      </trkpt>
      <trkpt lat="50.48944" lon="3.80435">
        <ele>75.6</ele>
        <time>2017-02-19T10:36:34Z</time>
      </trkpt>
      <trkpt lat="50.48957" lon="3.80416">
        <ele>76.08</ele>
        <time>2017-02-19T10:36:48Z</time>
      </trkpt>
      <trkpt lat="50.48967" lon="3.80399">
        <ele>76.08</ele>
        <time>2017-02-19T10:37:00Z</time>
      </trkpt>
      <trkpt lat="50.48975" lon="3.80377">
        <ele>76.08</ele>
        <time>2017-02-19T10:37:12Z</time>
      </trkpt>
      <trkpt lat="50.4898" lon="3.80365">
        <ele>76.08</ele>
        <time>2017-02-19T10:37:19Z</time>
      </trkpt>
      <trkpt lat="50.48987" lon="3.80347">
        <ele>76.08</ele>
        <time>2017-02-19T10:37:32Z</time>
      </trkpt>
      <trkpt lat="50.4899" lon="3.80345">
        <ele>76.08</ele>
        <time>2017-02-19T10:37:35Z</time>
      </trkpt>
      <trkpt lat="50.48994" lon="3.80339">
        <ele>76.08</ele>
        <time>2017-02-19T10:37:41Z</time>
      </trkpt>
      <trkpt lat="50.48995" lon="3.80335">
        <ele>76.08</ele>
        <time>2017-02-19T10:37:44Z</time>
      </trkpt>
      <trkpt lat="50.49006" lon="3.80314">
        <ele>76.08</ele>
        <time>2017-02-19T10:37:56Z</time>
      </trkpt>
      <trkpt lat="50.49013" lon="3.80296">
        <ele>76.08</ele>
        <time>2017-02-19T10:38:08Z</time>
      </trkpt>
      <trkpt lat="50.49018" lon="3.80288">
        <ele>75.6</ele>
        <time>2017-02-19T10:38:14Z</time>
      </trkpt>
      <trkpt lat="50.4903" lon="3.80271">
        <ele>75.6</ele>
        <time>2017-02-19T10:38:28Z</time>
      </trkpt>
      <trkpt lat="50.49031" lon="3.80268">
        <ele>75.6</ele>
        <time>2017-02-19T10:38:30Z</time>
      </trkpt>
      <trkpt lat="50.49039" lon="3.80249">
        <ele>75.6</ele>
        <time>2017-02-19T10:38:40Z</time>
      </trkpt>
      <trkpt lat="50.4904" lon="3.8024">
        <ele>75.6</ele>
        <time>2017-02-19T10:38:45Z</time>
      </trkpt>
      <trkpt lat="50.49042" lon="3.80224">
        <ele>75.6</ele>
        <time>2017-02-19T10:38:54Z</time>
      </trkpt>
      <trkpt lat="50.49053" lon="3.80219">
        <ele>75.6</ele>
        <time>2017-02-19T10:39:06Z</time>
      </trkpt>
      <trkpt lat="50.49063" lon="3.80221">
        <ele>75.6</ele>
        <time>2017-02-19T10:39:16Z</time>
      </trkpt>
      <trkpt lat="50.49077" lon="3.8022">
        <ele>75.12</ele>
        <time>2017-02-19T10:39:28Z</time>
      </trkpt>
      <trkpt lat="50.49082" lon="3.80223">
        <ele>75.12</ele>
        <time>2017-02-19T10:39:41Z</time>
      </trkpt>
      <trkpt lat="50.49086" lon="3.80218">
        <ele>75.6</ele>
        <time>2017-02-19T10:39:53Z</time>
      </trkpt>
      <trkpt lat="50.49089" lon="3.80208">
        <ele>75.6</ele>
        <time>2017-02-19T10:40:04Z</time>
      </trkpt>
      <trkpt lat="50.49091" lon="3.80197">
        <ele>75.6</ele>
        <time>2017-02-19T10:40:09Z</time>
      </trkpt>
      <trkpt lat="50.49098" lon="3.80174">
        <ele>77.04</ele>
        <time>2017-02-19T10:40:19Z</time>
      </trkpt>
      <trkpt lat="50.491" lon="3.80165">
        <ele>75.6</ele>
        <time>2017-02-19T10:40:23Z</time>
      </trkpt>
      <trkpt lat="50.49109" lon="3.80141">
        <ele>75.12</ele>
        <time>2017-02-19T10:40:35Z</time>
      </trkpt>
      <trkpt lat="50.49116" lon="3.80116">
        <ele>75.12</ele>
        <time>2017-02-19T10:40:47Z</time>
      </trkpt>
      <trkpt lat="50.49128" lon="3.8009">
        <ele>74.64</ele>
        <time>2017-02-19T10:41:02Z</time>
      </trkpt>
      <trkpt lat="50.49139" lon="3.80063">
        <ele>74.16</ele>
        <time>2017-02-19T10:41:18Z</time>
      </trkpt>
      <trkpt lat="50.49149" lon="3.80038">
        <ele>73.68</ele>
        <time>2017-02-19T10:41:33Z</time>
      </trkpt>
      <trkpt lat="50.49158" lon="3.80017">
        <ele>73.68</ele>
        <time>2017-02-19T10:41:46Z</time>
      </trkpt>
      <trkpt lat="50.49167" lon="3.79991">
        <ele>73.2</ele>
        <time>2017-02-19T10:42:01Z</time>
      </trkpt>
      <trkpt lat="50.49179" lon="3.79964">
        <ele>72.72</ele>
        <time>2017-02-19T10:42:16Z</time>
      </trkpt>
      <trkpt lat="50.49189" lon="3.7994">
        <ele>72.72</ele>
        <time>2017-02-19T10:42:29Z</time>
      </trkpt>
      <trkpt lat="50.49193" lon="3.79931">
        <ele>72.24</ele>
        <time>2017-02-19T10:42:34Z</time>
      </trkpt>
      <trkpt lat="50.49196" lon="3.79922">
        <ele>72.24</ele>
        <time>2017-02-19T10:42:40Z</time>
      </trkpt>
      <trkpt lat="50.49206" lon="3.79901">
        <ele>71.76</ele>
        <time>2017-02-19T10:42:52Z</time>
      </trkpt>
      <trkpt lat="50.49214" lon="3.79885">
        <ele>71.76</ele>
        <time>2017-02-19T10:43:01Z</time>
      </trkpt>
      <trkpt lat="50.49226" lon="3.79856">
        <ele>71.27</ele>
        <time>2017-02-19T10:43:17Z</time>
      </trkpt>
      <trkpt lat="50.49227" lon="3.79851">
        <ele>71.27</ele>
        <time>2017-02-19T10:43:21Z</time>
      </trkpt>
      <trkpt lat="50.49239" lon="3.79836">
        <ele>71.27</ele>
        <time>2017-02-19T10:43:32Z</time>
      </trkpt>
      <trkpt lat="50.49239" lon="3.79833">
        <ele>71.27</ele>
        <time>2017-02-19T10:43:34Z</time>
      </trkpt>
      <trkpt lat="50.49247" lon="3.79806">
        <ele>72.24</ele>
        <time>2017-02-19T10:43:49Z</time>
      </trkpt>
      <trkpt lat="50.49253" lon="3.79794">
        <ele>72.72</ele>
        <time>2017-02-19T10:44:00Z</time>
      </trkpt>
      <trkpt lat="50.49262" lon="3.79773">
        <ele>73.2</ele>
        <time>2017-02-19T10:44:13Z</time>
      </trkpt>
      <trkpt lat="50.49269" lon="3.7975">
        <ele>74.16</ele>
        <time>2017-02-19T10:44:27Z</time>
      </trkpt>
      <trkpt lat="50.49271" lon="3.79745">
        <ele>74.16</ele>
        <time>2017-02-19T10:44:30Z</time>
      </trkpt>
      <trkpt lat="50.49274" lon="3.79737">
        <ele>74.16</ele>
        <time>2017-02-19T10:44:34Z</time>
      </trkpt>
      <trkpt lat="50.49277" lon="3.79728">
        <ele>74.64</ele>
        <time>2017-02-19T10:44:40Z</time>
      </trkpt>
      <trkpt lat="50.49277" lon="3.79719">
        <ele>74.64</ele>
        <time>2017-02-19T10:44:45Z</time>
      </trkpt>
      <trkpt lat="50.49277" lon="3.79702">
        <ele>75.12</ele>
        <time>2017-02-19T10:44:53Z</time>
      </trkpt>
      <trkpt lat="50.49273" lon="3.79677">
        <ele>75.12</ele>
        <time>2017-02-19T10:45:06Z</time>
      </trkpt>
      <trkpt lat="50.49278" lon="3.79659">
        <ele>75.12</ele>
        <time>2017-02-19T10:45:15Z</time>
      </trkpt>
      <trkpt lat="50.49284" lon="3.79647">
        <ele>73.68</ele>
        <time>2017-02-19T10:45:23Z</time>
      </trkpt>
      <trkpt lat="50.49289" lon="3.79635">
        <ele>72.72</ele>
        <time>2017-02-19T10:45:30Z</time>
      </trkpt>
      <trkpt lat="50.49306" lon="3.79614">
        <ele>72.72</ele>
        <time>2017-02-19T10:45:47Z</time>
      </trkpt>
      <trkpt lat="50.49315" lon="3.79589">
        <ele>72.24</ele>
        <time>2017-02-19T10:46:00Z</time>
      </trkpt>
      <trkpt lat="50.49318" lon="3.79576">
        <ele>72.24</ele>
        <time>2017-02-19T10:46:06Z</time>
      </trkpt>
      <trkpt lat="50.49318" lon="3.79548">
        <ele>71.76</ele>
        <time>2017-02-19T10:46:20Z</time>
      </trkpt>
      <trkpt lat="50.49319" lon="3.79517">
        <ele>73.2</ele>
        <time>2017-02-19T10:46:35Z</time>
      </trkpt>
      <trkpt lat="50.4932" lon="3.79494">
        <ele>73.68</ele>
        <time>2017-02-19T10:46:46Z</time>
      </trkpt>
      <trkpt lat="50.49322" lon="3.79481">
        <ele>73.68</ele>
        <time>2017-02-19T10:46:52Z</time>
      </trkpt>
      <trkpt lat="50.49321" lon="3.79472">
        <ele>73.68</ele>
        <time>2017-02-19T10:46:57Z</time>
      </trkpt>
      <trkpt lat="50.49321" lon="3.79463">
        <ele>73.68</ele>
        <time>2017-02-19T10:47:01Z</time>
      </trkpt>
      <trkpt lat="50.49321" lon="3.79456">
        <ele>73.68</ele>
        <time>2017-02-19T10:47:04Z</time>
      </trkpt>
      <trkpt lat="50.49321" lon="3.79435">
        <ele>73.68</ele>
        <time>2017-02-19T10:47:14Z</time>
      </trkpt>
      <trkpt lat="50.49315" lon="3.79402">
        <ele>73.68</ele>
        <time>2017-02-19T10:47:30Z</time>
      </trkpt>
      <trkpt lat="50.49314" lon="3.79381">
        <ele>72.24</ele>
        <time>2017-02-19T10:47:40Z</time>
      </trkpt>
      <trkpt lat="50.49311" lon="3.7935">
        <ele>74.16</ele>
        <time>2017-02-19T10:47:55Z</time>
      </trkpt>
      <trkpt lat="50.49307" lon="3.79317">
        <ele>73.68</ele>
        <time>2017-02-19T10:48:10Z</time>
      </trkpt>
      <trkpt lat="50.49305" lon="3.79304">
        <ele>72.24</ele>
        <time>2017-02-19T10:48:17Z</time>
      </trkpt>
      <trkpt lat="50.49302" lon="3.7928">
        <ele>72.24</ele>
        <time>2017-02-19T10:48:28Z</time>
      </trkpt>
      <trkpt lat="50.49302" lon="3.79266">
        <ele>73.68</ele>
        <time>2017-02-19T10:48:35Z</time>
      </trkpt>
      <trkpt lat="50.493" lon="3.79244">
        <ele>72.24</ele>
        <time>2017-02-19T10:48:45Z</time>
      </trkpt>
      <trkpt lat="50.49299" lon="3.79236">
        <ele>73.68</ele>
        <time>2017-02-19T10:48:49Z</time>
      </trkpt>
      <trkpt lat="50.49295" lon="3.79221">
        <ele>73.68</ele>
        <time>2017-02-19T10:48:57Z</time>
      </trkpt>
      <trkpt lat="50.49291" lon="3.79187">
        <ele>73.68</ele>
        <time>2017-02-19T10:49:13Z</time>
      </trkpt>
      <trkpt lat="50.49288" lon="3.79151">
        <ele>73.68</ele>
        <time>2017-02-19T10:49:30Z</time>
      </trkpt>
      <trkpt lat="50.49281" lon="3.79112">
        <ele>73.68</ele>
        <time>2017-02-19T10:49:48Z</time>
      </trkpt>
      <trkpt lat="50.49279" lon="3.7908">
        <ele>72.24</ele>
        <time>2017-02-19T10:50:04Z</time>
      </trkpt>
      <trkpt lat="50.49277" lon="3.79068">
        <ele>72.24</ele>
        <time>2017-02-19T10:50:10Z</time>
      </trkpt>
      <trkpt lat="50.49272" lon="3.79037">
        <ele>72.24</ele>
        <time>2017-02-19T10:50:25Z</time>
      </trkpt>
      <trkpt lat="50.49271" lon="3.79003">
        <ele>73.2</ele>
        <time>2017-02-19T10:50:41Z</time>
      </trkpt>
      <trkpt lat="50.49272" lon="3.78969">
        <ele>73.2</ele>
        <time>2017-02-19T10:50:58Z</time>
      </trkpt>
      <trkpt lat="50.49272" lon="3.78957">
        <ele>73.2</ele>
        <time>2017-02-19T10:51:04Z</time>
      </trkpt>
      <trkpt lat="50.49274" lon="3.7894">
        <ele>73.68</ele>
        <time>2017-02-19T10:51:12Z</time>
      </trkpt>
      <trkpt lat="50.4928" lon="3.78922">
        <ele>73.2</ele>
        <time>2017-02-19T10:51:22Z</time>
      </trkpt>
      <trkpt lat="50.49298" lon="3.78903">
        <ele>73.2</ele>
        <time>2017-02-19T10:51:37Z</time>
      </trkpt>
      <trkpt lat="50.49316" lon="3.7889">
        <ele>73.2</ele>
        <time>2017-02-19T10:51:49Z</time>
      </trkpt>
      <trkpt lat="50.49329" lon="3.78876">
        <ele>73.2</ele>
        <time>2017-02-19T10:52:02Z</time>
      </trkpt>
      <trkpt lat="50.49344" lon="3.7886">
        <ele>74.16</ele>
        <time>2017-02-19T10:52:13Z</time>
      </trkpt>
      <trkpt lat="50.49362" lon="3.78839">
        <ele>72.72</ele>
        <time>2017-02-19T10:52:29Z</time>
      </trkpt>
      <trkpt lat="50.49374" lon="3.78829">
        <ele>72.72</ele>
        <time>2017-02-19T10:52:41Z</time>
      </trkpt>
      <trkpt lat="50.49382" lon="3.78826">
        <ele>72.72</ele>
        <time>2017-02-19T10:52:47Z</time>
      </trkpt>
      <trkpt lat="50.49398" lon="3.78816">
        <ele>72.72</ele>
        <time>2017-02-19T10:53:01Z</time>
      </trkpt>
      <trkpt lat="50.49399" lon="3.78815">
        <ele>72.72</ele>
        <time>2017-02-19T10:53:02Z</time>
      </trkpt>
      <trkpt lat="50.494" lon="3.78813">
        <ele>72.72</ele>
        <time>2017-02-19T10:53:03Z</time>
      </trkpt>
      <trkpt lat="50.49412" lon="3.78802">
        <ele>73.68</ele>
        <time>2017-02-19T10:53:15Z</time>
      </trkpt>
      <trkpt lat="50.49424" lon="3.78797">
        <ele>73.68</ele>
        <time>2017-02-19T10:53:30Z</time>
      </trkpt>
      <trkpt lat="50.49422" lon="3.78798">
        <ele>73.68</ele>
        <time>2017-02-19T10:53:50Z</time>
      </trkpt>
      <trkpt lat="50.49422" lon="3.78797">
        <ele>73.68</ele>
        <time>2017-02-19T10:54:15Z</time>
      </trkpt>
      <trkpt lat="50.49423" lon="3.78796">
        <ele>73.68</ele>
        <time>2017-02-19T10:54:34Z</time>
      </trkpt>
      <trkpt lat="50.49428" lon="3.78799">
        <ele>73.68</ele>
        <time>2017-02-19T10:54:43Z</time>
      </trkpt>
      <trkpt lat="50.49432" lon="3.78799">
        <ele>73.68</ele>
        <time>2017-02-19T10:55:01Z</time>
      </trkpt>
      <trkpt lat="50.49439" lon="3.78806">
        <ele>73.68</ele>
        <time>2017-02-19T10:55:16Z</time>
      </trkpt>
      <trkpt lat="50.49446" lon="3.78815">
        <ele>73.68</ele>
        <time>2017-02-19T10:55:26Z</time>
      </trkpt>
      <trkpt lat="50.49447" lon="3.78817">
        <ele>73.68</ele>
        <time>2017-02-19T10:55:28Z</time>
      </trkpt>
      <trkpt lat="50.49449" lon="3.78821">
        <ele>73.68</ele>
        <time>2017-02-19T10:55:31Z</time>
      </trkpt>
      <trkpt lat="50.49454" lon="3.7883">
        <ele>73.68</ele>
        <time>2017-02-19T10:55:38Z</time>
      </trkpt>
      <trkpt lat="50.49466" lon="3.78851">
        <ele>73.68</ele>
        <time>2017-02-19T10:55:53Z</time>
      </trkpt>
      <trkpt lat="50.4948" lon="3.78872">
        <ele>73.68</ele>
        <time>2017-02-19T10:56:08Z</time>
      </trkpt>
      <trkpt lat="50.49496" lon="3.78892">
        <ele>74.16</ele>
        <time>2017-02-19T10:56:24Z</time>
      </trkpt>
      <trkpt lat="50.49511" lon="3.78915">
        <ele>74.16</ele>
        <time>2017-02-19T10:56:40Z</time>
      </trkpt>
      <trkpt lat="50.49528" lon="3.78938">
        <ele>74.16</ele>
        <time>2017-02-19T10:56:57Z</time>
      </trkpt>
      <trkpt lat="50.49544" lon="3.78961">
        <ele>74.64</ele>
        <time>2017-02-19T10:57:14Z</time>
      </trkpt>
      <trkpt lat="50.49561" lon="3.78985">
        <ele>75.12</ele>
        <time>2017-02-19T10:57:31Z</time>
      </trkpt>
      <trkpt lat="50.49576" lon="3.79009">
        <ele>75.12</ele>
        <time>2017-02-19T10:57:48Z</time>
      </trkpt>
      <trkpt lat="50.4959" lon="3.79029">
        <ele>75.12</ele>
        <time>2017-02-19T10:58:02Z</time>
      </trkpt>
      <trkpt lat="50.4959" lon="3.7903">
        <ele>75.12</ele>
        <time>2017-02-19T10:58:03Z</time>
      </trkpt>
      <trkpt lat="50.49607" lon="3.79058">
        <ele>75.12</ele>
        <time>2017-02-19T10:58:22Z</time>
      </trkpt>
      <trkpt lat="50.49625" lon="3.79085">
        <ele>75.6</ele>
        <time>2017-02-19T10:58:39Z</time>
      </trkpt>
      <trkpt lat="50.4964" lon="3.79111">
        <ele>75.6</ele>
        <time>2017-02-19T10:58:57Z</time>
      </trkpt>
      <trkpt lat="50.49641" lon="3.79114">
        <ele>75.6</ele>
        <time>2017-02-19T10:58:59Z</time>
      </trkpt>
      <trkpt lat="50.49642" lon="3.79116">
        <ele>75.6</ele>
        <time>2017-02-19T10:59:00Z</time>
      </trkpt>
      <trkpt lat="50.49643" lon="3.79117">
        <ele>75.6</ele>
        <time>2017-02-19T10:59:01Z</time>
      </trkpt>
      <trkpt lat="50.49656" lon="3.79139">
        <ele>75.6</ele>
        <time>2017-02-19T10:59:15Z</time>
      </trkpt>
      <trkpt lat="50.49671" lon="3.79164">
        <ele>76.08</ele>
        <time>2017-02-19T10:59:32Z</time>
      </trkpt>
      <trkpt lat="50.4969" lon="3.79191">
        <ele>76.56</ele>
        <time>2017-02-19T10:59:50Z</time>
      </trkpt>
      <trkpt lat="50.4971" lon="3.792">
        <ele>77.52</ele>
        <time>2017-02-19T11:00:06Z</time>
      </trkpt>
      <trkpt lat="50.49721" lon="3.79192">
        <ele>77.52</ele>
        <time>2017-02-19T11:00:17Z</time>
      </trkpt>
      <trkpt lat="50.49723" lon="3.79192">
        <ele>77.52</ele>
        <time>2017-02-19T11:00:18Z</time>
      </trkpt>
      <trkpt lat="50.49744" lon="3.79177">
        <ele>77.52</ele>
        <time>2017-02-19T11:00:34Z</time>
      </trkpt>
      <trkpt lat="50.49758" lon="3.79166">
        <ele>78</ele>
        <time>2017-02-19T11:00:48Z</time>
      </trkpt>
      <trkpt lat="50.49775" lon="3.79169">
        <ele>78</ele>
        <time>2017-02-19T11:01:02Z</time>
      </trkpt>
      <trkpt lat="50.49793" lon="3.7918">
        <ele>78</ele>
        <time>2017-02-19T11:01:17Z</time>
      </trkpt>
      <trkpt lat="50.4981" lon="3.79192">
        <ele>78</ele>
        <time>2017-02-19T11:01:31Z</time>
      </trkpt>
      <trkpt lat="50.49835" lon="3.79213">
        <ele>78</ele>
        <time>2017-02-19T11:01:51Z</time>
      </trkpt>
      <trkpt lat="50.49853" lon="3.79228">
        <ele>77.04</ele>
        <time>2017-02-19T11:02:07Z</time>
      </trkpt>
      <trkpt lat="50.49868" lon="3.79242">
        <ele>77.04</ele>
        <time>2017-02-19T11:02:20Z</time>
      </trkpt>
      <trkpt lat="50.49884" lon="3.79253">
        <ele>77.52</ele>
        <time>2017-02-19T11:02:33Z</time>
      </trkpt>
      <trkpt lat="50.49898" lon="3.79255">
        <ele>76.56</ele>
        <time>2017-02-19T11:02:43Z</time>
      </trkpt>
      <trkpt lat="50.49905" lon="3.7925">
        <ele>76.56</ele>
        <time>2017-02-19T11:02:48Z</time>
      </trkpt>
      <trkpt lat="50.49911" lon="3.79236">
        <ele>76.56</ele>
        <time>2017-02-19T11:02:57Z</time>
      </trkpt>
      <trkpt lat="50.49912" lon="3.79234">
        <ele>76.56</ele>
        <time>2017-02-19T11:02:58Z</time>
      </trkpt>
      <trkpt lat="50.49912" lon="3.79232">
        <ele>76.56</ele>
        <time>2017-02-19T11:02:59Z</time>
      </trkpt>
      <trkpt lat="50.49926" lon="3.79204">
        <ele>78</ele>
        <time>2017-02-19T11:03:15Z</time>
      </trkpt>
      <trkpt lat="50.49943" lon="3.79169">
        <ele>77.52</ele>
        <time>2017-02-19T11:03:36Z</time>
      </trkpt>
      <trkpt lat="50.49954" lon="3.79169">
        <ele>76.08</ele>
        <time>2017-02-19T11:03:45Z</time>
      </trkpt>
      <trkpt lat="50.4997" lon="3.79176">
        <ele>76.08</ele>
        <time>2017-02-19T11:03:57Z</time>
      </trkpt>
      <trkpt lat="50.49988" lon="3.79185">
        <ele>77.52</ele>
        <time>2017-02-19T11:04:12Z</time>
      </trkpt>
      <trkpt lat="50.50009" lon="3.79202">
        <ele>77.52</ele>
        <time>2017-02-19T11:04:29Z</time>
      </trkpt>
      <trkpt lat="50.50025" lon="3.79215">
        <ele>76.56</ele>
        <time>2017-02-19T11:04:42Z</time>
      </trkpt>
      <trkpt lat="50.50041" lon="3.79233">
        <ele>75.6</ele>
        <time>2017-02-19T11:04:57Z</time>
      </trkpt>
      <trkpt lat="50.50045" lon="3.79239">
        <ele>76.56</ele>
        <time>2017-02-19T11:05:01Z</time>
      </trkpt>
      <trkpt lat="50.50045" lon="3.7924">
        <ele>76.56</ele>
        <time>2017-02-19T11:05:02Z</time>
      </trkpt>
      <trkpt lat="50.50047" lon="3.79241">
        <ele>76.56</ele>
        <time>2017-02-19T11:05:03Z</time>
      </trkpt>
      <trkpt lat="50.50048" lon="3.79243">
        <ele>76.56</ele>
        <time>2017-02-19T11:05:04Z</time>
      </trkpt>
      <trkpt lat="50.50049" lon="3.79245">
        <ele>76.56</ele>
        <time>2017-02-19T11:05:05Z</time>
      </trkpt>
      <trkpt lat="50.5005" lon="3.79246">
        <ele>76.56</ele>
        <time>2017-02-19T11:05:06Z</time>
      </trkpt>
      <trkpt lat="50.50051" lon="3.79247">
        <ele>76.56</ele>
        <time>2017-02-19T11:05:07Z</time>
      </trkpt>
      <trkpt lat="50.50053" lon="3.7925">
        <ele>75.12</ele>
        <time>2017-02-19T11:05:09Z</time>
      </trkpt>
      <trkpt lat="50.50055" lon="3.79253">
        <ele>76.56</ele>
        <time>2017-02-19T11:05:11Z</time>
      </trkpt>
      <trkpt lat="50.50057" lon="3.79257">
        <ele>76.56</ele>
        <time>2017-02-19T11:05:13Z</time>
      </trkpt>
      <trkpt lat="50.50057" lon="3.7926">
        <ele>76.56</ele>
        <time>2017-02-19T11:05:14Z</time>
      </trkpt>
      <trkpt lat="50.50058" lon="3.79262">
        <ele>76.56</ele>
        <time>2017-02-19T11:05:15Z</time>
      </trkpt>
      <trkpt lat="50.5006" lon="3.79266">
        <ele>76.56</ele>
        <time>2017-02-19T11:05:18Z</time>
      </trkpt>
      <trkpt lat="50.50061" lon="3.79268">
        <ele>76.56</ele>
        <time>2017-02-19T11:05:19Z</time>
      </trkpt>
      <trkpt lat="50.50074" lon="3.79295">
        <ele>77.04</ele>
        <time>2017-02-19T11:05:35Z</time>
      </trkpt>
      <trkpt lat="50.50087" lon="3.79319">
        <ele>77.04</ele>
        <time>2017-02-19T11:05:50Z</time>
      </trkpt>
      <trkpt lat="50.50098" lon="3.79344">
        <ele>77.04</ele>
        <time>2017-02-19T11:06:05Z</time>
      </trkpt>
      <trkpt lat="50.501" lon="3.79348">
        <ele>75.6</ele>
        <time>2017-02-19T11:06:07Z</time>
      </trkpt>
      <trkpt lat="50.50111" lon="3.79362">
        <ele>77.04</ele>
        <time>2017-02-19T11:06:17Z</time>
      </trkpt>
      <trkpt lat="50.50115" lon="3.79368">
        <ele>75.6</ele>
        <time>2017-02-19T11:06:21Z</time>
      </trkpt>
      <trkpt lat="50.50133" lon="3.79382">
        <ele>75.6</ele>
        <time>2017-02-19T11:06:35Z</time>
      </trkpt>
      <trkpt lat="50.50155" lon="3.79395">
        <ele>76.56</ele>
        <time>2017-02-19T11:06:52Z</time>
      </trkpt>
      <trkpt lat="50.50167" lon="3.79399">
        <ele>76.56</ele>
        <time>2017-02-19T11:07:02Z</time>
      </trkpt>
      <trkpt lat="50.50169" lon="3.79398">
        <ele>76.56</ele>
        <time>2017-02-19T11:07:03Z</time>
      </trkpt>
      <trkpt lat="50.50178" lon="3.79383">
        <ele>75.6</ele>
        <time>2017-02-19T11:07:13Z</time>
      </trkpt>
      <trkpt lat="50.50196" lon="3.79355">
        <ele>75.12</ele>
        <time>2017-02-19T11:07:32Z</time>
      </trkpt>
      <trkpt lat="50.50213" lon="3.79326">
        <ele>75.12</ele>
        <time>2017-02-19T11:07:51Z</time>
      </trkpt>
      <trkpt lat="50.50229" lon="3.79302">
        <ele>74.64</ele>
        <time>2017-02-19T11:08:07Z</time>
      </trkpt>
      <trkpt lat="50.50233" lon="3.79296">
        <ele>73.2</ele>
        <time>2017-02-19T11:08:11Z</time>
      </trkpt>
      <trkpt lat="50.50235" lon="3.79292">
        <ele>74.64</ele>
        <time>2017-02-19T11:08:13Z</time>
      </trkpt>
      <trkpt lat="50.50251" lon="3.79262">
        <ele>74.64</ele>
        <time>2017-02-19T11:08:32Z</time>
      </trkpt>
      <trkpt lat="50.50265" lon="3.7924">
        <ele>72.72</ele>
        <time>2017-02-19T11:08:47Z</time>
      </trkpt>
      <trkpt lat="50.50269" lon="3.79233">
        <ele>72.72</ele>
        <time>2017-02-19T11:08:52Z</time>
      </trkpt>
      <trkpt lat="50.50269" lon="3.79231">
        <ele>72.72</ele>
        <time>2017-02-19T11:08:53Z</time>
      </trkpt>
      <trkpt lat="50.50271" lon="3.79229">
        <ele>72.72</ele>
        <time>2017-02-19T11:08:55Z</time>
      </trkpt>
      <trkpt lat="50.50282" lon="3.79209">
        <ele>74.16</ele>
        <time>2017-02-19T11:09:09Z</time>
      </trkpt>
      <trkpt lat="50.50284" lon="3.79205">
        <ele>74.16</ele>
        <time>2017-02-19T11:09:11Z</time>
      </trkpt>
      <trkpt lat="50.50284" lon="3.79204">
        <ele>74.16</ele>
        <time>2017-02-19T11:09:12Z</time>
      </trkpt>
      <trkpt lat="50.50285" lon="3.79203">
        <ele>74.16</ele>
        <time>2017-02-19T11:09:13Z</time>
      </trkpt>
      <trkpt lat="50.50292" lon="3.79192">
        <ele>72.72</ele>
        <time>2017-02-19T11:09:19Z</time>
      </trkpt>
      <trkpt lat="50.50307" lon="3.79168">
        <ele>73.2</ele>
        <time>2017-02-19T11:09:34Z</time>
      </trkpt>
      <trkpt lat="50.50314" lon="3.79156">
        <ele>72.24</ele>
        <time>2017-02-19T11:09:42Z</time>
      </trkpt>
      <trkpt lat="50.50331" lon="3.79133">
        <ele>71.27</ele>
        <time>2017-02-19T11:09:59Z</time>
      </trkpt>
      <trkpt lat="50.50333" lon="3.79131">
        <ele>72.72</ele>
        <time>2017-02-19T11:10:01Z</time>
      </trkpt>
      <trkpt lat="50.50334" lon="3.79129">
        <ele>72.72</ele>
        <time>2017-02-19T11:10:02Z</time>
      </trkpt>
      <trkpt lat="50.50341" lon="3.7912">
        <ele>70.79</ele>
        <time>2017-02-19T11:10:08Z</time>
      </trkpt>
      <trkpt lat="50.50343" lon="3.79118">
        <ele>70.79</ele>
        <time>2017-02-19T11:10:10Z</time>
      </trkpt>
      <trkpt lat="50.50344" lon="3.79117">
        <ele>70.79</ele>
        <time>2017-02-19T11:10:11Z</time>
      </trkpt>
      <trkpt lat="50.50345" lon="3.79116">
        <ele>70.79</ele>
        <time>2017-02-19T11:10:12Z</time>
      </trkpt>
      <trkpt lat="50.5035" lon="3.7911">
        <ele>70.79</ele>
        <time>2017-02-19T11:10:17Z</time>
      </trkpt>
      <trkpt lat="50.50351" lon="3.79109">
        <ele>70.79</ele>
        <time>2017-02-19T11:10:18Z</time>
      </trkpt>
      <trkpt lat="50.50352" lon="3.79107">
        <ele>70.79</ele>
        <time>2017-02-19T11:10:19Z</time>
      </trkpt>
      <trkpt lat="50.50353" lon="3.79105">
        <ele>70.79</ele>
        <time>2017-02-19T11:10:20Z</time>
      </trkpt>
      <trkpt lat="50.50366" lon="3.79084">
        <ele>70.79</ele>
        <time>2017-02-19T11:10:35Z</time>
      </trkpt>
      <trkpt lat="50.50376" lon="3.79068">
        <ele>70.31</ele>
        <time>2017-02-19T11:10:46Z</time>
      </trkpt>
      <trkpt lat="50.50377" lon="3.79066">
        <ele>70.31</ele>
        <time>2017-02-19T11:10:47Z</time>
      </trkpt>
      <trkpt lat="50.50395" lon="3.79042">
        <ele>70.31</ele>
        <time>2017-02-19T11:11:03Z</time>
      </trkpt>
      <trkpt lat="50.50411" lon="3.79022">
        <ele>70.31</ele>
        <time>2017-02-19T11:11:19Z</time>
      </trkpt>
      <trkpt lat="50.5042" lon="3.7901">
        <ele>70.31</ele>
        <time>2017-02-19T11:11:33Z</time>
      </trkpt>
      <trkpt lat="50.50421" lon="3.79008">
        <ele>70.31</ele>
        <time>2017-02-19T11:11:34Z</time>
      </trkpt>
      <trkpt lat="50.5042" lon="3.79006">
        <ele>70.31</ele>
        <time>2017-02-19T11:11:35Z</time>
      </trkpt>
      <trkpt lat="50.50419" lon="3.79004">
        <ele>70.31</ele>
        <time>2017-02-19T11:11:36Z</time>
      </trkpt>
      <trkpt lat="50.50418" lon="3.79001">
        <ele>70.31</ele>
        <time>2017-02-19T11:11:38Z</time>
      </trkpt>
      <trkpt lat="50.5042" lon="3.78997">
        <ele>70.31</ele>
        <time>2017-02-19T11:11:40Z</time>
      </trkpt>
      <trkpt lat="50.50423" lon="3.78995">
        <ele>70.31</ele>
        <time>2017-02-19T11:11:42Z</time>
      </trkpt>
      <trkpt lat="50.50424" lon="3.78994">
        <ele>70.31</ele>
        <time>2017-02-19T11:11:43Z</time>
      </trkpt>
      <trkpt lat="50.50426" lon="3.78992">
        <ele>70.31</ele>
        <time>2017-02-19T11:11:44Z</time>
      </trkpt>
      <trkpt lat="50.50427" lon="3.78991">
        <ele>70.31</ele>
        <time>2017-02-19T11:11:45Z</time>
      </trkpt>
      <trkpt lat="50.50428" lon="3.78989">
        <ele>70.31</ele>
        <time>2017-02-19T11:11:46Z</time>
      </trkpt>
      <trkpt lat="50.50429" lon="3.78988">
        <ele>69.83</ele>
        <time>2017-02-19T11:11:47Z</time>
      </trkpt>
      <trkpt lat="50.50431" lon="3.78987">
        <ele>69.35</ele>
        <time>2017-02-19T11:11:48Z</time>
      </trkpt>
      <trkpt lat="50.50432" lon="3.78985">
        <ele>69.35</ele>
        <time>2017-02-19T11:11:49Z</time>
      </trkpt>
      <trkpt lat="50.50446" lon="3.78964">
        <ele>69.35</ele>
        <time>2017-02-19T11:12:04Z</time>
      </trkpt>
      <trkpt lat="50.50457" lon="3.7894">
        <ele>69.35</ele>
        <time>2017-02-19T11:12:19Z</time>
      </trkpt>
      <trkpt lat="50.50463" lon="3.78933">
        <ele>67.91</ele>
        <time>2017-02-19T11:12:24Z</time>
      </trkpt>
      <trkpt lat="50.50471" lon="3.7892">
        <ele>67.91</ele>
        <time>2017-02-19T11:12:33Z</time>
      </trkpt>
      <trkpt lat="50.50472" lon="3.78918">
        <ele>67.91</ele>
        <time>2017-02-19T11:12:34Z</time>
      </trkpt>
      <trkpt lat="50.50473" lon="3.78917">
        <ele>67.91</ele>
        <time>2017-02-19T11:12:35Z</time>
      </trkpt>
      <trkpt lat="50.50474" lon="3.78915">
        <ele>67.91</ele>
        <time>2017-02-19T11:12:36Z</time>
      </trkpt>
      <trkpt lat="50.50475" lon="3.78913">
        <ele>67.91</ele>
        <time>2017-02-19T11:12:37Z</time>
      </trkpt>
      <trkpt lat="50.50475" lon="3.78911">
        <ele>67.91</ele>
        <time>2017-02-19T11:12:38Z</time>
      </trkpt>
      <trkpt lat="50.50488" lon="3.78888">
        <ele>66.95</ele>
        <time>2017-02-19T11:12:53Z</time>
      </trkpt>
      <trkpt lat="50.50502" lon="3.78862">
        <ele>66.95</ele>
        <time>2017-02-19T11:13:09Z</time>
      </trkpt>
      <trkpt lat="50.50509" lon="3.78851">
        <ele>66.47</ele>
        <time>2017-02-19T11:13:17Z</time>
      </trkpt>
      <trkpt lat="50.50511" lon="3.78845">
        <ele>66.47</ele>
        <time>2017-02-19T11:13:21Z</time>
      </trkpt>
      <trkpt lat="50.50512" lon="3.78844">
        <ele>66.47</ele>
        <time>2017-02-19T11:13:22Z</time>
      </trkpt>
      <trkpt lat="50.50514" lon="3.78841">
        <ele>66.47</ele>
        <time>2017-02-19T11:13:24Z</time>
      </trkpt>
      <trkpt lat="50.50515" lon="3.78839">
        <ele>66.47</ele>
        <time>2017-02-19T11:13:25Z</time>
      </trkpt>
      <trkpt lat="50.50516" lon="3.78836">
        <ele>66.47</ele>
        <time>2017-02-19T11:13:27Z</time>
      </trkpt>
      <trkpt lat="50.50517" lon="3.78834">
        <ele>65.99</ele>
        <time>2017-02-19T11:13:28Z</time>
      </trkpt>
      <trkpt lat="50.50517" lon="3.78832">
        <ele>65.99</ele>
        <time>2017-02-19T11:13:29Z</time>
      </trkpt>
      <trkpt lat="50.50518" lon="3.7883">
        <ele>65.99</ele>
        <time>2017-02-19T11:13:30Z</time>
      </trkpt>
      <trkpt lat="50.50519" lon="3.78828">
        <ele>65.99</ele>
        <time>2017-02-19T11:13:31Z</time>
      </trkpt>
      <trkpt lat="50.5052" lon="3.78827">
        <ele>65.99</ele>
        <time>2017-02-19T11:13:32Z</time>
      </trkpt>
      <trkpt lat="50.50521" lon="3.78825">
        <ele>65.99</ele>
        <time>2017-02-19T11:13:33Z</time>
      </trkpt>
      <trkpt lat="50.50522" lon="3.78824">
        <ele>65.99</ele>
        <time>2017-02-19T11:13:34Z</time>
      </trkpt>
      <trkpt lat="50.50523" lon="3.78822">
        <ele>65.99</ele>
        <time>2017-02-19T11:13:35Z</time>
      </trkpt>
      <trkpt lat="50.50537" lon="3.78807">
        <ele>65.51</ele>
        <time>2017-02-19T11:13:49Z</time>
      </trkpt>
      <trkpt lat="50.50538" lon="3.78807">
        <ele>65.51</ele>
        <time>2017-02-19T11:13:50Z</time>
      </trkpt>
      <trkpt lat="50.5054" lon="3.78807">
        <ele>65.51</ele>
        <time>2017-02-19T11:13:51Z</time>
      </trkpt>
      <trkpt lat="50.50541" lon="3.78806">
        <ele>65.51</ele>
        <time>2017-02-19T11:13:52Z</time>
      </trkpt>
      <trkpt lat="50.50543" lon="3.78805">
        <ele>65.51</ele>
        <time>2017-02-19T11:13:53Z</time>
      </trkpt>
      <trkpt lat="50.50544" lon="3.78804">
        <ele>65.51</ele>
        <time>2017-02-19T11:13:54Z</time>
      </trkpt>
      <trkpt lat="50.50545" lon="3.78803">
        <ele>65.51</ele>
        <time>2017-02-19T11:13:55Z</time>
      </trkpt>
      <trkpt lat="50.5056" lon="3.7879">
        <ele>65.51</ele>
        <time>2017-02-19T11:14:10Z</time>
      </trkpt>
      <trkpt lat="50.50559" lon="3.78787">
        <ele>64.55</ele>
        <time>2017-02-19T11:14:14Z</time>
      </trkpt>
      <trkpt lat="50.50559" lon="3.78784">
        <ele>64.55</ele>
        <time>2017-02-19T11:14:17Z</time>
      </trkpt>
      <trkpt lat="50.50562" lon="3.78785">
        <ele>64.55</ele>
        <time>2017-02-19T11:14:26Z</time>
      </trkpt>
      <trkpt lat="50.50567" lon="3.78778">
        <ele>64.55</ele>
        <time>2017-02-19T11:14:45Z</time>
      </trkpt>
      <trkpt lat="50.50577" lon="3.78774">
        <ele>63.58</ele>
        <time>2017-02-19T11:15:06Z</time>
      </trkpt>
      <trkpt lat="50.5056" lon="3.78782">
        <ele>63.1</ele>
        <time>2017-02-19T11:15:31Z</time>
      </trkpt>
      <trkpt lat="50.50564" lon="3.78783">
        <ele>63.1</ele>
        <time>2017-02-19T11:15:57Z</time>
      </trkpt>
      <trkpt lat="50.50567" lon="3.78783">
        <ele>63.1</ele>
        <time>2017-02-19T11:16:18Z</time>
      </trkpt>
      <trkpt lat="50.50558" lon="3.78778">
        <ele>64.07</ele>
        <time>2017-02-19T11:16:44Z</time>
      </trkpt>
      <trkpt lat="50.50557" lon="3.78773">
        <ele>64.07</ele>
        <time>2017-02-19T11:17:08Z</time>
      </trkpt>
      <trkpt lat="50.50565" lon="3.78777">
        <ele>64.55</ele>
        <time>2017-02-19T11:17:33Z</time>
      </trkpt>
      <trkpt lat="50.50562" lon="3.78779">
        <ele>64.07</ele>
        <time>2017-02-19T11:17:57Z</time>
      </trkpt>
      <trkpt lat="50.50553" lon="3.78777">
        <ele>64.07</ele>
        <time>2017-02-19T11:18:21Z</time>
      </trkpt>
      <trkpt lat="50.50565" lon="3.78776">
        <ele>64.07</ele>
        <time>2017-02-19T11:18:44Z</time>
      </trkpt>
      <trkpt lat="50.50567" lon="3.78766">
        <ele>64.07</ele>
        <time>2017-02-19T11:19:11Z</time>
      </trkpt>
      <trkpt lat="50.50565" lon="3.78781">
        <ele>64.07</ele>
        <time>2017-02-19T11:19:24Z</time>
      </trkpt>
      <trkpt lat="50.50566" lon="3.78786">
        <ele>64.07</ele>
        <time>2017-02-19T11:19:25Z</time>
      </trkpt>
      <trkpt lat="50.50566" lon="3.78787">
        <ele>64.07</ele>
        <time>2017-02-19T11:19:26Z</time>
      </trkpt>
      <trkpt lat="50.50567" lon="3.78788">
        <ele>64.07</ele>
        <time>2017-02-19T11:19:27Z</time>
      </trkpt>
      <trkpt lat="50.50571" lon="3.78792">
        <ele>64.07</ele>
        <time>2017-02-19T11:19:37Z</time>
      </trkpt>
      <trkpt lat="50.50571" lon="3.78786">
        <ele>64.07</ele>
        <time>2017-02-19T11:19:47Z</time>
      </trkpt>
      <trkpt lat="50.5057" lon="3.78784">
        <ele>64.07</ele>
        <time>2017-02-19T11:20:00Z</time>
      </trkpt>
      <trkpt lat="50.50566" lon="3.78781">
        <ele>64.07</ele>
        <time>2017-02-19T11:20:25Z</time>
      </trkpt>
      <trkpt lat="50.50566" lon="3.7878">
        <ele>65.03</ele>
        <time>2017-02-19T11:20:48Z</time>
      </trkpt>
      <trkpt lat="50.50558" lon="3.78774">
        <ele>63.1</ele>
        <time>2017-02-19T11:21:11Z</time>
      </trkpt>
      <trkpt lat="50.50559" lon="3.78772">
        <ele>63.1</ele>
        <time>2017-02-19T11:21:33Z</time>
      </trkpt>
      <trkpt lat="50.50567" lon="3.7878">
        <ele>63.1</ele>
        <time>2017-02-19T11:21:57Z</time>
      </trkpt>
      <trkpt lat="50.50573" lon="3.78782">
        <ele>63.1</ele>
        <time>2017-02-19T11:22:22Z</time>
      </trkpt>
      <trkpt lat="50.50569" lon="3.78785">
        <ele>63.1</ele>
        <time>2017-02-19T11:22:46Z</time>
      </trkpt>
      <trkpt lat="50.50568" lon="3.78784">
        <ele>63.1</ele>
        <time>2017-02-19T11:23:08Z</time>
      </trkpt>
      <trkpt lat="50.50569" lon="3.78779">
        <ele>63.1</ele>
        <time>2017-02-19T11:23:32Z</time>
      </trkpt>
      <trkpt lat="50.50562" lon="3.78771">
        <ele>63.1</ele>
        <time>2017-02-19T11:23:59Z</time>
      </trkpt>
      <trkpt lat="50.50559" lon="3.7877">
        <ele>63.1</ele>
        <time>2017-02-19T11:24:02Z</time>
      </trkpt>
      <trkpt lat="50.50558" lon="3.78765">
        <ele>64.55</ele>
        <time>2017-02-19T11:24:05Z</time>
      </trkpt>
      <trkpt lat="50.50558" lon="3.78762">
        <ele>64.55</ele>
        <time>2017-02-19T11:24:25Z</time>
      </trkpt>
      <trkpt lat="50.50577" lon="3.78781">
        <ele>64.55</ele>
        <time>2017-02-19T11:24:46Z</time>
      </trkpt>
      <trkpt lat="50.50587" lon="3.7879">
        <ele>64.55</ele>
        <time>2017-02-19T11:25:11Z</time>
      </trkpt>
      <trkpt lat="50.50566" lon="3.78775">
        <ele>64.55</ele>
        <time>2017-02-19T11:25:34Z</time>
      </trkpt>
      <trkpt lat="50.50565" lon="3.78775">
        <ele>64.55</ele>
        <time>2017-02-19T11:25:56Z</time>
      </trkpt>
      <trkpt lat="50.50556" lon="3.78768">
        <ele>64.55</ele>
        <time>2017-02-19T11:26:23Z</time>
      </trkpt>
      <trkpt lat="50.50561" lon="3.78767">
        <ele>64.07</ele>
        <time>2017-02-19T11:26:52Z</time>
      </trkpt>
      <trkpt lat="50.50563" lon="3.78765">
        <ele>64.07</ele>
        <time>2017-02-19T11:27:19Z</time>
      </trkpt>
      <trkpt lat="50.50557" lon="3.78761">
        <ele>64.07</ele>
        <time>2017-02-19T11:27:27Z</time>
      </trkpt>
      <trkpt lat="50.50562" lon="3.78768">
        <ele>64.55</ele>
        <time>2017-02-19T11:27:51Z</time>
      </trkpt>
      <trkpt lat="50.50558" lon="3.78759">
        <ele>64.55</ele>
        <time>2017-02-19T11:28:17Z</time>
      </trkpt>
      <trkpt lat="50.50561" lon="3.78761">
        <ele>64.07</ele>
        <time>2017-02-19T11:28:40Z</time>
      </trkpt>
      <trkpt lat="50.50548" lon="3.78749">
        <ele>64.07</ele>
        <time>2017-02-19T11:29:05Z</time>
      </trkpt>
      <trkpt lat="50.50556" lon="3.78762">
        <ele>64.07</ele>
        <time>2017-02-19T11:29:32Z</time>
      </trkpt>
      <trkpt lat="50.50549" lon="3.78752">
        <ele>64.55</ele>
        <time>2017-02-19T11:29:57Z</time>
      </trkpt>
      <trkpt lat="50.5053" lon="3.78735">
        <ele>64.55</ele>
        <time>2017-02-19T11:30:21Z</time>
      </trkpt>
      <trkpt lat="50.5054" lon="3.78746">
        <ele>64.07</ele>
        <time>2017-02-19T11:30:49Z</time>
      </trkpt>
      <trkpt lat="50.50569" lon="3.78777">
        <ele>64.55</ele>
        <time>2017-02-19T11:31:11Z</time>
      </trkpt>
      <trkpt lat="50.50561" lon="3.78775">
        <ele>64.55</ele>
        <time>2017-02-19T11:31:42Z</time>
      </trkpt>
      <trkpt lat="50.50552" lon="3.78768">
        <ele>65.03</ele>
        <time>2017-02-19T11:32:07Z</time>
      </trkpt>
      <trkpt lat="50.50552" lon="3.78762">
        <ele>65.03</ele>
        <time>2017-02-19T11:32:32Z</time>
      </trkpt>
      <trkpt lat="50.50564" lon="3.78776">
        <ele>65.03</ele>
        <time>2017-02-19T11:32:51Z</time>
      </trkpt>
      <trkpt lat="50.50572" lon="3.7878">
        <ele>65.03</ele>
        <time>2017-02-19T11:33:13Z</time>
      </trkpt>
      <trkpt lat="50.50548" lon="3.78743">
        <ele>65.99</ele>
        <time>2017-02-19T11:33:49Z</time>
      </trkpt>
      <trkpt lat="50.50561" lon="3.78765">
        <ele>65.99</ele>
        <time>2017-02-19T11:34:14Z</time>
      </trkpt>
      <trkpt lat="50.50551" lon="3.78763">
        <ele>65.99</ele>
        <time>2017-02-19T11:34:43Z</time>
      </trkpt>
      <trkpt lat="50.50552" lon="3.7876">
        <ele>65.99</ele>
        <time>2017-02-19T11:35:03Z</time>
      </trkpt>
      <trkpt lat="50.50552" lon="3.78757">
        <ele>64.07</ele>
        <time>2017-02-19T11:35:21Z</time>
      </trkpt>
      <trkpt lat="50.50552" lon="3.78757">
        <ele>65.51</ele>
        <time>2017-02-19T11:35:22Z</time>
      </trkpt>
      <trkpt lat="50.50549" lon="3.7876">
        <ele>65.99</ele>
        <time>2017-02-19T11:35:30Z</time>
      </trkpt>
      <trkpt lat="50.50559" lon="3.78775">
        <ele>65.99</ele>
        <time>2017-02-19T11:35:44Z</time>
      </trkpt>
      <trkpt lat="50.50571" lon="3.78778">
        <ele>65.99</ele>
        <time>2017-02-19T11:35:54Z</time>
      </trkpt>
      <trkpt lat="50.50571" lon="3.78779">
        <ele>65.99</ele>
        <time>2017-02-19T11:35:55Z</time>
      </trkpt>
      <trkpt lat="50.50586" lon="3.78791">
        <ele>65.99</ele>
        <time>2017-02-19T11:36:11Z</time>
      </trkpt>
      <trkpt lat="50.50579" lon="3.78783">
        <ele>65.99</ele>
        <time>2017-02-19T11:36:19Z</time>
      </trkpt>
      <trkpt lat="50.50553" lon="3.78765">
        <ele>65.51</ele>
        <time>2017-02-19T11:36:43Z</time>
      </trkpt>
      <trkpt lat="50.50538" lon="3.78752">
        <ele>65.51</ele>
        <time>2017-02-19T11:37:09Z</time>
      </trkpt>
      <trkpt lat="50.50578" lon="3.78781">
        <ele>65.03</ele>
        <time>2017-02-19T11:37:40Z</time>
      </trkpt>
      <trkpt lat="50.50582" lon="3.78785">
        <ele>66.47</ele>
        <time>2017-02-19T11:37:49Z</time>
      </trkpt>
      <trkpt lat="50.50566" lon="3.78778">
        <ele>65.99</ele>
        <time>2017-02-19T11:38:18Z</time>
      </trkpt>
      <trkpt lat="50.50536" lon="3.78754">
        <ele>65.99</ele>
        <time>2017-02-19T11:38:45Z</time>
      </trkpt>
      <trkpt lat="50.50536" lon="3.78753">
        <ele>65.51</ele>
        <time>2017-02-19T11:39:09Z</time>
      </trkpt>
      <trkpt lat="50.50545" lon="3.78753">
        <ele>65.51</ele>
        <time>2017-02-19T11:39:43Z</time>
      </trkpt>
      <trkpt lat="50.50556" lon="3.78768">
        <ele>65.51</ele>
        <time>2017-02-19T11:40:07Z</time>
      </trkpt>
      <trkpt lat="50.5056" lon="3.7877">
        <ele>65.03</ele>
        <time>2017-02-19T11:40:31Z</time>
      </trkpt>
      <trkpt lat="50.50556" lon="3.78769">
        <ele>65.03</ele>
        <time>2017-02-19T11:41:03Z</time>
      </trkpt>
      <trkpt lat="50.50554" lon="3.78764">
        <ele>65.51</ele>
        <time>2017-02-19T11:41:32Z</time>
      </trkpt>
      <trkpt lat="50.50555" lon="3.78768">
        <ele>65.03</ele>
        <time>2017-02-19T11:42:00Z</time>
      </trkpt>
      <trkpt lat="50.50558" lon="3.78768">
        <ele>65.51</ele>
        <time>2017-02-19T11:42:30Z</time>
      </trkpt>
      <trkpt lat="50.5056" lon="3.78779">
        <ele>64.55</ele>
        <time>2017-02-19T11:42:55Z</time>
      </trkpt>
      <trkpt lat="50.50559" lon="3.7878">
        <ele>64.55</ele>
        <time>2017-02-19T11:43:31Z</time>
      </trkpt>
      <trkpt lat="50.50574" lon="3.78792">
        <ele>64.55</ele>
        <time>2017-02-19T11:43:39Z</time>
      </trkpt>
      <trkpt lat="50.50577" lon="3.78795">
        <ele>64.55</ele>
        <time>2017-02-19T11:43:40Z</time>
      </trkpt>
      <trkpt lat="50.5065" lon="3.78839">
        <ele>64.55</ele>
        <time>2017-02-19T11:44:06Z</time>
      </trkpt>
      <trkpt lat="50.50696" lon="3.78876">
        <ele>65.51</ele>
        <time>2017-02-19T11:44:31Z</time>
      </trkpt>
      <trkpt lat="50.50575" lon="3.78784">
        <ele>64.55</ele>
        <time>2017-02-19T11:48:33Z</time>
      </trkpt>
      <trkpt lat="50.50562" lon="3.78772">
        <ele>64.55</ele>
        <time>2017-02-19T11:48:54Z</time>
      </trkpt>
      <trkpt lat="50.5056" lon="3.78767">
        <ele>64.55</ele>
        <time>2017-02-19T11:49:20Z</time>
      </trkpt>
      <trkpt lat="50.50554" lon="3.78753">
        <ele>64.55</ele>
        <time>2017-02-19T11:49:48Z</time>
      </trkpt>
      <trkpt lat="50.50547" lon="3.78753">
        <ele>64.55</ele>
        <time>2017-02-19T11:50:12Z</time>
      </trkpt>
      <trkpt lat="50.50542" lon="3.78756">
        <ele>64.55</ele>
        <time>2017-02-19T11:50:43Z</time>
      </trkpt>
      <trkpt lat="50.50559" lon="3.78768">
        <ele>65.51</ele>
        <time>2017-02-19T11:51:07Z</time>
      </trkpt>
      <trkpt lat="50.50556" lon="3.78774">
        <ele>65.51</ele>
        <time>2017-02-19T11:51:29Z</time>
      </trkpt>
      <trkpt lat="50.5056" lon="3.78764">
        <ele>65.51</ele>
        <time>2017-02-19T11:51:53Z</time>
      </trkpt>
      <trkpt lat="50.5056" lon="3.78768">
        <ele>65.51</ele>
        <time>2017-02-19T11:52:12Z</time>
      </trkpt>
      <trkpt lat="50.50559" lon="3.78767">
        <ele>65.51</ele>
        <time>2017-02-19T11:52:16Z</time>
      </trkpt>
      <trkpt lat="50.50562" lon="3.78775">
        <ele>65.51</ele>
        <time>2017-02-19T11:52:19Z</time>
      </trkpt>
      <trkpt lat="50.50564" lon="3.78777">
        <ele>65.51</ele>
        <time>2017-02-19T11:52:20Z</time>
      </trkpt>
      <trkpt lat="50.50565" lon="3.78779">
        <ele>65.51</ele>
        <time>2017-02-19T11:52:21Z</time>
      </trkpt>
      <trkpt lat="50.50567" lon="3.78782">
        <ele>65.51</ele>
        <time>2017-02-19T11:52:22Z</time>
      </trkpt>
      <trkpt lat="50.50599" lon="3.78822">
        <ele>65.51</ele>
        <time>2017-02-19T11:52:42Z</time>
      </trkpt>
      <trkpt lat="50.50619" lon="3.78829">
        <ele>65.03</ele>
        <time>2017-02-19T11:53:06Z</time>
      </trkpt>
      <trkpt lat="50.50604" lon="3.78804">
        <ele>65.03</ele>
        <time>2017-02-19T11:53:33Z</time>
      </trkpt>
      <trkpt lat="50.50602" lon="3.78805">
        <ele>65.03</ele>
        <time>2017-02-19T11:53:53Z</time>
      </trkpt>
      <trkpt lat="50.50588" lon="3.78792">
        <ele>65.03</ele>
        <time>2017-02-19T11:54:27Z</time>
      </trkpt>
      <trkpt lat="50.50577" lon="3.78784">
        <ele>65.03</ele>
        <time>2017-02-19T11:54:51Z</time>
      </trkpt>
      <trkpt lat="50.50566" lon="3.78772">
        <ele>65.03</ele>
        <time>2017-02-19T11:55:15Z</time>
      </trkpt>
      <trkpt lat="50.50554" lon="3.78771">
        <ele>65.03</ele>
        <time>2017-02-19T11:55:28Z</time>
      </trkpt>
      <trkpt lat="50.50532" lon="3.78748">
        <ele>62.62</ele>
        <time>2017-02-19T11:55:57Z</time>
      </trkpt>
      <trkpt lat="50.50531" lon="3.78747">
        <ele>66.95</ele>
        <time>2017-02-19T11:55:58Z</time>
      </trkpt>
      <trkpt lat="50.50547" lon="3.78761">
        <ele>65.03</ele>
        <time>2017-02-19T11:56:01Z</time>
      </trkpt>
      <trkpt lat="50.5058" lon="3.78786">
        <ele>65.51</ele>
        <time>2017-02-19T11:57:34Z</time>
      </trkpt>
      <trkpt lat="50.50566" lon="3.78776">
        <ele>65.51</ele>
        <time>2017-02-19T11:57:56Z</time>
      </trkpt>
      <trkpt lat="50.5054" lon="3.78769">
        <ele>65.51</ele>
        <time>2017-02-19T11:58:16Z</time>
      </trkpt>
      <trkpt lat="50.50592" lon="3.78801">
        <ele>65.51</ele>
        <time>2017-02-19T11:59:26Z</time>
      </trkpt>
      <trkpt lat="50.5059" lon="3.78806">
        <ele>65.51</ele>
        <time>2017-02-19T11:59:27Z</time>
      </trkpt>
      <trkpt lat="50.5056" lon="3.78749">
        <ele>66.47</ele>
        <time>2017-02-19T12:02:05Z</time>
      </trkpt>
      <trkpt lat="50.50559" lon="3.78768">
        <ele>66.47</ele>
        <time>2017-02-19T12:02:31Z</time>
      </trkpt>
      <trkpt lat="50.50566" lon="3.78771">
        <ele>66.95</ele>
        <time>2017-02-19T12:02:57Z</time>
      </trkpt>
      <trkpt lat="50.50569" lon="3.78776">
        <ele>66.95</ele>
        <time>2017-02-19T12:03:23Z</time>
      </trkpt>
      <trkpt lat="50.50567" lon="3.78782">
        <ele>66.95</ele>
        <time>2017-02-19T12:03:51Z</time>
      </trkpt>
      <trkpt lat="50.50557" lon="3.78774">
        <ele>66.95</ele>
        <time>2017-02-19T12:04:17Z</time>
      </trkpt>
      <trkpt lat="50.50568" lon="3.78788">
        <ele>66.95</ele>
        <time>2017-02-19T12:04:22Z</time>
      </trkpt>
      <trkpt lat="50.50579" lon="3.78803">
        <ele>66.95</ele>
        <time>2017-02-19T12:04:37Z</time>
      </trkpt>
      <trkpt lat="50.50584" lon="3.7881">
        <ele>66.47</ele>
        <time>2017-02-19T12:04:48Z</time>
      </trkpt>
      <trkpt lat="50.50588" lon="3.7882">
        <ele>66.95</ele>
        <time>2017-02-19T12:04:56Z</time>
      </trkpt>
      <trkpt lat="50.50589" lon="3.78823">
        <ele>66.95</ele>
        <time>2017-02-19T12:04:58Z</time>
      </trkpt>
      <trkpt lat="50.50591" lon="3.78841">
        <ele>67.43</ele>
        <time>2017-02-19T12:05:09Z</time>
      </trkpt>
      <trkpt lat="50.50589" lon="3.78866">
        <ele>67.91</ele>
        <time>2017-02-19T12:05:23Z</time>
      </trkpt>
      <trkpt lat="50.50591" lon="3.78876">
        <ele>68.39</ele>
        <time>2017-02-19T12:05:28Z</time>
      </trkpt>
      <trkpt lat="50.50591" lon="3.78899">
        <ele>68.39</ele>
        <time>2017-02-19T12:05:44Z</time>
      </trkpt>
      <trkpt lat="50.50591" lon="3.78912">
        <ele>68.39</ele>
        <time>2017-02-19T12:05:51Z</time>
      </trkpt>
      <trkpt lat="50.5059" lon="3.78932">
        <ele>68.39</ele>
        <time>2017-02-19T12:06:04Z</time>
      </trkpt>
      <trkpt lat="50.5059" lon="3.78933">
        <ele>68.87</ele>
        <time>2017-02-19T12:06:05Z</time>
      </trkpt>
      <trkpt lat="50.50585" lon="3.78947">
        <ele>68.87</ele>
        <time>2017-02-19T12:06:13Z</time>
      </trkpt>
      <trkpt lat="50.50585" lon="3.7895">
        <ele>68.87</ele>
        <time>2017-02-19T12:06:15Z</time>
      </trkpt>
      <trkpt lat="50.50584" lon="3.78955">
        <ele>68.87</ele>
        <time>2017-02-19T12:06:18Z</time>
      </trkpt>
      <trkpt lat="50.50588" lon="3.78982">
        <ele>69.35</ele>
        <time>2017-02-19T12:06:32Z</time>
      </trkpt>
      <trkpt lat="50.50589" lon="3.79007">
        <ele>69.83</ele>
        <time>2017-02-19T12:06:46Z</time>
      </trkpt>
      <trkpt lat="50.50588" lon="3.79016">
        <ele>69.83</ele>
        <time>2017-02-19T12:06:50Z</time>
      </trkpt>
      <trkpt lat="50.50586" lon="3.79025">
        <ele>69.83</ele>
        <time>2017-02-19T12:06:55Z</time>
      </trkpt>
      <trkpt lat="50.50571" lon="3.79054">
        <ele>70.31</ele>
        <time>2017-02-19T12:07:14Z</time>
      </trkpt>
      <trkpt lat="50.5056" lon="3.79075">
        <ele>70.79</ele>
        <time>2017-02-19T12:07:29Z</time>
      </trkpt>
      <trkpt lat="50.50559" lon="3.79077">
        <ele>70.79</ele>
        <time>2017-02-19T12:07:31Z</time>
      </trkpt>
      <trkpt lat="50.50546" lon="3.79103">
        <ele>71.76</ele>
        <time>2017-02-19T12:07:50Z</time>
      </trkpt>
      <trkpt lat="50.50534" lon="3.79125">
        <ele>72.24</ele>
        <time>2017-02-19T12:08:07Z</time>
      </trkpt>
      <trkpt lat="50.50524" lon="3.79149">
        <ele>72.24</ele>
        <time>2017-02-19T12:08:23Z</time>
      </trkpt>
      <trkpt lat="50.50522" lon="3.79175">
        <ele>72.24</ele>
        <time>2017-02-19T12:08:38Z</time>
      </trkpt>
      <trkpt lat="50.50524" lon="3.792">
        <ele>72.72</ele>
        <time>2017-02-19T12:08:54Z</time>
      </trkpt>
      <trkpt lat="50.50526" lon="3.7923">
        <ele>72.72</ele>
        <time>2017-02-19T12:09:10Z</time>
      </trkpt>
      <trkpt lat="50.50527" lon="3.7926">
        <ele>72.72</ele>
        <time>2017-02-19T12:09:25Z</time>
      </trkpt>
      <trkpt lat="50.50529" lon="3.79297">
        <ele>72.72</ele>
        <time>2017-02-19T12:09:44Z</time>
      </trkpt>
      <trkpt lat="50.50529" lon="3.79327">
        <ele>72.72</ele>
        <time>2017-02-19T12:10:02Z</time>
      </trkpt>
      <trkpt lat="50.5053" lon="3.79345">
        <ele>72.72</ele>
        <time>2017-02-19T12:10:13Z</time>
      </trkpt>
      <trkpt lat="50.50534" lon="3.79363">
        <ele>72.72</ele>
        <time>2017-02-19T12:10:24Z</time>
      </trkpt>
      <trkpt lat="50.5054" lon="3.79384">
        <ele>72.72</ele>
        <time>2017-02-19T12:10:37Z</time>
      </trkpt>
      <trkpt lat="50.50544" lon="3.79394">
        <ele>72.72</ele>
        <time>2017-02-19T12:10:42Z</time>
      </trkpt>
      <trkpt lat="50.50547" lon="3.79408">
        <ele>72.72</ele>
        <time>2017-02-19T12:10:50Z</time>
      </trkpt>
      <trkpt lat="50.50551" lon="3.79418">
        <ele>72.72</ele>
        <time>2017-02-19T12:10:56Z</time>
      </trkpt>
      <trkpt lat="50.50555" lon="3.79427">
        <ele>72.72</ele>
        <time>2017-02-19T12:11:01Z</time>
      </trkpt>
      <trkpt lat="50.50556" lon="3.7943">
        <ele>72.72</ele>
        <time>2017-02-19T12:11:03Z</time>
      </trkpt>
      <trkpt lat="50.50562" lon="3.79442">
        <ele>72.24</ele>
        <time>2017-02-19T12:11:10Z</time>
      </trkpt>
      <trkpt lat="50.50569" lon="3.7947">
        <ele>71.27</ele>
        <time>2017-02-19T12:11:24Z</time>
      </trkpt>
      <trkpt lat="50.50575" lon="3.79484">
        <ele>71.27</ele>
        <time>2017-02-19T12:11:31Z</time>
      </trkpt>
      <trkpt lat="50.50587" lon="3.79503">
        <ele>71.27</ele>
        <time>2017-02-19T12:11:46Z</time>
      </trkpt>
      <trkpt lat="50.50599" lon="3.79525">
        <ele>71.27</ele>
        <time>2017-02-19T12:12:01Z</time>
      </trkpt>
      <trkpt lat="50.50615" lon="3.79545">
        <ele>71.27</ele>
        <time>2017-02-19T12:12:17Z</time>
      </trkpt>
      <trkpt lat="50.5063" lon="3.7957">
        <ele>71.27</ele>
        <time>2017-02-19T12:12:36Z</time>
      </trkpt>
      <trkpt lat="50.50644" lon="3.79592">
        <ele>71.27</ele>
        <time>2017-02-19T12:12:51Z</time>
      </trkpt>
      <trkpt lat="50.50655" lon="3.79618">
        <ele>71.27</ele>
        <time>2017-02-19T12:13:08Z</time>
      </trkpt>
      <trkpt lat="50.50661" lon="3.79649">
        <ele>71.27</ele>
        <time>2017-02-19T12:13:24Z</time>
      </trkpt>
      <trkpt lat="50.50666" lon="3.79666">
        <ele>70.79</ele>
        <time>2017-02-19T12:13:34Z</time>
      </trkpt>
      <trkpt lat="50.50669" lon="3.79676">
        <ele>70.79</ele>
        <time>2017-02-19T12:13:39Z</time>
      </trkpt>
      <trkpt lat="50.50677" lon="3.79695">
        <ele>70.79</ele>
        <time>2017-02-19T12:13:51Z</time>
      </trkpt>
      <trkpt lat="50.50679" lon="3.79703">
        <ele>70.79</ele>
        <time>2017-02-19T12:13:55Z</time>
      </trkpt>
      <trkpt lat="50.50681" lon="3.79712">
        <ele>70.79</ele>
        <time>2017-02-19T12:14:00Z</time>
      </trkpt>
      <trkpt lat="50.50693" lon="3.79747">
        <ele>70.79</ele>
        <time>2017-02-19T12:14:20Z</time>
      </trkpt>
      <trkpt lat="50.50696" lon="3.79753">
        <ele>70.79</ele>
        <time>2017-02-19T12:14:24Z</time>
      </trkpt>
      <trkpt lat="50.50707" lon="3.79785">
        <ele>70.79</ele>
        <time>2017-02-19T12:14:43Z</time>
      </trkpt>
      <trkpt lat="50.50709" lon="3.7979">
        <ele>70.79</ele>
        <time>2017-02-19T12:14:46Z</time>
      </trkpt>
      <trkpt lat="50.50719" lon="3.79817">
        <ele>70.79</ele>
        <time>2017-02-19T12:15:02Z</time>
      </trkpt>
      <trkpt lat="50.50728" lon="3.79841">
        <ele>70.79</ele>
        <time>2017-02-19T12:15:17Z</time>
      </trkpt>
      <trkpt lat="50.50729" lon="3.79845">
        <ele>70.79</ele>
        <time>2017-02-19T12:15:19Z</time>
      </trkpt>
      <trkpt lat="50.50742" lon="3.79881">
        <ele>70.79</ele>
        <time>2017-02-19T12:15:39Z</time>
      </trkpt>
      <trkpt lat="50.50752" lon="3.7991">
        <ele>72.72</ele>
        <time>2017-02-19T12:15:56Z</time>
      </trkpt>
      <trkpt lat="50.50764" lon="3.79943">
        <ele>72.72</ele>
        <time>2017-02-19T12:16:16Z</time>
      </trkpt>
      <trkpt lat="50.50769" lon="3.7996">
        <ele>72.72</ele>
        <time>2017-02-19T12:16:26Z</time>
      </trkpt>
      <trkpt lat="50.50775" lon="3.79976">
        <ele>72.72</ele>
        <time>2017-02-19T12:16:35Z</time>
      </trkpt>
      <trkpt lat="50.50777" lon="3.79981">
        <ele>73.2</ele>
        <time>2017-02-19T12:16:38Z</time>
      </trkpt>
      <trkpt lat="50.50776" lon="3.79997">
        <ele>73.2</ele>
        <time>2017-02-19T12:16:50Z</time>
      </trkpt>
      <trkpt lat="50.50779" lon="3.80007">
        <ele>73.2</ele>
        <time>2017-02-19T12:16:56Z</time>
      </trkpt>
      <trkpt lat="50.50784" lon="3.80019">
        <ele>73.2</ele>
        <time>2017-02-19T12:17:03Z</time>
      </trkpt>
      <trkpt lat="50.50778" lon="3.80047">
        <ele>73.2</ele>
        <time>2017-02-19T12:17:19Z</time>
      </trkpt>
      <trkpt lat="50.50772" lon="3.80076">
        <ele>72.72</ele>
        <time>2017-02-19T12:17:34Z</time>
      </trkpt>
      <trkpt lat="50.50769" lon="3.80109">
        <ele>72.72</ele>
        <time>2017-02-19T12:17:51Z</time>
      </trkpt>
      <trkpt lat="50.50767" lon="3.8015">
        <ele>73.68</ele>
        <time>2017-02-19T12:18:11Z</time>
      </trkpt>
      <trkpt lat="50.50766" lon="3.80187">
        <ele>73.68</ele>
        <time>2017-02-19T12:18:29Z</time>
      </trkpt>
      <trkpt lat="50.50765" lon="3.80225">
        <ele>73.2</ele>
        <time>2017-02-19T12:18:48Z</time>
      </trkpt>
      <trkpt lat="50.50766" lon="3.80262">
        <ele>73.68</ele>
        <time>2017-02-19T12:19:07Z</time>
      </trkpt>
      <trkpt lat="50.50766" lon="3.80271">
        <ele>73.68</ele>
        <time>2017-02-19T12:19:14Z</time>
      </trkpt>
      <trkpt lat="50.50766" lon="3.803">
        <ele>74.16</ele>
        <time>2017-02-19T12:19:29Z</time>
      </trkpt>
      <trkpt lat="50.50767" lon="3.80333">
        <ele>74.16</ele>
        <time>2017-02-19T12:19:45Z</time>
      </trkpt>
      <trkpt lat="50.50769" lon="3.80352">
        <ele>74.16</ele>
        <time>2017-02-19T12:19:54Z</time>
      </trkpt>
      <trkpt lat="50.50772" lon="3.80367">
        <ele>74.64</ele>
        <time>2017-02-19T12:20:02Z</time>
      </trkpt>
      <trkpt lat="50.50779" lon="3.80406">
        <ele>74.64</ele>
        <time>2017-02-19T12:20:22Z</time>
      </trkpt>
      <trkpt lat="50.50788" lon="3.80441">
        <ele>74.64</ele>
        <time>2017-02-19T12:20:40Z</time>
      </trkpt>
      <trkpt lat="50.50799" lon="3.80473">
        <ele>74.64</ele>
        <time>2017-02-19T12:20:58Z</time>
      </trkpt>
      <trkpt lat="50.50812" lon="3.80501">
        <ele>75.12</ele>
        <time>2017-02-19T12:21:15Z</time>
      </trkpt>
      <trkpt lat="50.50822" lon="3.80531">
        <ele>75.12</ele>
        <time>2017-02-19T12:21:31Z</time>
      </trkpt>
      <trkpt lat="50.50832" lon="3.80572">
        <ele>75.6</ele>
        <time>2017-02-19T12:21:51Z</time>
      </trkpt>
      <trkpt lat="50.50841" lon="3.80607">
        <ele>75.6</ele>
        <time>2017-02-19T12:22:10Z</time>
      </trkpt>
      <trkpt lat="50.50845" lon="3.8064">
        <ele>76.08</ele>
        <time>2017-02-19T12:22:28Z</time>
      </trkpt>
      <trkpt lat="50.50846" lon="3.80643">
        <ele>76.08</ele>
        <time>2017-02-19T12:22:30Z</time>
      </trkpt>
      <trkpt lat="50.50847" lon="3.80647">
        <ele>75.6</ele>
        <time>2017-02-19T12:22:33Z</time>
      </trkpt>
      <trkpt lat="50.5085" lon="3.8067">
        <ele>76.08</ele>
        <time>2017-02-19T12:22:46Z</time>
      </trkpt>
      <trkpt lat="50.50852" lon="3.80678">
        <ele>76.08</ele>
        <time>2017-02-19T12:22:50Z</time>
      </trkpt>
      <trkpt lat="50.50863" lon="3.80712">
        <ele>76.08</ele>
        <time>2017-02-19T12:23:08Z</time>
      </trkpt>
      <trkpt lat="50.50871" lon="3.80744">
        <ele>75.6</ele>
        <time>2017-02-19T12:23:24Z</time>
      </trkpt>
      <trkpt lat="50.50881" lon="3.80776">
        <ele>75.6</ele>
        <time>2017-02-19T12:23:40Z</time>
      </trkpt>
      <trkpt lat="50.50888" lon="3.8081">
        <ele>75.6</ele>
        <time>2017-02-19T12:23:57Z</time>
      </trkpt>
      <trkpt lat="50.50894" lon="3.80848">
        <ele>75.6</ele>
        <time>2017-02-19T12:24:15Z</time>
      </trkpt>
      <trkpt lat="50.50899" lon="3.80886">
        <ele>76.08</ele>
        <time>2017-02-19T12:24:33Z</time>
      </trkpt>
      <trkpt lat="50.50904" lon="3.80924">
        <ele>76.08</ele>
        <time>2017-02-19T12:24:52Z</time>
      </trkpt>
      <trkpt lat="50.50908" lon="3.80961">
        <ele>76.08</ele>
        <time>2017-02-19T12:25:10Z</time>
      </trkpt>
      <trkpt lat="50.50908" lon="3.80992">
        <ele>76.08</ele>
        <time>2017-02-19T12:25:26Z</time>
      </trkpt>
      <trkpt lat="50.50911" lon="3.81029">
        <ele>76.08</ele>
        <time>2017-02-19T12:25:43Z</time>
      </trkpt>
      <trkpt lat="50.50914" lon="3.81065">
        <ele>75.12</ele>
        <time>2017-02-19T12:26:01Z</time>
      </trkpt>
      <trkpt lat="50.50916" lon="3.81103">
        <ele>75.12</ele>
        <time>2017-02-19T12:26:18Z</time>
      </trkpt>
      <trkpt lat="50.50917" lon="3.81117">
        <ele>75.12</ele>
        <time>2017-02-19T12:26:32Z</time>
      </trkpt>
      <trkpt lat="50.5092" lon="3.81132">
        <ele>75.12</ele>
        <time>2017-02-19T12:26:45Z</time>
      </trkpt>
      <trkpt lat="50.50923" lon="3.81142">
        <ele>74.64</ele>
        <time>2017-02-19T12:27:04Z</time>
      </trkpt>
      <trkpt lat="50.50929" lon="3.81173">
        <ele>74.64</ele>
        <time>2017-02-19T12:27:20Z</time>
      </trkpt>
      <trkpt lat="50.50938" lon="3.8121">
        <ele>74.64</ele>
        <time>2017-02-19T12:27:38Z</time>
      </trkpt>
      <trkpt lat="50.50949" lon="3.81247">
        <ele>74.64</ele>
        <time>2017-02-19T12:27:58Z</time>
      </trkpt>
      <trkpt lat="50.50958" lon="3.81281">
        <ele>75.12</ele>
        <time>2017-02-19T12:28:14Z</time>
      </trkpt>
      <trkpt lat="50.50962" lon="3.8131">
        <ele>76.08</ele>
        <time>2017-02-19T12:28:30Z</time>
      </trkpt>
      <trkpt lat="50.50967" lon="3.81338">
        <ele>76.08</ele>
        <time>2017-02-19T12:28:46Z</time>
      </trkpt>
      <trkpt lat="50.5098" lon="3.81362">
        <ele>76.08</ele>
        <time>2017-02-19T12:29:02Z</time>
      </trkpt>
      <trkpt lat="50.50982" lon="3.81368">
        <ele>76.08</ele>
        <time>2017-02-19T12:29:18Z</time>
      </trkpt>
      <trkpt lat="50.50997" lon="3.81388">
        <ele>76.08</ele>
        <time>2017-02-19T12:29:34Z</time>
      </trkpt>
      <trkpt lat="50.51006" lon="3.814">
        <ele>76.08</ele>
        <time>2017-02-19T12:29:43Z</time>
      </trkpt>
      <trkpt lat="50.51028" lon="3.81428">
        <ele>76.08</ele>
        <time>2017-02-19T12:30:04Z</time>
      </trkpt>
      <trkpt lat="50.51052" lon="3.81459">
        <ele>76.56</ele>
        <time>2017-02-19T12:30:26Z</time>
      </trkpt>
      <trkpt lat="50.51068" lon="3.8149">
        <ele>76.56</ele>
        <time>2017-02-19T12:30:44Z</time>
      </trkpt>
      <trkpt lat="50.51087" lon="3.81524">
        <ele>76.56</ele>
        <time>2017-02-19T12:31:04Z</time>
      </trkpt>
      <trkpt lat="50.51101" lon="3.81553">
        <ele>77.04</ele>
        <time>2017-02-19T12:31:23Z</time>
      </trkpt>
      <trkpt lat="50.51113" lon="3.81584">
        <ele>77.04</ele>
        <time>2017-02-19T12:31:41Z</time>
      </trkpt>
      <trkpt lat="50.51108" lon="3.81618">
        <ele>77.04</ele>
        <time>2017-02-19T12:31:58Z</time>
      </trkpt>
      <trkpt lat="50.51096" lon="3.81648">
        <ele>77.04</ele>
        <time>2017-02-19T12:32:16Z</time>
      </trkpt>
      <trkpt lat="50.51084" lon="3.81673">
        <ele>77.04</ele>
        <time>2017-02-19T12:32:31Z</time>
      </trkpt>
      <trkpt lat="50.51071" lon="3.81705">
        <ele>77.04</ele>
        <time>2017-02-19T12:32:49Z</time>
      </trkpt>
      <trkpt lat="50.5106" lon="3.81735">
        <ele>77.04</ele>
        <time>2017-02-19T12:33:05Z</time>
      </trkpt>
      <trkpt lat="50.51048" lon="3.81762">
        <ele>77.52</ele>
        <time>2017-02-19T12:33:21Z</time>
      </trkpt>
      <trkpt lat="50.51034" lon="3.81794">
        <ele>78</ele>
        <time>2017-02-19T12:33:38Z</time>
      </trkpt>
      <trkpt lat="50.51023" lon="3.81825">
        <ele>78</ele>
        <time>2017-02-19T12:33:55Z</time>
      </trkpt>
      <trkpt lat="50.5101" lon="3.81857">
        <ele>78</ele>
        <time>2017-02-19T12:34:13Z</time>
      </trkpt>
      <trkpt lat="50.51" lon="3.81884">
        <ele>78.48</ele>
        <time>2017-02-19T12:34:29Z</time>
      </trkpt>
      <trkpt lat="50.50998" lon="3.81886">
        <ele>78.48</ele>
        <time>2017-02-19T12:34:31Z</time>
      </trkpt>
      <trkpt lat="50.50975" lon="3.81885">
        <ele>78.97</ele>
        <time>2017-02-19T12:34:48Z</time>
      </trkpt>
      <trkpt lat="50.50956" lon="3.81879">
        <ele>79.45</ele>
        <time>2017-02-19T12:35:03Z</time>
      </trkpt>
      <trkpt lat="50.50935" lon="3.81875">
        <ele>80.41</ele>
        <time>2017-02-19T12:35:20Z</time>
      </trkpt>
      <trkpt lat="50.50918" lon="3.81875">
        <ele>80.41</ele>
        <time>2017-02-19T12:35:36Z</time>
      </trkpt>
      <trkpt lat="50.509" lon="3.81872">
        <ele>80.89</ele>
        <time>2017-02-19T12:35:50Z</time>
      </trkpt>
      <trkpt lat="50.50877" lon="3.81867">
        <ele>81.37</ele>
        <time>2017-02-19T12:36:06Z</time>
      </trkpt>
      <trkpt lat="50.50855" lon="3.8186">
        <ele>80.89</ele>
        <time>2017-02-19T12:36:22Z</time>
      </trkpt>
      <trkpt lat="50.50835" lon="3.81855">
        <ele>80.89</ele>
        <time>2017-02-19T12:36:37Z</time>
      </trkpt>
      <trkpt lat="50.50815" lon="3.8185">
        <ele>80.89</ele>
        <time>2017-02-19T12:36:53Z</time>
      </trkpt>
      <trkpt lat="50.50803" lon="3.81847">
        <ele>80.41</ele>
        <time>2017-02-19T12:37:06Z</time>
      </trkpt>
      <trkpt lat="50.50785" lon="3.81854">
        <ele>80.41</ele>
        <time>2017-02-19T12:37:23Z</time>
      </trkpt>
      <trkpt lat="50.50764" lon="3.81849">
        <ele>80.41</ele>
        <time>2017-02-19T12:37:38Z</time>
      </trkpt>
      <trkpt lat="50.50755" lon="3.81848">
        <ele>80.41</ele>
        <time>2017-02-19T12:37:43Z</time>
      </trkpt>
      <trkpt lat="50.50731" lon="3.81841">
        <ele>80.89</ele>
        <time>2017-02-19T12:38:02Z</time>
      </trkpt>
      <trkpt lat="50.50713" lon="3.81835">
        <ele>81.37</ele>
        <time>2017-02-19T12:38:16Z</time>
      </trkpt>
      <trkpt lat="50.50707" lon="3.81831">
        <ele>81.37</ele>
        <time>2017-02-19T12:38:21Z</time>
      </trkpt>
      <trkpt lat="50.50686" lon="3.81823">
        <ele>81.85</ele>
        <time>2017-02-19T12:38:39Z</time>
      </trkpt>
      <trkpt lat="50.50683" lon="3.81821">
        <ele>81.85</ele>
        <time>2017-02-19T12:38:41Z</time>
      </trkpt>
      <trkpt lat="50.50663" lon="3.81808">
        <ele>81.85</ele>
        <time>2017-02-19T12:38:56Z</time>
      </trkpt>
      <trkpt lat="50.50638" lon="3.81796">
        <ele>82.33</ele>
        <time>2017-02-19T12:39:15Z</time>
      </trkpt>
      <trkpt lat="50.50616" lon="3.81787">
        <ele>82.81</ele>
        <time>2017-02-19T12:39:32Z</time>
      </trkpt>
      <trkpt lat="50.50597" lon="3.81779">
        <ele>83.77</ele>
        <time>2017-02-19T12:39:49Z</time>
      </trkpt>
      <trkpt lat="50.50574" lon="3.81775">
        <ele>83.77</ele>
        <time>2017-02-19T12:40:07Z</time>
      </trkpt>
      <trkpt lat="50.50557" lon="3.81775">
        <ele>84.25</ele>
        <time>2017-02-19T12:40:21Z</time>
      </trkpt>
      <trkpt lat="50.5054" lon="3.81772">
        <ele>84.73</ele>
        <time>2017-02-19T12:40:35Z</time>
      </trkpt>
      <trkpt lat="50.5052" lon="3.8177">
        <ele>85.21</ele>
        <time>2017-02-19T12:40:49Z</time>
      </trkpt>
      <trkpt lat="50.50499" lon="3.81767">
        <ele>85.21</ele>
        <time>2017-02-19T12:41:04Z</time>
      </trkpt>
      <trkpt lat="50.50483" lon="3.81766">
        <ele>85.21</ele>
        <time>2017-02-19T12:41:19Z</time>
      </trkpt>
      <trkpt lat="50.50465" lon="3.81764">
        <ele>85.21</ele>
        <time>2017-02-19T12:41:33Z</time>
      </trkpt>
      <trkpt lat="50.5045" lon="3.81765">
        <ele>85.69</ele>
        <time>2017-02-19T12:41:42Z</time>
      </trkpt>
      <trkpt lat="50.5043" lon="3.81766">
        <ele>85.69</ele>
        <time>2017-02-19T12:41:58Z</time>
      </trkpt>
      <trkpt lat="50.50411" lon="3.81767">
        <ele>86.18</ele>
        <time>2017-02-19T12:42:12Z</time>
      </trkpt>
      <trkpt lat="50.50392" lon="3.81767">
        <ele>85.69</ele>
        <time>2017-02-19T12:42:26Z</time>
      </trkpt>
      <trkpt lat="50.50374" lon="3.81768">
        <ele>86.18</ele>
        <time>2017-02-19T12:42:39Z</time>
      </trkpt>
      <trkpt lat="50.50364" lon="3.81768">
        <ele>86.66</ele>
        <time>2017-02-19T12:42:46Z</time>
      </trkpt>
      <trkpt lat="50.50357" lon="3.81765">
        <ele>86.66</ele>
        <time>2017-02-19T12:42:50Z</time>
      </trkpt>
      <trkpt lat="50.5033" lon="3.81752">
        <ele>87.62</ele>
        <time>2017-02-19T12:43:10Z</time>
      </trkpt>
      <trkpt lat="50.50311" lon="3.81744">
        <ele>87.62</ele>
        <time>2017-02-19T12:43:26Z</time>
      </trkpt>
      <trkpt lat="50.50292" lon="3.81737">
        <ele>88.1</ele>
        <time>2017-02-19T12:43:42Z</time>
      </trkpt>
      <trkpt lat="50.50272" lon="3.81727">
        <ele>89.54</ele>
        <time>2017-02-19T12:43:59Z</time>
      </trkpt>
      <trkpt lat="50.50251" lon="3.81717">
        <ele>90.02</ele>
        <time>2017-02-19T12:44:14Z</time>
      </trkpt>
      <trkpt lat="50.50232" lon="3.81704">
        <ele>90.02</ele>
        <time>2017-02-19T12:44:29Z</time>
      </trkpt>
      <trkpt lat="50.50207" lon="3.81687">
        <ele>90.98</ele>
        <time>2017-02-19T12:44:49Z</time>
      </trkpt>
      <trkpt lat="50.50188" lon="3.81671">
        <ele>90.98</ele>
        <time>2017-02-19T12:45:07Z</time>
      </trkpt>
      <trkpt lat="50.50172" lon="3.81659">
        <ele>90.98</ele>
        <time>2017-02-19T12:45:21Z</time>
      </trkpt>
      <trkpt lat="50.50154" lon="3.81645">
        <ele>90.98</ele>
        <time>2017-02-19T12:45:37Z</time>
      </trkpt>
      <trkpt lat="50.50134" lon="3.81623">
        <ele>90.98</ele>
        <time>2017-02-19T12:45:54Z</time>
      </trkpt>
      <trkpt lat="50.50127" lon="3.81616">
        <ele>89.54</ele>
        <time>2017-02-19T12:46:01Z</time>
      </trkpt>
      <trkpt lat="50.5012" lon="3.81603">
        <ele>89.06</ele>
        <time>2017-02-19T12:46:15Z</time>
      </trkpt>
      <trkpt lat="50.50118" lon="3.816">
        <ele>89.06</ele>
        <time>2017-02-19T12:46:19Z</time>
      </trkpt>
      <trkpt lat="50.50103" lon="3.81577">
        <ele>88.1</ele>
        <time>2017-02-19T12:46:34Z</time>
      </trkpt>
      <trkpt lat="50.50095" lon="3.81565">
        <ele>88.1</ele>
        <time>2017-02-19T12:46:42Z</time>
      </trkpt>
      <trkpt lat="50.50075" lon="3.81533">
        <ele>87.14</ele>
        <time>2017-02-19T12:47:00Z</time>
      </trkpt>
      <trkpt lat="50.50059" lon="3.81511">
        <ele>86.66</ele>
        <time>2017-02-19T12:47:16Z</time>
      </trkpt>
      <trkpt lat="50.50054" lon="3.81507">
        <ele>86.66</ele>
        <time>2017-02-19T12:47:21Z</time>
      </trkpt>
      <trkpt lat="50.50045" lon="3.81494">
        <ele>85.69</ele>
        <time>2017-02-19T12:47:30Z</time>
      </trkpt>
      <trkpt lat="50.50032" lon="3.81469">
        <ele>85.21</ele>
        <time>2017-02-19T12:47:44Z</time>
      </trkpt>
      <trkpt lat="50.50019" lon="3.81445">
        <ele>84.25</ele>
        <time>2017-02-19T12:47:59Z</time>
      </trkpt>
      <trkpt lat="50.50002" lon="3.81419">
        <ele>82.81</ele>
        <time>2017-02-19T12:48:16Z</time>
      </trkpt>
      <trkpt lat="50.49986" lon="3.81401">
        <ele>81.37</ele>
        <time>2017-02-19T12:48:31Z</time>
      </trkpt>
      <trkpt lat="50.49965" lon="3.81384">
        <ele>80.89</ele>
        <time>2017-02-19T12:48:48Z</time>
      </trkpt>
      <trkpt lat="50.49943" lon="3.81362">
        <ele>80.41</ele>
        <time>2017-02-19T12:49:05Z</time>
      </trkpt>
      <trkpt lat="50.4992" lon="3.81343">
        <ele>79.45</ele>
        <time>2017-02-19T12:49:25Z</time>
      </trkpt>
      <trkpt lat="50.49902" lon="3.81329">
        <ele>78.97</ele>
        <time>2017-02-19T12:49:41Z</time>
      </trkpt>
      <trkpt lat="50.49901" lon="3.81328">
        <ele>78.97</ele>
        <time>2017-02-19T12:49:42Z</time>
      </trkpt>
      <trkpt lat="50.49879" lon="3.81308">
        <ele>79.45</ele>
        <time>2017-02-19T12:50:01Z</time>
      </trkpt>
      <trkpt lat="50.49852" lon="3.81292">
        <ele>78.48</ele>
        <time>2017-02-19T12:50:23Z</time>
      </trkpt>
      <trkpt lat="50.49832" lon="3.81275">
        <ele>78</ele>
        <time>2017-02-19T12:50:40Z</time>
      </trkpt>
      <trkpt lat="50.49816" lon="3.81262">
        <ele>78</ele>
        <time>2017-02-19T12:50:55Z</time>
      </trkpt>
      <trkpt lat="50.498" lon="3.81247">
        <ele>77.52</ele>
        <time>2017-02-19T12:51:08Z</time>
      </trkpt>
      <trkpt lat="50.49776" lon="3.81226">
        <ele>77.52</ele>
        <time>2017-02-19T12:51:28Z</time>
      </trkpt>
      <trkpt lat="50.49768" lon="3.81219">
        <ele>77.04</ele>
        <time>2017-02-19T12:51:35Z</time>
      </trkpt>
      <trkpt lat="50.49749" lon="3.81202">
        <ele>77.04</ele>
        <time>2017-02-19T12:51:52Z</time>
      </trkpt>
      <trkpt lat="50.49734" lon="3.8119">
        <ele>77.04</ele>
        <time>2017-02-19T12:52:06Z</time>
      </trkpt>
      <trkpt lat="50.49719" lon="3.81178">
        <ele>77.04</ele>
        <time>2017-02-19T12:52:21Z</time>
      </trkpt>
      <trkpt lat="50.49698" lon="3.81159">
        <ele>77.04</ele>
        <time>2017-02-19T12:52:37Z</time>
      </trkpt>
      <trkpt lat="50.49686" lon="3.81149">
        <ele>77.04</ele>
        <time>2017-02-19T12:52:50Z</time>
      </trkpt>
      <trkpt lat="50.49668" lon="3.81138">
        <ele>77.04</ele>
        <time>2017-02-19T12:53:05Z</time>
      </trkpt>
      <trkpt lat="50.49649" lon="3.81113">
        <ele>77.04</ele>
        <time>2017-02-19T12:53:23Z</time>
      </trkpt>
      <trkpt lat="50.49631" lon="3.81091">
        <ele>76.56</ele>
        <time>2017-02-19T12:53:40Z</time>
      </trkpt>
      <trkpt lat="50.49618" lon="3.81066">
        <ele>76.08</ele>
        <time>2017-02-19T12:53:55Z</time>
      </trkpt>
      <trkpt lat="50.49617" lon="3.81064">
        <ele>76.08</ele>
        <time>2017-02-19T12:53:56Z</time>
      </trkpt>
      <trkpt lat="50.49614" lon="3.81058">
        <ele>76.08</ele>
        <time>2017-02-19T12:53:59Z</time>
      </trkpt>
      <trkpt lat="50.49596" lon="3.81026">
        <ele>76.08</ele>
        <time>2017-02-19T12:54:19Z</time>
      </trkpt>
      <trkpt lat="50.49581" lon="3.81004">
        <ele>75.6</ele>
        <time>2017-02-19T12:54:36Z</time>
      </trkpt>
      <trkpt lat="50.49565" lon="3.80989">
        <ele>75.6</ele>
        <time>2017-02-19T12:54:51Z</time>
      </trkpt>
      <trkpt lat="50.49555" lon="3.8098">
        <ele>75.6</ele>
        <time>2017-02-19T12:54:59Z</time>
      </trkpt>
      <trkpt lat="50.49544" lon="3.80975">
        <ele>75.6</ele>
        <time>2017-02-19T12:55:09Z</time>
      </trkpt>
      <trkpt lat="50.49529" lon="3.80975">
        <ele>75.12</ele>
        <time>2017-02-19T12:55:23Z</time>
      </trkpt>
      <trkpt lat="50.49519" lon="3.80984">
        <ele>75.12</ele>
        <time>2017-02-19T12:55:38Z</time>
      </trkpt>
      <trkpt lat="50.49511" lon="3.81005">
        <ele>74.16</ele>
        <time>2017-02-19T12:55:52Z</time>
      </trkpt>
      <trkpt lat="50.49507" lon="3.81038">
        <ele>74.16</ele>
        <time>2017-02-19T12:56:08Z</time>
      </trkpt>
      <trkpt lat="50.49508" lon="3.8106">
        <ele>74.16</ele>
        <time>2017-02-19T12:56:20Z</time>
      </trkpt>
      <trkpt lat="50.49508" lon="3.81086">
        <ele>74.16</ele>
        <time>2017-02-19T12:56:34Z</time>
      </trkpt>
      <trkpt lat="50.49508" lon="3.8111">
        <ele>74.16</ele>
        <time>2017-02-19T12:56:46Z</time>
      </trkpt>
      <trkpt lat="50.49507" lon="3.81137">
        <ele>74.16</ele>
        <time>2017-02-19T12:57:00Z</time>
      </trkpt>
      <trkpt lat="50.49506" lon="3.81163">
        <ele>74.16</ele>
        <time>2017-02-19T12:57:13Z</time>
      </trkpt>
      <trkpt lat="50.49507" lon="3.81185">
        <ele>74.16</ele>
        <time>2017-02-19T12:57:25Z</time>
      </trkpt>
      <trkpt lat="50.49507" lon="3.81215">
        <ele>74.16</ele>
        <time>2017-02-19T12:57:39Z</time>
      </trkpt>
      <trkpt lat="50.49508" lon="3.81242">
        <ele>74.16</ele>
        <time>2017-02-19T12:57:53Z</time>
      </trkpt>
      <trkpt lat="50.49506" lon="3.81271">
        <ele>74.16</ele>
        <time>2017-02-19T12:58:08Z</time>
      </trkpt>
      <trkpt lat="50.49505" lon="3.81293">
        <ele>74.16</ele>
        <time>2017-02-19T12:58:19Z</time>
      </trkpt>
      <trkpt lat="50.49507" lon="3.8133">
        <ele>75.6</ele>
        <time>2017-02-19T12:58:35Z</time>
      </trkpt>
      <trkpt lat="50.49508" lon="3.81352">
        <ele>75.6</ele>
        <time>2017-02-19T12:58:49Z</time>
      </trkpt>
      <trkpt lat="50.49508" lon="3.81375">
        <ele>76.08</ele>
        <time>2017-02-19T12:59:01Z</time>
      </trkpt>
      <trkpt lat="50.49508" lon="3.81405">
        <ele>76.08</ele>
        <time>2017-02-19T12:59:14Z</time>
      </trkpt>
      <trkpt lat="50.49507" lon="3.81407">
        <ele>76.08</ele>
        <time>2017-02-19T12:59:15Z</time>
      </trkpt>
      <trkpt lat="50.49506" lon="3.81428">
        <ele>76.08</ele>
        <time>2017-02-19T12:59:27Z</time>
      </trkpt>
      <trkpt lat="50.49505" lon="3.81463">
        <ele>75.6</ele>
        <time>2017-02-19T12:59:42Z</time>
      </trkpt>
      <trkpt lat="50.49506" lon="3.81487">
        <ele>75.6</ele>
        <time>2017-02-19T12:59:54Z</time>
      </trkpt>
      <trkpt lat="50.49506" lon="3.81512">
        <ele>75.6</ele>
        <time>2017-02-19T13:00:08Z</time>
      </trkpt>
      <trkpt lat="50.49506" lon="3.81541">
        <ele>75.6</ele>
        <time>2017-02-19T13:00:21Z</time>
      </trkpt>
      <trkpt lat="50.49506" lon="3.81575">
        <ele>75.12</ele>
        <time>2017-02-19T13:00:36Z</time>
      </trkpt>
      <trkpt lat="50.49504" lon="3.81605">
        <ele>75.12</ele>
        <time>2017-02-19T13:00:50Z</time>
      </trkpt>
      <trkpt lat="50.49504" lon="3.81629">
        <ele>75.12</ele>
        <time>2017-02-19T13:01:02Z</time>
      </trkpt>
      <trkpt lat="50.49503" lon="3.81638">
        <ele>75.12</ele>
        <time>2017-02-19T13:01:06Z</time>
      </trkpt>
      <trkpt lat="50.49505" lon="3.8167">
        <ele>73.68</ele>
        <time>2017-02-19T13:01:22Z</time>
      </trkpt>
      <trkpt lat="50.49503" lon="3.81697">
        <ele>73.68</ele>
        <time>2017-02-19T13:01:36Z</time>
      </trkpt>
      <trkpt lat="50.49503" lon="3.8171">
        <ele>73.68</ele>
        <time>2017-02-19T13:01:41Z</time>
      </trkpt>
      <trkpt lat="50.49505" lon="3.81736">
        <ele>73.2</ele>
        <time>2017-02-19T13:01:54Z</time>
      </trkpt>
      <trkpt lat="50.49505" lon="3.8176">
        <ele>73.2</ele>
        <time>2017-02-19T13:02:09Z</time>
      </trkpt>
      <trkpt lat="50.49505" lon="3.8178">
        <ele>73.2</ele>
        <time>2017-02-19T13:02:18Z</time>
      </trkpt>
      <trkpt lat="50.49503" lon="3.81812">
        <ele>72.24</ele>
        <time>2017-02-19T13:02:31Z</time>
      </trkpt>
      <trkpt lat="50.49503" lon="3.81816">
        <ele>72.24</ele>
        <time>2017-02-19T13:02:33Z</time>
      </trkpt>
      <trkpt lat="50.49502" lon="3.81824">
        <ele>72.24</ele>
        <time>2017-02-19T13:02:37Z</time>
      </trkpt>
      <trkpt lat="50.49501" lon="3.81849">
        <ele>72.24</ele>
        <time>2017-02-19T13:02:49Z</time>
      </trkpt>
      <trkpt lat="50.49501" lon="3.81879">
        <ele>72.24</ele>
        <time>2017-02-19T13:03:04Z</time>
      </trkpt>
      <trkpt lat="50.495" lon="3.81911">
        <ele>72.24</ele>
        <time>2017-02-19T13:03:18Z</time>
      </trkpt>
      <trkpt lat="50.49498" lon="3.81936">
        <ele>72.24</ele>
        <time>2017-02-19T13:03:29Z</time>
      </trkpt>
      <trkpt lat="50.49496" lon="3.81964">
        <ele>72.72</ele>
        <time>2017-02-19T13:03:44Z</time>
      </trkpt>
      <trkpt lat="50.49496" lon="3.81998">
        <ele>72.24</ele>
        <time>2017-02-19T13:03:59Z</time>
      </trkpt>
      <trkpt lat="50.49496" lon="3.82">
        <ele>72.24</ele>
        <time>2017-02-19T13:04:00Z</time>
      </trkpt>
      <trkpt lat="50.49496" lon="3.82025">
        <ele>71.76</ele>
        <time>2017-02-19T13:04:12Z</time>
      </trkpt>
      <trkpt lat="50.49497" lon="3.82037">
        <ele>71.76</ele>
        <time>2017-02-19T13:04:20Z</time>
      </trkpt>
      <trkpt lat="50.49493" lon="3.82076">
        <ele>71.76</ele>
        <time>2017-02-19T13:04:35Z</time>
      </trkpt>
      <trkpt lat="50.49493" lon="3.82101">
        <ele>71.76</ele>
        <time>2017-02-19T13:04:48Z</time>
      </trkpt>
      <trkpt lat="50.49492" lon="3.82123">
        <ele>71.27</ele>
        <time>2017-02-19T13:05:00Z</time>
      </trkpt>
      <trkpt lat="50.4949" lon="3.8216">
        <ele>70.79</ele>
        <time>2017-02-19T13:05:18Z</time>
      </trkpt>
      <trkpt lat="50.49492" lon="3.8219">
        <ele>70.79</ele>
        <time>2017-02-19T13:05:32Z</time>
      </trkpt>
      <trkpt lat="50.49492" lon="3.8222">
        <ele>70.79</ele>
        <time>2017-02-19T13:05:46Z</time>
      </trkpt>
      <trkpt lat="50.49492" lon="3.82232">
        <ele>70.31</ele>
        <time>2017-02-19T13:05:52Z</time>
      </trkpt>
      <trkpt lat="50.49491" lon="3.82262">
        <ele>70.31</ele>
        <time>2017-02-19T13:06:06Z</time>
      </trkpt>
      <trkpt lat="50.49491" lon="3.82288">
        <ele>70.31</ele>
        <time>2017-02-19T13:06:19Z</time>
      </trkpt>
      <trkpt lat="50.49494" lon="3.82316">
        <ele>70.31</ele>
        <time>2017-02-19T13:06:32Z</time>
      </trkpt>
      <trkpt lat="50.49494" lon="3.82341">
        <ele>70.31</ele>
        <time>2017-02-19T13:06:45Z</time>
      </trkpt>
      <trkpt lat="50.49492" lon="3.82373">
        <ele>70.79</ele>
        <time>2017-02-19T13:06:59Z</time>
      </trkpt>
      <trkpt lat="50.49494" lon="3.82399">
        <ele>70.79</ele>
        <time>2017-02-19T13:07:13Z</time>
      </trkpt>
      <trkpt lat="50.49492" lon="3.82432">
        <ele>70.79</ele>
        <time>2017-02-19T13:07:28Z</time>
      </trkpt>
      <trkpt lat="50.49493" lon="3.82438">
        <ele>70.79</ele>
        <time>2017-02-19T13:07:31Z</time>
      </trkpt>
      <trkpt lat="50.49493" lon="3.82443">
        <ele>70.79</ele>
        <time>2017-02-19T13:07:33Z</time>
      </trkpt>
      <trkpt lat="50.49494" lon="3.82457">
        <ele>70.79</ele>
        <time>2017-02-19T13:07:40Z</time>
      </trkpt>
      <trkpt lat="50.49486" lon="3.82465">
        <ele>70.31</ele>
        <time>2017-02-19T13:07:53Z</time>
      </trkpt>
      <trkpt lat="50.49478" lon="3.82466">
        <ele>70.31</ele>
        <time>2017-02-19T13:08:01Z</time>
      </trkpt>
      <trkpt lat="50.49462" lon="3.82469">
        <ele>70.31</ele>
        <time>2017-02-19T13:08:15Z</time>
      </trkpt>
      <trkpt lat="50.49444" lon="3.82467">
        <ele>70.31</ele>
        <time>2017-02-19T13:08:29Z</time>
      </trkpt>
      <trkpt lat="50.49436" lon="3.82469">
        <ele>70.31</ele>
        <time>2017-02-19T13:08:34Z</time>
      </trkpt>
      <trkpt lat="50.49413" lon="3.8247">
        <ele>70.31</ele>
        <time>2017-02-19T13:08:49Z</time>
      </trkpt>
      <trkpt lat="50.49394" lon="3.82474">
        <ele>70.31</ele>
        <time>2017-02-19T13:09:05Z</time>
      </trkpt>
      <trkpt lat="50.49381" lon="3.82476">
        <ele>70.31</ele>
        <time>2017-02-19T13:09:16Z</time>
      </trkpt>
      <trkpt lat="50.49373" lon="3.82477">
        <ele>70.31</ele>
        <time>2017-02-19T13:09:22Z</time>
      </trkpt>
      <trkpt lat="50.49359" lon="3.82478">
        <ele>69.83</ele>
        <time>2017-02-19T13:09:32Z</time>
      </trkpt>
      <trkpt lat="50.49338" lon="3.82484">
        <ele>68.87</ele>
        <time>2017-02-19T13:09:47Z</time>
      </trkpt>
      <trkpt lat="50.49318" lon="3.8249">
        <ele>68.39</ele>
        <time>2017-02-19T13:10:03Z</time>
      </trkpt>
      <trkpt lat="50.493" lon="3.82497">
        <ele>68.39</ele>
        <time>2017-02-19T13:10:18Z</time>
      </trkpt>
      <trkpt lat="50.49279" lon="3.8251">
        <ele>67.91</ele>
        <time>2017-02-19T13:10:36Z</time>
      </trkpt>
      <trkpt lat="50.49258" lon="3.82522">
        <ele>67.43</ele>
        <time>2017-02-19T13:10:54Z</time>
      </trkpt>
      <trkpt lat="50.49241" lon="3.82529">
        <ele>66.95</ele>
        <time>2017-02-19T13:11:07Z</time>
      </trkpt>
      <trkpt lat="50.49227" lon="3.8254">
        <ele>65.99</ele>
        <time>2017-02-19T13:11:20Z</time>
      </trkpt>
      <trkpt lat="50.49209" lon="3.82559">
        <ele>65.99</ele>
        <time>2017-02-19T13:11:35Z</time>
      </trkpt>
      <trkpt lat="50.49194" lon="3.82575">
        <ele>65.51</ele>
        <time>2017-02-19T13:11:49Z</time>
      </trkpt>
      <trkpt lat="50.49176" lon="3.82597">
        <ele>64.55</ele>
        <time>2017-02-19T13:12:05Z</time>
      </trkpt>
      <trkpt lat="50.49158" lon="3.82617">
        <ele>63.1</ele>
        <time>2017-02-19T13:12:22Z</time>
      </trkpt>
      <trkpt lat="50.49146" lon="3.82644">
        <ele>62.14</ele>
        <time>2017-02-19T13:12:37Z</time>
      </trkpt>
      <trkpt lat="50.49138" lon="3.82665">
        <ele>61.66</ele>
        <time>2017-02-19T13:12:51Z</time>
      </trkpt>
      <trkpt lat="50.49134" lon="3.82681">
        <ele>61.66</ele>
        <time>2017-02-19T13:13:03Z</time>
      </trkpt>
      <trkpt lat="50.49128" lon="3.82692">
        <ele>61.66</ele>
        <time>2017-02-19T13:13:09Z</time>
      </trkpt>
      <trkpt lat="50.49123" lon="3.82722">
        <ele>62.62</ele>
        <time>2017-02-19T13:13:23Z</time>
      </trkpt>
      <trkpt lat="50.49118" lon="3.82756">
        <ele>63.58</ele>
        <time>2017-02-19T13:13:37Z</time>
      </trkpt>
      <trkpt lat="50.49112" lon="3.82782">
        <ele>64.07</ele>
        <time>2017-02-19T13:13:50Z</time>
      </trkpt>
      <trkpt lat="50.49112" lon="3.82784">
        <ele>64.55</ele>
        <time>2017-02-19T13:13:51Z</time>
      </trkpt>
      <trkpt lat="50.49101" lon="3.82805">
        <ele>64.55</ele>
        <time>2017-02-19T13:14:04Z</time>
      </trkpt>
      <trkpt lat="50.49091" lon="3.82827">
        <ele>64.55</ele>
        <time>2017-02-19T13:14:17Z</time>
      </trkpt>
      <trkpt lat="50.49077" lon="3.82853">
        <ele>64.55</ele>
        <time>2017-02-19T13:14:31Z</time>
      </trkpt>
      <trkpt lat="50.4907" lon="3.82862">
        <ele>64.55</ele>
        <time>2017-02-19T13:14:39Z</time>
      </trkpt>
      <trkpt lat="50.49054" lon="3.82869">
        <ele>65.03</ele>
        <time>2017-02-19T13:14:54Z</time>
      </trkpt>
      <trkpt lat="50.49049" lon="3.8287">
        <ele>65.03</ele>
        <time>2017-02-19T13:14:57Z</time>
      </trkpt>
      <trkpt lat="50.4904" lon="3.82875">
        <ele>65.51</ele>
        <time>2017-02-19T13:15:04Z</time>
      </trkpt>
      <trkpt lat="50.49034" lon="3.82881">
        <ele>65.03</ele>
        <time>2017-02-19T13:15:09Z</time>
      </trkpt>
      <trkpt lat="50.49023" lon="3.82891">
        <ele>65.51</ele>
        <time>2017-02-19T13:15:18Z</time>
      </trkpt>
      <trkpt lat="50.49011" lon="3.82917">
        <ele>65.51</ele>
        <time>2017-02-19T13:15:35Z</time>
      </trkpt>
      <trkpt lat="50.49" lon="3.82942">
        <ele>65.99</ele>
        <time>2017-02-19T13:15:51Z</time>
      </trkpt>
      <trkpt lat="50.48989" lon="3.82971">
        <ele>65.99</ele>
        <time>2017-02-19T13:16:07Z</time>
      </trkpt>
      <trkpt lat="50.48978" lon="3.83005">
        <ele>66.47</ele>
        <time>2017-02-19T13:16:25Z</time>
      </trkpt>
      <trkpt lat="50.48969" lon="3.8303">
        <ele>66.47</ele>
        <time>2017-02-19T13:16:40Z</time>
      </trkpt>
      <trkpt lat="50.4896" lon="3.83059">
        <ele>66.47</ele>
        <time>2017-02-19T13:16:54Z</time>
      </trkpt>
      <trkpt lat="50.48958" lon="3.83066">
        <ele>66.47</ele>
        <time>2017-02-19T13:16:59Z</time>
      </trkpt>
      <trkpt lat="50.48954" lon="3.83074">
        <ele>65.51</ele>
        <time>2017-02-19T13:17:05Z</time>
      </trkpt>
      <trkpt lat="50.48951" lon="3.83082">
        <ele>65.51</ele>
        <time>2017-02-19T13:17:09Z</time>
      </trkpt>
      <trkpt lat="50.48948" lon="3.83085">
        <ele>65.51</ele>
        <time>2017-02-19T13:17:13Z</time>
      </trkpt>
      <trkpt lat="50.48934" lon="3.83084">
        <ele>65.51</ele>
        <time>2017-02-19T13:17:26Z</time>
      </trkpt>
      <trkpt lat="50.48931" lon="3.83085">
        <ele>65.51</ele>
        <time>2017-02-19T13:17:31Z</time>
      </trkpt>
      <trkpt lat="50.48932" lon="3.83094">
        <ele>65.51</ele>
        <time>2017-02-19T13:17:45Z</time>
      </trkpt>
      <trkpt lat="50.48935" lon="3.83098">
        <ele>65.51</ele>
        <time>2017-02-19T13:18:06Z</time>
      </trkpt>
      <trkpt lat="50.48931" lon="3.83097">
        <ele>65.51</ele>
        <time>2017-02-19T13:18:31Z</time>
      </trkpt>
      <trkpt lat="50.48932" lon="3.83092">
        <ele>65.51</ele>
        <time>2017-02-19T13:18:43Z</time>
      </trkpt>
      <trkpt lat="50.48938" lon="3.83085">
        <ele>65.51</ele>
        <time>2017-02-19T13:18:55Z</time>
      </trkpt>
      <trkpt lat="50.48946" lon="3.83087">
        <ele>65.51</ele>
        <time>2017-02-19T13:19:06Z</time>
      </trkpt>
      <trkpt lat="50.48951" lon="3.83083">
        <ele>65.51</ele>
        <time>2017-02-19T13:19:12Z</time>
      </trkpt>
      <trkpt lat="50.48961" lon="3.83063">
        <ele>65.51</ele>
        <time>2017-02-19T13:19:25Z</time>
      </trkpt>
      <trkpt lat="50.48968" lon="3.8304">
        <ele>65.51</ele>
        <time>2017-02-19T13:19:39Z</time>
      </trkpt>
      <trkpt lat="50.48969" lon="3.83033">
        <ele>65.51</ele>
        <time>2017-02-19T13:19:43Z</time>
      </trkpt>
      <trkpt lat="50.48971" lon="3.83024">
        <ele>65.51</ele>
        <time>2017-02-19T13:19:48Z</time>
      </trkpt>
      <trkpt lat="50.48976" lon="3.83008">
        <ele>65.51</ele>
        <time>2017-02-19T13:19:57Z</time>
      </trkpt>
      <trkpt lat="50.48955" lon="3.82989">
        <ele>65.51</ele>
        <time>2017-02-19T13:20:13Z</time>
      </trkpt>
      <trkpt lat="50.48937" lon="3.82975">
        <ele>65.51</ele>
        <time>2017-02-19T13:20:28Z</time>
      </trkpt>
      <trkpt lat="50.48935" lon="3.82973">
        <ele>65.51</ele>
        <time>2017-02-19T13:20:30Z</time>
      </trkpt>
      <trkpt lat="50.48929" lon="3.82979">
        <ele>65.51</ele>
        <time>2017-02-19T13:20:37Z</time>
      </trkpt>
      <trkpt lat="50.48917" lon="3.83008">
        <ele>65.51</ele>
        <time>2017-02-19T13:20:54Z</time>
      </trkpt>
      <trkpt lat="50.48907" lon="3.83042">
        <ele>65.03</ele>
        <time>2017-02-19T13:21:13Z</time>
      </trkpt>
      <trkpt lat="50.48892" lon="3.83057">
        <ele>64.55</ele>
        <time>2017-02-19T13:21:29Z</time>
      </trkpt>
      <trkpt lat="50.48871" lon="3.83055">
        <ele>64.07</ele>
        <time>2017-02-19T13:21:44Z</time>
      </trkpt>
      <trkpt lat="50.48851" lon="3.83052">
        <ele>64.07</ele>
        <time>2017-02-19T13:22:01Z</time>
      </trkpt>
      <trkpt lat="50.48826" lon="3.8305">
        <ele>63.58</ele>
        <time>2017-02-19T13:22:18Z</time>
      </trkpt>
      <trkpt lat="50.48805" lon="3.83048">
        <ele>62.62</ele>
        <time>2017-02-19T13:22:33Z</time>
      </trkpt>
      <trkpt lat="50.48781" lon="3.83045">
        <ele>61.66</ele>
        <time>2017-02-19T13:22:53Z</time>
      </trkpt>
      <trkpt lat="50.48756" lon="3.8304">
        <ele>60.7</ele>
        <time>2017-02-19T13:23:12Z</time>
      </trkpt>
      <trkpt lat="50.48727" lon="3.83036">
        <ele>59.74</ele>
        <time>2017-02-19T13:23:32Z</time>
      </trkpt>
      <trkpt lat="50.48706" lon="3.83037">
        <ele>59.26</ele>
        <time>2017-02-19T13:23:49Z</time>
      </trkpt>
      <trkpt lat="50.48685" lon="3.83033">
        <ele>58.3</ele>
        <time>2017-02-19T13:24:06Z</time>
      </trkpt>
      <trkpt lat="50.48683" lon="3.83031">
        <ele>58.3</ele>
        <time>2017-02-19T13:24:08Z</time>
      </trkpt>
      <trkpt lat="50.48665" lon="3.83017">
        <ele>57.82</ele>
        <time>2017-02-19T13:24:23Z</time>
      </trkpt>
      <trkpt lat="50.48644" lon="3.83004">
        <ele>57.34</ele>
        <time>2017-02-19T13:24:40Z</time>
      </trkpt>
      <trkpt lat="50.48627" lon="3.82992">
        <ele>56.37</ele>
        <time>2017-02-19T13:24:54Z</time>
      </trkpt>
      <trkpt lat="50.48601" lon="3.82976">
        <ele>55.89</ele>
        <time>2017-02-19T13:25:14Z</time>
      </trkpt>
      <trkpt lat="50.48597" lon="3.82976">
        <ele>55.41</ele>
        <time>2017-02-19T13:25:18Z</time>
      </trkpt>
      <trkpt lat="50.48595" lon="3.82978">
        <ele>55.41</ele>
        <time>2017-02-19T13:25:20Z</time>
      </trkpt>
      <trkpt lat="50.48589" lon="3.83011">
        <ele>54.93</ele>
        <time>2017-02-19T13:25:39Z</time>
      </trkpt>
      <trkpt lat="50.48582" lon="3.83042">
        <ele>55.41</ele>
        <time>2017-02-19T13:25:55Z</time>
      </trkpt>
      <trkpt lat="50.48572" lon="3.83064">
        <ele>54.45</ele>
        <time>2017-02-19T13:26:08Z</time>
      </trkpt>
      <trkpt lat="50.48568" lon="3.83085">
        <ele>54.45</ele>
        <time>2017-02-19T13:26:23Z</time>
      </trkpt>
      <trkpt lat="50.48562" lon="3.83102">
        <ele>54.45</ele>
        <time>2017-02-19T13:26:38Z</time>
      </trkpt>
      <trkpt lat="50.48553" lon="3.83127">
        <ele>53.97</ele>
        <time>2017-02-19T13:26:52Z</time>
      </trkpt>
      <trkpt lat="50.48546" lon="3.8315">
        <ele>53.97</ele>
        <time>2017-02-19T13:27:02Z</time>
      </trkpt>
      <trkpt lat="50.48541" lon="3.83155">
        <ele>53.97</ele>
        <time>2017-02-19T13:27:08Z</time>
      </trkpt>
      <trkpt lat="50.48533" lon="3.83156">
        <ele>53.49</ele>
        <time>2017-02-19T13:27:16Z</time>
      </trkpt>
      <trkpt lat="50.48521" lon="3.83155">
        <ele>53.01</ele>
        <time>2017-02-19T13:27:22Z</time>
      </trkpt>
      <trkpt lat="50.485" lon="3.83154">
        <ele>52.05</ele>
        <time>2017-02-19T13:27:37Z</time>
      </trkpt>
      <trkpt lat="50.48482" lon="3.83152">
        <ele>50.61</ele>
        <time>2017-02-19T13:27:50Z</time>
      </trkpt>
      <trkpt lat="50.48456" lon="3.83148">
        <ele>49.65</ele>
        <time>2017-02-19T13:28:08Z</time>
      </trkpt>
      <trkpt lat="50.48436" lon="3.83143">
        <ele>49.16</ele>
        <time>2017-02-19T13:28:24Z</time>
      </trkpt>
      <trkpt lat="50.48417" lon="3.83138">
        <ele>48.2</ele>
        <time>2017-02-19T13:28:40Z</time>
      </trkpt>
      <trkpt lat="50.48396" lon="3.83125">
        <ele>47.24</ele>
        <time>2017-02-19T13:28:58Z</time>
      </trkpt>
      <trkpt lat="50.48378" lon="3.83117">
        <ele>46.76</ele>
        <time>2017-02-19T13:29:14Z</time>
      </trkpt>
      <trkpt lat="50.48371" lon="3.83112">
        <ele>46.76</ele>
        <time>2017-02-19T13:29:21Z</time>
      </trkpt>
      <trkpt lat="50.48356" lon="3.83102">
        <ele>46.28</ele>
        <time>2017-02-19T13:29:35Z</time>
      </trkpt>
      <trkpt lat="50.48344" lon="3.83101">
        <ele>45.32</ele>
        <time>2017-02-19T13:29:44Z</time>
      </trkpt>
      <trkpt lat="50.48327" lon="3.83093">
        <ele>45.32</ele>
        <time>2017-02-19T13:29:59Z</time>
      </trkpt>
      <trkpt lat="50.48309" lon="3.83085">
        <ele>44.84</ele>
        <time>2017-02-19T13:30:14Z</time>
      </trkpt>
      <trkpt lat="50.48292" lon="3.83077">
        <ele>44.84</ele>
        <time>2017-02-19T13:30:29Z</time>
      </trkpt>
      <trkpt lat="50.48287" lon="3.83093">
        <ele>44.36</ele>
        <time>2017-02-19T13:30:42Z</time>
      </trkpt>
      <trkpt lat="50.48281" lon="3.8312">
        <ele>44.36</ele>
        <time>2017-02-19T13:30:58Z</time>
      </trkpt>
      <trkpt lat="50.48275" lon="3.83144">
        <ele>43.4</ele>
        <time>2017-02-19T13:31:14Z</time>
      </trkpt>
      <trkpt lat="50.48261" lon="3.8316">
        <ele>42.92</ele>
        <time>2017-02-19T13:31:27Z</time>
      </trkpt>
      <trkpt lat="50.48246" lon="3.8317">
        <ele>42.44</ele>
        <time>2017-02-19T13:31:38Z</time>
      </trkpt>
      <trkpt lat="50.48221" lon="3.83167">
        <ele>41.95</ele>
        <time>2017-02-19T13:31:55Z</time>
      </trkpt>
      <trkpt lat="50.4822" lon="3.83168">
        <ele>41.95</ele>
        <time>2017-02-19T13:31:56Z</time>
      </trkpt>
      <trkpt lat="50.48217" lon="3.83175">
        <ele>41.95</ele>
        <time>2017-02-19T13:32:02Z</time>
      </trkpt>
      <trkpt lat="50.48216" lon="3.83188">
        <ele>41.47</ele>
        <time>2017-02-19T13:32:08Z</time>
      </trkpt>
      <trkpt lat="50.48212" lon="3.83225">
        <ele>40.99</ele>
        <time>2017-02-19T13:32:27Z</time>
      </trkpt>
      <trkpt lat="50.48212" lon="3.83229">
        <ele>40.99</ele>
        <time>2017-02-19T13:32:29Z</time>
      </trkpt>
      <trkpt lat="50.48209" lon="3.83264">
        <ele>40.51</ele>
        <time>2017-02-19T13:32:46Z</time>
      </trkpt>
      <trkpt lat="50.48205" lon="3.8329">
        <ele>40.51</ele>
        <time>2017-02-19T13:33:00Z</time>
      </trkpt>
      <trkpt lat="50.48198" lon="3.83321">
        <ele>40.03</ele>
        <time>2017-02-19T13:33:17Z</time>
      </trkpt>
      <trkpt lat="50.4819" lon="3.83333">
        <ele>39.07</ele>
        <time>2017-02-19T13:33:24Z</time>
      </trkpt>
      <trkpt lat="50.48178" lon="3.83333">
        <ele>39.07</ele>
        <time>2017-02-19T13:33:34Z</time>
      </trkpt>
      <trkpt lat="50.48163" lon="3.83336">
        <ele>39.07</ele>
        <time>2017-02-19T13:33:47Z</time>
      </trkpt>
      <trkpt lat="50.48159" lon="3.83341">
        <ele>39.07</ele>
        <time>2017-02-19T13:33:51Z</time>
      </trkpt>
      <trkpt lat="50.48155" lon="3.83375">
        <ele>39.07</ele>
        <time>2017-02-19T13:34:09Z</time>
      </trkpt>
      <trkpt lat="50.48153" lon="3.83392">
        <ele>39.07</ele>
        <time>2017-02-19T13:34:20Z</time>
      </trkpt>
      <trkpt lat="50.48157" lon="3.83422">
        <ele>39.07</ele>
        <time>2017-02-19T13:34:36Z</time>
      </trkpt>
      <trkpt lat="50.48153" lon="3.83451">
        <ele>39.07</ele>
        <time>2017-02-19T13:34:50Z</time>
      </trkpt>
      <trkpt lat="50.48156" lon="3.83478">
        <ele>39.07</ele>
        <time>2017-02-19T13:35:04Z</time>
      </trkpt>
      <trkpt lat="50.48154" lon="3.83503">
        <ele>39.07</ele>
        <time>2017-02-19T13:35:21Z</time>
      </trkpt>
      <trkpt lat="50.4815" lon="3.8351">
        <ele>39.07</ele>
        <time>2017-02-19T13:35:27Z</time>
      </trkpt>
      <trkpt lat="50.48141" lon="3.83534">
        <ele>38.59</ele>
        <time>2017-02-19T13:35:44Z</time>
      </trkpt>
      <trkpt lat="50.48135" lon="3.83556">
        <ele>40.03</ele>
        <time>2017-02-19T13:35:56Z</time>
      </trkpt>
      <trkpt lat="50.48134" lon="3.83556">
        <ele>40.03</ele>
        <time>2017-02-19T13:35:57Z</time>
      </trkpt>
      <trkpt lat="50.48129" lon="3.8357">
        <ele>39.55</ele>
        <time>2017-02-19T13:36:06Z</time>
      </trkpt>
      <trkpt lat="50.48125" lon="3.83584">
        <ele>40.03</ele>
        <time>2017-02-19T13:36:23Z</time>
      </trkpt>
    </trkseg>
  </trk>
</gpx>